<?xml version='1.0' encoding='UTF-8'?><gpx version="1.1" creator="JPX - https://github.com/jenetics/jpx" xmlns="http://www.topografix.com/GPX/1/1"><trk><trkseg><trkpt lat="42.08451" lon="12.1796383"><ele>269.0</ele><time>2026-04-15T07:30:28.079Z</time></trkpt><trkpt lat="42.0845933" lon="12.17964"><ele>269.0</ele><time>2026-04-15T07:30:30.08Z</time></trkpt><trkpt lat="42.0847017" lon="12.1796467"><ele>269.0</ele><time>2026-04-15T07:30:32.084Z</time></trkpt><trkpt lat="42.084825" lon="12.17963"><ele>269.0</ele><time>2026-04-15T07:30:34.083Z</time></trkpt><trkpt lat="42.0848933" lon="12.1796017"><ele>269.0</ele><time>2026-04-15T07:30:35.081Z</time></trkpt><trkpt lat="42.0849517" lon="12.1795583"><ele>268.2</ele><time>2026-04-15T07:30:36.085Z</time></trkpt><trkpt lat="42.0849983" lon="12.179495"><ele>267.4</ele><time>2026-04-15T07:30:37.085Z</time></trkpt><trkpt lat="42.085085" lon="12.1793833"><ele>266.6</ele><time>2026-04-15T07:30:39.084Z</time></trkpt><trkpt lat="42.0851617" lon="12.1792833"><ele>265.8</ele><time>2026-04-15T07:30:41.089Z</time></trkpt><trkpt lat="42.085235" lon="12.1791917"><ele>265.0</ele><time>2026-04-15T07:30:43.084Z</time></trkpt><trkpt lat="42.0853017" lon="12.179105"><ele>266.0</ele><time>2026-04-15T07:30:45.085Z</time></trkpt><trkpt lat="42.0853383" lon="12.1790017"><ele>267.0</ele><time>2026-04-15T07:30:47.082Z</time></trkpt><trkpt lat="42.0853433" lon="12.1788833"><ele>268.0</ele><time>2026-04-15T07:30:49.079Z</time></trkpt><trkpt lat="42.0853167" lon="12.1787733"><ele>269.0</ele><time>2026-04-15T07:30:51.082Z</time></trkpt><trkpt lat="42.085245" lon="12.1786933"><ele>270.0</ele><time>2026-04-15T07:30:53.084Z</time></trkpt><trkpt lat="42.085165" lon="12.1786617"><ele>271.0</ele><time>2026-04-15T07:30:55.085Z</time></trkpt><trkpt lat="42.0850917" lon="12.1786383"><ele>271.0</ele><time>2026-04-15T07:30:57.083Z</time></trkpt><trkpt lat="42.08502" lon="12.178625"><ele>271.0</ele><time>2026-04-15T07:30:59.083Z</time></trkpt><trkpt lat="42.0849417" lon="12.1785617"><ele>271.0</ele><time>2026-04-15T07:31:02.084Z</time></trkpt><trkpt lat="42.0849" lon="12.1784967"><ele>271.0</ele><time>2026-04-15T07:31:04.084Z</time></trkpt><trkpt lat="42.0848533" lon="12.1784367"><ele>271.0</ele><time>2026-04-15T07:31:06.083Z</time></trkpt><trkpt lat="42.0847867" lon="12.1783533"><ele>271.0</ele><time>2026-04-15T07:31:09.084Z</time></trkpt><trkpt lat="42.084725" lon="12.1782683"><ele>271.8333333333333</ele><time>2026-04-15T07:31:12.083Z</time></trkpt><trkpt lat="42.0846683" lon="12.1781917"><ele>272.66666666666663</ele><time>2026-04-15T07:31:15.081Z</time></trkpt><trkpt lat="42.0846117" lon="12.1781183"><ele>273.5</ele><time>2026-04-15T07:31:18.086Z</time></trkpt><trkpt lat="42.084555" lon="12.1780333"><ele>274.3333333333333</ele><time>2026-04-15T07:31:21.087Z</time></trkpt><trkpt lat="42.0845" lon="12.1779467"><ele>275.1666666666667</ele><time>2026-04-15T07:31:24.08Z</time></trkpt><trkpt lat="42.0844333" lon="12.177865"><ele>276.0</ele><time>2026-04-15T07:31:27.08Z</time></trkpt><trkpt lat="42.0843767" lon="12.1777767"><ele>276.3333333333333</ele><time>2026-04-15T07:31:30.083Z</time></trkpt><trkpt lat="42.084305" lon="12.1777333"><ele>276.6666666666667</ele><time>2026-04-15T07:31:53.083Z</time></trkpt><trkpt lat="42.0842683" lon="12.177635"><ele>277.0</ele><time>2026-04-15T07:31:56.081Z</time></trkpt><trkpt lat="42.0842717" lon="12.1775383"><ele>277.33333333333337</ele><time>2026-04-15T07:31:58.082Z</time></trkpt><trkpt lat="42.084275" lon="12.177445"><ele>277.6666666666667</ele><time>2026-04-15T07:32:00.085Z</time></trkpt><trkpt lat="42.08427" lon="12.17736"><ele>278.0</ele><time>2026-04-15T07:32:02.086Z</time></trkpt><trkpt lat="42.08426" lon="12.177245"><ele>278.5</ele><time>2026-04-15T07:32:05.081Z</time></trkpt><trkpt lat="42.0842583" lon="12.1771583"><ele>279.0</ele><time>2026-04-15T07:32:07.089Z</time></trkpt><trkpt lat="42.084255" lon="12.1770583"><ele>279.5</ele><time>2026-04-15T07:32:09.086Z</time></trkpt><trkpt lat="42.084245" lon="12.176955"><ele>280.0</ele><time>2026-04-15T07:32:11.082Z</time></trkpt><trkpt lat="42.08424" lon="12.1768483"><ele>280.5</ele><time>2026-04-15T07:32:13.089Z</time></trkpt><trkpt lat="42.0842317" lon="12.1767333"><ele>281.0</ele><time>2026-04-15T07:32:15.087Z</time></trkpt><trkpt lat="42.08423" lon="12.176625"><ele>281.1666666666667</ele><time>2026-04-15T07:32:17.083Z</time></trkpt><trkpt lat="42.084235" lon="12.1765033"><ele>281.33333333333337</ele><time>2026-04-15T07:32:19.084Z</time></trkpt><trkpt lat="42.0842283" lon="12.1763783"><ele>281.5</ele><time>2026-04-15T07:32:21.081Z</time></trkpt><trkpt lat="42.084225" lon="12.1762633"><ele>281.6666666666667</ele><time>2026-04-15T07:32:23.083Z</time></trkpt><trkpt lat="42.084215" lon="12.1761483"><ele>281.8333333333333</ele><time>2026-04-15T07:32:25.081Z</time></trkpt><trkpt lat="42.08421" lon="12.1760317"><ele>282.0</ele><time>2026-04-15T07:32:27.082Z</time></trkpt><trkpt lat="42.0841967" lon="12.1759117"><ele>282.0</ele><time>2026-04-15T07:32:29.084Z</time></trkpt><trkpt lat="42.08419" lon="12.1758033"><ele>282.0</ele><time>2026-04-15T07:32:31.087Z</time></trkpt><trkpt lat="42.0841917" lon="12.1757083"><ele>282.0</ele><time>2026-04-15T07:32:33.081Z</time></trkpt><trkpt lat="42.084205" lon="12.1756233"><ele>282.0</ele><time>2026-04-15T07:32:35.082Z</time></trkpt><trkpt lat="42.084205" lon="12.1754917"><ele>282.0</ele><time>2026-04-15T07:32:38.08Z</time></trkpt><trkpt lat="42.084195" lon="12.1753983"><ele>282.0</ele><time>2026-04-15T07:32:40.083Z</time></trkpt><trkpt lat="42.0841717" lon="12.1752783"><ele>282.2857142857143</ele><time>2026-04-15T07:32:43.08Z</time></trkpt><trkpt lat="42.08417" lon="12.1751517"><ele>282.57142857142856</ele><time>2026-04-15T07:32:46.083Z</time></trkpt><trkpt lat="42.0841617" lon="12.17506"><ele>282.85714285714283</ele><time>2026-04-15T07:32:48.087Z</time></trkpt><trkpt lat="42.0841617" lon="12.1749667"><ele>283.1428571428571</ele><time>2026-04-15T07:32:50.089Z</time></trkpt><trkpt lat="42.0841583" lon="12.17487"><ele>283.4285714285714</ele><time>2026-04-15T07:32:52.083Z</time></trkpt><trkpt lat="42.0841567" lon="12.174775"><ele>283.7142857142857</ele><time>2026-04-15T07:32:54.081Z</time></trkpt><trkpt lat="42.0841533" lon="12.1746833"><ele>284.0</ele><time>2026-04-15T07:32:56.081Z</time></trkpt><trkpt lat="42.0841533" lon="12.17458"><ele>284.42857142857144</ele><time>2026-04-15T07:32:58.081Z</time></trkpt><trkpt lat="42.0841467" lon="12.17449"><ele>284.85714285714283</ele><time>2026-04-15T07:33:00.084Z</time></trkpt><trkpt lat="42.0841417" lon="12.1744"><ele>285.2857142857143</ele><time>2026-04-15T07:33:02.083Z</time></trkpt><trkpt lat="42.0841417" lon="12.17431"><ele>285.7142857142857</ele><time>2026-04-15T07:33:04.083Z</time></trkpt><trkpt lat="42.0841417" lon="12.1742067"><ele>286.1428571428571</ele><time>2026-04-15T07:33:07.085Z</time></trkpt><trkpt lat="42.084145" lon="12.1740783"><ele>286.57142857142856</ele><time>2026-04-15T07:33:10.089Z</time></trkpt><trkpt lat="42.08414" lon="12.173985"><ele>287.0</ele><time>2026-04-15T07:33:12.084Z</time></trkpt><trkpt lat="42.0841367" lon="12.1738983"><ele>287.5</ele><time>2026-04-15T07:33:14.083Z</time></trkpt><trkpt lat="42.0841333" lon="12.17381"><ele>288.0</ele><time>2026-04-15T07:33:16.083Z</time></trkpt><trkpt lat="42.0841267" lon="12.1737017"><ele>288.5</ele><time>2026-04-15T07:33:19.083Z</time></trkpt><trkpt lat="42.0841283" lon="12.1735867"><ele>289.0</ele><time>2026-04-15T07:33:22.082Z</time></trkpt><trkpt lat="42.0841267" lon="12.1734767"><ele>289.5</ele><time>2026-04-15T07:33:25.083Z</time></trkpt><trkpt lat="42.084125" lon="12.173355"><ele>290.0</ele><time>2026-04-15T07:33:28.085Z</time></trkpt><trkpt lat="42.0841317" lon="12.1732433"><ele>290.6666666666667</ele><time>2026-04-15T07:33:31.082Z</time></trkpt><trkpt lat="42.0841317" lon="12.1731267"><ele>291.33333333333337</ele><time>2026-04-15T07:33:34.089Z</time></trkpt><trkpt lat="42.0841267" lon="12.1730233"><ele>292.0</ele><time>2026-04-15T07:33:37.082Z</time></trkpt><trkpt lat="42.0841217" lon="12.1729183"><ele>292.6666666666667</ele><time>2026-04-15T07:33:40.084Z</time></trkpt><trkpt lat="42.0841217" lon="12.1728183"><ele>293.3333333333333</ele><time>2026-04-15T07:33:43.089Z</time></trkpt><trkpt lat="42.0841033" lon="12.1727267"><ele>294.0</ele><time>2026-04-15T07:33:47.085Z</time></trkpt><trkpt lat="42.0841083" lon="12.1726333"><ele>294.0</ele><time>2026-04-15T07:33:51.085Z</time></trkpt><trkpt lat="42.0841017" lon="12.172535"><ele>294.0</ele><time>2026-04-15T07:33:55.083Z</time></trkpt><trkpt lat="42.0840967" lon="12.1724367"><ele>294.0</ele><time>2026-04-15T07:34:00.082Z</time></trkpt><trkpt lat="42.0841017" lon="12.17235"><ele>294.0</ele><time>2026-04-15T07:34:03.082Z</time></trkpt><trkpt lat="42.084105" lon="12.1722483"><ele>294.0</ele><time>2026-04-15T07:34:06.086Z</time></trkpt><trkpt lat="42.0840983" lon="12.1721633"><ele>294.0</ele><time>2026-04-15T07:34:10.082Z</time></trkpt><trkpt lat="42.0841017" lon="12.172075"><ele>294.0</ele><time>2026-04-15T07:34:13.087Z</time></trkpt><trkpt lat="42.08412" lon="12.1719617"><ele>294.3333333333333</ele><time>2026-04-15T07:34:16.085Z</time></trkpt><trkpt lat="42.0841067" lon="12.1718633"><ele>294.6666666666667</ele><time>2026-04-15T07:34:19.084Z</time></trkpt><trkpt lat="42.0840917" lon="12.1717617"><ele>295.0</ele><time>2026-04-15T07:34:22.086Z</time></trkpt><trkpt lat="42.0840767" lon="12.1716433"><ele>295.33333333333337</ele><time>2026-04-15T07:34:25.08Z</time></trkpt><trkpt lat="42.0840683" lon="12.1715567"><ele>295.6666666666667</ele><time>2026-04-15T07:34:27.084Z</time></trkpt><trkpt lat="42.0840833" lon="12.171435"><ele>296.0</ele><time>2026-04-15T07:34:30.085Z</time></trkpt><trkpt lat="42.0841733" lon="12.1713883"><ele>296.1666666666667</ele><time>2026-04-15T07:34:33.084Z</time></trkpt><trkpt lat="42.084265" lon="12.1713667"><ele>296.33333333333337</ele><time>2026-04-15T07:34:36.084Z</time></trkpt><trkpt lat="42.0843533" lon="12.1713333"><ele>296.5</ele><time>2026-04-15T07:34:39.083Z</time></trkpt><trkpt lat="42.0844117" lon="12.1712933"><ele>296.6666666666667</ele><time>2026-04-15T07:34:41.083Z</time></trkpt><trkpt lat="42.084475" lon="12.17125"><ele>296.8333333333333</ele><time>2026-04-15T07:34:43.084Z</time></trkpt><trkpt lat="42.08454" lon="12.17121"><ele>297.0</ele><time>2026-04-15T07:34:45.086Z</time></trkpt><trkpt lat="42.0846083" lon="12.1711933"><ele>297.0</ele><time>2026-04-15T07:34:47.086Z</time></trkpt><trkpt lat="42.0846783" lon="12.1711933"><ele>297.0</ele><time>2026-04-15T07:34:49.083Z</time></trkpt><trkpt lat="42.08475" lon="12.1712"><ele>297.0</ele><time>2026-04-15T07:34:51.082Z</time></trkpt><trkpt lat="42.0848317" lon="12.171195"><ele>297.0</ele><time>2026-04-15T07:34:53.082Z</time></trkpt><trkpt lat="42.0849183" lon="12.171195"><ele>297.0</ele><time>2026-04-15T07:34:55.079Z</time></trkpt><trkpt lat="42.0850017" lon="12.1711933"><ele>297.0</ele><time>2026-04-15T07:34:57.091Z</time></trkpt><trkpt lat="42.0850833" lon="12.1711833"><ele>297.42857142857144</ele><time>2026-04-15T07:34:59.08Z</time></trkpt><trkpt lat="42.08516" lon="12.17119"><ele>297.8571428571429</ele><time>2026-04-15T07:35:01.083Z</time></trkpt><trkpt lat="42.0852333" lon="12.1711817"><ele>298.2857142857143</ele><time>2026-04-15T07:35:03.083Z</time></trkpt><trkpt lat="42.085305" lon="12.1711817"><ele>298.7142857142857</ele><time>2026-04-15T07:35:05.081Z</time></trkpt><trkpt lat="42.0853767" lon="12.1711783"><ele>299.1428571428571</ele><time>2026-04-15T07:35:07.085Z</time></trkpt><trkpt lat="42.0854467" lon="12.1711717"><ele>299.57142857142856</ele><time>2026-04-15T07:35:09.085Z</time></trkpt><trkpt lat="42.085515" lon="12.1711783"><ele>300.0</ele><time>2026-04-15T07:35:11.084Z</time></trkpt><trkpt lat="42.085585" lon="12.17118"><ele>299.99999999999994</ele><time>2026-04-15T07:35:13.08Z</time></trkpt><trkpt lat="42.0856583" lon="12.171185"><ele>300.0</ele><time>2026-04-15T07:35:15.084Z</time></trkpt><trkpt lat="42.0857317" lon="12.171185"><ele>300.0</ele><time>2026-04-15T07:35:17.08Z</time></trkpt><trkpt lat="42.0858033" lon="12.1711717"><ele>300.0</ele><time>2026-04-15T07:35:19.084Z</time></trkpt><trkpt lat="42.0858733" lon="12.17117"><ele>300.0</ele><time>2026-04-15T07:35:21.085Z</time></trkpt><trkpt lat="42.0859467" lon="12.1711683"><ele>299.99999999999994</ele><time>2026-04-15T07:35:23.082Z</time></trkpt><trkpt lat="42.08602" lon="12.17117"><ele>300.0</ele><time>2026-04-15T07:35:25.081Z</time></trkpt><trkpt lat="42.086095" lon="12.1711817"><ele>299.8333333333333</ele><time>2026-04-15T07:35:27.085Z</time></trkpt><trkpt lat="42.086175" lon="12.171185"><ele>299.6666666666667</ele><time>2026-04-15T07:35:29.079Z</time></trkpt><trkpt lat="42.0862483" lon="12.171195"><ele>299.5</ele><time>2026-04-15T07:35:31.08Z</time></trkpt><trkpt lat="42.0863233" lon="12.1711767"><ele>299.33333333333337</ele><time>2026-04-15T07:35:34.084Z</time></trkpt><trkpt lat="42.0863583" lon="12.1710683"><ele>299.1666666666667</ele><time>2026-04-15T07:35:37.083Z</time></trkpt><trkpt lat="42.0863583" lon="12.1709717"><ele>299.0</ele><time>2026-04-15T07:35:39.082Z</time></trkpt><trkpt lat="42.08636" lon="12.170845"><ele>299.0</ele><time>2026-04-15T07:35:41.089Z</time></trkpt><trkpt lat="42.0863833" lon="12.17071"><ele>299.0</ele><time>2026-04-15T07:35:43.085Z</time></trkpt><trkpt lat="42.0864283" lon="12.170575"><ele>299.0</ele><time>2026-04-15T07:35:45.082Z</time></trkpt><trkpt lat="42.086485" lon="12.1704317"><ele>299.0</ele><time>2026-04-15T07:35:47.081Z</time></trkpt><trkpt lat="42.086515" lon="12.1703567"><ele>299.0</ele><time>2026-04-15T07:35:48.081Z</time></trkpt><trkpt lat="42.0865517" lon="12.1702783"><ele>298.83333333333337</ele><time>2026-04-15T07:35:49.086Z</time></trkpt><trkpt lat="42.086585" lon="12.1701867"><ele>298.6666666666667</ele><time>2026-04-15T07:35:50.082Z</time></trkpt><trkpt lat="42.0866217" lon="12.1700967"><ele>298.5</ele><time>2026-04-15T07:35:51.084Z</time></trkpt><trkpt lat="42.0866583" lon="12.17001"><ele>298.3333333333333</ele><time>2026-04-15T07:35:52.083Z</time></trkpt><trkpt lat="42.086695" lon="12.1699183"><ele>298.16666666666663</ele><time>2026-04-15T07:35:53.08Z</time></trkpt><trkpt lat="42.0867317" lon="12.1698283"><ele>298.0</ele><time>2026-04-15T07:35:54.085Z</time></trkpt><trkpt lat="42.0867667" lon="12.1697417"><ele>297.8333333333333</ele><time>2026-04-15T07:35:55.085Z</time></trkpt><trkpt lat="42.0868" lon="12.1696533"><ele>297.66666666666663</ele><time>2026-04-15T07:35:56.08Z</time></trkpt><trkpt lat="42.0868333" lon="12.16957"><ele>297.5</ele><time>2026-04-15T07:35:57.081Z</time></trkpt><trkpt lat="42.0868633" lon="12.16949"><ele>297.3333333333333</ele><time>2026-04-15T07:35:58.084Z</time></trkpt><trkpt lat="42.0869183" lon="12.169345"><ele>297.1666666666667</ele><time>2026-04-15T07:36:00.082Z</time></trkpt><trkpt lat="42.086975" lon="12.16922"><ele>297.0</ele><time>2026-04-15T07:36:02.079Z</time></trkpt><trkpt lat="42.08703" lon="12.1691067"><ele>297.3333333333333</ele><time>2026-04-15T07:36:04.082Z</time></trkpt><trkpt lat="42.0870817" lon="12.169005"><ele>297.6666666666667</ele><time>2026-04-15T07:36:06.082Z</time></trkpt><trkpt lat="42.0871233" lon="12.1689167"><ele>298.0</ele><time>2026-04-15T07:36:08.084Z</time></trkpt><trkpt lat="42.0871583" lon="12.1688333"><ele>298.33333333333337</ele><time>2026-04-15T07:36:10.08Z</time></trkpt><trkpt lat="42.087185" lon="12.168755"><ele>298.6666666666667</ele><time>2026-04-15T07:36:12.079Z</time></trkpt><trkpt lat="42.087235" lon="12.168645"><ele>299.0</ele><time>2026-04-15T07:36:15.081Z</time></trkpt><trkpt lat="42.08728" lon="12.1685767"><ele>299.0</ele><time>2026-04-15T07:36:17.084Z</time></trkpt><trkpt lat="42.0873383" lon="12.1685267"><ele>299.0</ele><time>2026-04-15T07:36:19.081Z</time></trkpt><trkpt lat="42.087395" lon="12.1684683"><ele>299.0</ele><time>2026-04-15T07:36:21.084Z</time></trkpt><trkpt lat="42.087465" lon="12.168385"><ele>299.0</ele><time>2026-04-15T07:36:24.079Z</time></trkpt><trkpt lat="42.087515" lon="12.16833"><ele>299.0</ele><time>2026-04-15T07:36:26.081Z</time></trkpt><trkpt lat="42.0875867" lon="12.1682533"><ele>299.0</ele><time>2026-04-15T07:36:29.08Z</time></trkpt><trkpt lat="42.08765" lon="12.1681667"><ele>299.33333333333337</ele><time>2026-04-15T07:36:32.086Z</time></trkpt><trkpt lat="42.087695" lon="12.1681017"><ele>299.6666666666667</ele><time>2026-04-15T07:36:34.08Z</time></trkpt><trkpt lat="42.0877533" lon="12.1680367"><ele>300.0</ele><time>2026-04-15T07:36:36.081Z</time></trkpt><trkpt lat="42.0878183" lon="12.167965"><ele>300.3333333333333</ele><time>2026-04-15T07:36:38.082Z</time></trkpt><trkpt lat="42.0878817" lon="12.1678833"><ele>300.66666666666663</ele><time>2026-04-15T07:36:40.082Z</time></trkpt><trkpt lat="42.0879567" lon="12.1677833"><ele>301.0</ele><time>2026-04-15T07:36:42.083Z</time></trkpt><trkpt lat="42.0880533" lon="12.1676783"><ele>301.0</ele><time>2026-04-15T07:36:44.082Z</time></trkpt><trkpt lat="42.0881367" lon="12.1675683"><ele>301.0</ele><time>2026-04-15T07:36:46.083Z</time></trkpt><trkpt lat="42.0882283" lon="12.167455"><ele>301.0</ele><time>2026-04-15T07:36:48.083Z</time></trkpt><trkpt lat="42.0883083" lon="12.16735"><ele>301.0</ele><time>2026-04-15T07:36:50.085Z</time></trkpt><trkpt lat="42.0883783" lon="12.1672617"><ele>301.0</ele><time>2026-04-15T07:36:52.089Z</time></trkpt><trkpt lat="42.0883667" lon="12.1671583"><ele>301.0</ele><time>2026-04-15T07:36:54.084Z</time></trkpt><trkpt lat="42.0883217" lon="12.1670967"><ele>301.0</ele><time>2026-04-15T07:36:55.091Z</time></trkpt><trkpt lat="42.0882633" lon="12.1670317"><ele>301.0</ele><time>2026-04-15T07:36:56.081Z</time></trkpt><trkpt lat="42.0881967" lon="12.166965"><ele>301.0</ele><time>2026-04-15T07:36:57.082Z</time></trkpt><trkpt lat="42.0881417" lon="12.1669017"><ele>301.0</ele><time>2026-04-15T07:36:58.082Z</time></trkpt><trkpt lat="42.08809" lon="12.1668383"><ele>301.0</ele><time>2026-04-15T07:36:59.078Z</time></trkpt><trkpt lat="42.088035" lon="12.1667767"><ele>301.0</ele><time>2026-04-15T07:37:00.081Z</time></trkpt><trkpt lat="42.0879767" lon="12.166715"><ele>301.0</ele><time>2026-04-15T07:37:01.081Z</time></trkpt><trkpt lat="42.0879183" lon="12.1666533"><ele>301.0</ele><time>2026-04-15T07:37:02.085Z</time></trkpt><trkpt lat="42.0878667" lon="12.1665917"><ele>301.0</ele><time>2026-04-15T07:37:03.086Z</time></trkpt><trkpt lat="42.087815" lon="12.1665283"><ele>301.0</ele><time>2026-04-15T07:37:04.082Z</time></trkpt><trkpt lat="42.0877667" lon="12.1664583"><ele>301.0</ele><time>2026-04-15T07:37:05.085Z</time></trkpt><trkpt lat="42.0877233" lon="12.16639"><ele>301.0</ele><time>2026-04-15T07:37:06.082Z</time></trkpt><trkpt lat="42.08768" lon="12.1663283"><ele>301.0</ele><time>2026-04-15T07:37:07.083Z</time></trkpt><trkpt lat="42.087585" lon="12.1662283"><ele>300.8333333333333</ele><time>2026-04-15T07:37:09.084Z</time></trkpt><trkpt lat="42.0875017" lon="12.1661267"><ele>300.66666666666663</ele><time>2026-04-15T07:37:11.081Z</time></trkpt><trkpt lat="42.0874267" lon="12.1660483"><ele>300.5</ele><time>2026-04-15T07:37:13.083Z</time></trkpt><trkpt lat="42.0873383" lon="12.1659633"><ele>300.3333333333333</ele><time>2026-04-15T07:37:15.083Z</time></trkpt><trkpt lat="42.0872867" lon="12.1659083"><ele>300.1666666666667</ele><time>2026-04-15T07:37:16.083Z</time></trkpt><trkpt lat="42.0872367" lon="12.165855"><ele>300.0</ele><time>2026-04-15T07:37:17.078Z</time></trkpt><trkpt lat="42.087155" lon="12.1657383"><ele>299.25</ele><time>2026-04-15T07:37:19.086Z</time></trkpt><trkpt lat="42.0870667" lon="12.1656383"><ele>298.5</ele><time>2026-04-15T07:37:21.083Z</time></trkpt><trkpt lat="42.086975" lon="12.165535"><ele>297.75</ele><time>2026-04-15T07:37:23.079Z</time></trkpt><trkpt lat="42.0868867" lon="12.16542"><ele>297.0</ele><time>2026-04-15T07:37:25.08Z</time></trkpt><trkpt lat="42.0868017" lon="12.16531"><ele>297.0</ele><time>2026-04-15T07:37:27.086Z</time></trkpt><trkpt lat="42.0867117" lon="12.1651933"><ele>297.0</ele><time>2026-04-15T07:37:29.082Z</time></trkpt><trkpt lat="42.0866183" lon="12.165105"><ele>297.0</ele><time>2026-04-15T07:37:31.083Z</time></trkpt><trkpt lat="42.0865317" lon="12.16501"><ele>297.0</ele><time>2026-04-15T07:37:33.083Z</time></trkpt><trkpt lat="42.086445" lon="12.164925"><ele>297.2</ele><time>2026-04-15T07:37:35.08Z</time></trkpt><trkpt lat="42.0863567" lon="12.1648467"><ele>297.4</ele><time>2026-04-15T07:37:37.082Z</time></trkpt><trkpt lat="42.0862733" lon="12.1647533"><ele>297.6</ele><time>2026-04-15T07:37:39.085Z</time></trkpt><trkpt lat="42.0861883" lon="12.164665"><ele>297.8</ele><time>2026-04-15T07:37:41.082Z</time></trkpt><trkpt lat="42.08611" lon="12.1645633"><ele>298.0</ele><time>2026-04-15T07:37:43.082Z</time></trkpt><trkpt lat="42.0860383" lon="12.164455"><ele>298.0</ele><time>2026-04-15T07:37:45.084Z</time></trkpt><trkpt lat="42.085955" lon="12.1643617"><ele>298.0</ele><time>2026-04-15T07:37:47.082Z</time></trkpt><trkpt lat="42.085865" lon="12.1642683"><ele>298.0</ele><time>2026-04-15T07:37:49.084Z</time></trkpt><trkpt lat="42.0857667" lon="12.1641817"><ele>298.0</ele><time>2026-04-15T07:37:51.083Z</time></trkpt><trkpt lat="42.085665" lon="12.1640933"><ele>297.0</ele><time>2026-04-15T07:37:53.086Z</time></trkpt><trkpt lat="42.085555" lon="12.16402"><ele>296.0</ele><time>2026-04-15T07:37:55.082Z</time></trkpt><trkpt lat="42.08545" lon="12.1639367"><ele>295.0</ele><time>2026-04-15T07:37:57.083Z</time></trkpt><trkpt lat="42.08534" lon="12.16386"><ele>294.0</ele><time>2026-04-15T07:37:59.08Z</time></trkpt><trkpt lat="42.08528" lon="12.163825"><ele>293.0</ele><time>2026-04-15T07:38:00.081Z</time></trkpt><trkpt lat="42.0852233" lon="12.16378"><ele>292.99999999999994</ele><time>2026-04-15T07:38:01.083Z</time></trkpt><trkpt lat="42.085165" lon="12.1637417"><ele>293.0</ele><time>2026-04-15T07:38:02.082Z</time></trkpt><trkpt lat="42.0850983" lon="12.1637117"><ele>293.0</ele><time>2026-04-15T07:38:03.085Z</time></trkpt><trkpt lat="42.08503" lon="12.163685"><ele>293.0</ele><time>2026-04-15T07:38:04.082Z</time></trkpt><trkpt lat="42.0849617" lon="12.1636483"><ele>293.0</ele><time>2026-04-15T07:38:05.083Z</time></trkpt><trkpt lat="42.0848867" lon="12.163605"><ele>292.99999999999994</ele><time>2026-04-15T07:38:06.081Z</time></trkpt><trkpt lat="42.0848133" lon="12.163565"><ele>293.0</ele><time>2026-04-15T07:38:07.083Z</time></trkpt><trkpt lat="42.0847333" lon="12.1635217"><ele>292.0</ele><time>2026-04-15T07:38:08.083Z</time></trkpt><trkpt lat="42.0846483" lon="12.1634717"><ele>291.0</ele><time>2026-04-15T07:38:09.084Z</time></trkpt><trkpt lat="42.0845583" lon="12.163425"><ele>290.0</ele><time>2026-04-15T07:38:10.081Z</time></trkpt><trkpt lat="42.0844583" lon="12.1633717"><ele>289.0</ele><time>2026-04-15T07:38:11.081Z</time></trkpt><trkpt lat="42.0843667" lon="12.1633217"><ele>288.0</ele><time>2026-04-15T07:38:12.08Z</time></trkpt><trkpt lat="42.0842667" lon="12.163275"><ele>288.0</ele><time>2026-04-15T07:38:13.082Z</time></trkpt><trkpt lat="42.0841667" lon="12.1632367"><ele>288.0</ele><time>2026-04-15T07:38:14.084Z</time></trkpt><trkpt lat="42.084065" lon="12.163195"><ele>288.0</ele><time>2026-04-15T07:38:15.083Z</time></trkpt><trkpt lat="42.0839767" lon="12.1631467"><ele>288.0</ele><time>2026-04-15T07:38:16.079Z</time></trkpt><trkpt lat="42.0838867" lon="12.1630967"><ele>288.0</ele><time>2026-04-15T07:38:17.082Z</time></trkpt><trkpt lat="42.0838" lon="12.1630467"><ele>286.5</ele><time>2026-04-15T07:38:18.079Z</time></trkpt><trkpt lat="42.08372" lon="12.163"><ele>285.0</ele><time>2026-04-15T07:38:19.082Z</time></trkpt><trkpt lat="42.083635" lon="12.162955"><ele>283.5</ele><time>2026-04-15T07:38:20.081Z</time></trkpt><trkpt lat="42.0835533" lon="12.1629167"><ele>282.0</ele><time>2026-04-15T07:38:21.081Z</time></trkpt><trkpt lat="42.08347" lon="12.1628817"><ele>280.5</ele><time>2026-04-15T07:38:22.08Z</time></trkpt><trkpt lat="42.0833917" lon="12.1628483"><ele>279.0</ele><time>2026-04-15T07:38:23.08Z</time></trkpt><trkpt lat="42.0833183" lon="12.1628067"><ele>278.99999999999994</ele><time>2026-04-15T07:38:24.083Z</time></trkpt><trkpt lat="42.0832517" lon="12.1627583"><ele>279.0</ele><time>2026-04-15T07:38:25.081Z</time></trkpt><trkpt lat="42.08318" lon="12.1627133"><ele>279.0</ele><time>2026-04-15T07:38:26.084Z</time></trkpt><trkpt lat="42.08311" lon="12.1626733"><ele>279.0</ele><time>2026-04-15T07:38:27.083Z</time></trkpt><trkpt lat="42.083045" lon="12.1626383"><ele>279.0</ele><time>2026-04-15T07:38:28.08Z</time></trkpt><trkpt lat="42.082985" lon="12.1625983"><ele>278.99999999999994</ele><time>2026-04-15T07:38:29.081Z</time></trkpt><trkpt lat="42.0829233" lon="12.162565"><ele>279.0</ele><time>2026-04-15T07:38:30.08Z</time></trkpt><trkpt lat="42.0828567" lon="12.1625417"><ele>279.0</ele><time>2026-04-15T07:38:31.086Z</time></trkpt><trkpt lat="42.0827933" lon="12.1625167"><ele>279.0</ele><time>2026-04-15T07:38:32.081Z</time></trkpt><trkpt lat="42.0827333" lon="12.1624867"><ele>279.0</ele><time>2026-04-15T07:38:33.082Z</time></trkpt><trkpt lat="42.082625" lon="12.1624283"><ele>279.0</ele><time>2026-04-15T07:38:35.08Z</time></trkpt><trkpt lat="42.0825217" lon="12.1623633"><ele>279.0</ele><time>2026-04-15T07:38:37.081Z</time></trkpt><trkpt lat="42.08241" lon="12.162315"><ele>278.1666666666667</ele><time>2026-04-15T07:38:39.082Z</time></trkpt><trkpt lat="42.08231" lon="12.1622683"><ele>277.3333333333333</ele><time>2026-04-15T07:38:41.082Z</time></trkpt><trkpt lat="42.082205" lon="12.1622117"><ele>276.5</ele><time>2026-04-15T07:38:43.083Z</time></trkpt><trkpt lat="42.0821467" lon="12.1621783"><ele>275.66666666666663</ele><time>2026-04-15T07:38:44.081Z</time></trkpt><trkpt lat="42.0820833" lon="12.16214"><ele>274.8333333333333</ele><time>2026-04-15T07:38:45.087Z</time></trkpt><trkpt lat="42.08202" lon="12.1620983"><ele>274.0</ele><time>2026-04-15T07:38:46.081Z</time></trkpt><trkpt lat="42.0819533" lon="12.16206"><ele>274.0</ele><time>2026-04-15T07:38:47.082Z</time></trkpt><trkpt lat="42.08189" lon="12.1620133"><ele>274.0</ele><time>2026-04-15T07:38:48.081Z</time></trkpt><trkpt lat="42.0818133" lon="12.16197"><ele>274.0</ele><time>2026-04-15T07:38:49.083Z</time></trkpt><trkpt lat="42.0817483" lon="12.1619333"><ele>274.0</ele><time>2026-04-15T07:38:50.082Z</time></trkpt><trkpt lat="42.0816817" lon="12.1619017"><ele>274.0</ele><time>2026-04-15T07:38:51.082Z</time></trkpt><trkpt lat="42.0815917" lon="12.16185"><ele>274.0</ele><time>2026-04-15T07:38:53.081Z</time></trkpt><trkpt lat="42.0815467" lon="12.1617683"><ele>273.8333333333333</ele><time>2026-04-15T07:38:56.082Z</time></trkpt><trkpt lat="42.08157" lon="12.1616633"><ele>273.66666666666663</ele><time>2026-04-15T07:38:58.083Z</time></trkpt><trkpt lat="42.0816" lon="12.1615233"><ele>273.5</ele><time>2026-04-15T07:39:00.08Z</time></trkpt><trkpt lat="42.0816133" lon="12.16144"><ele>273.3333333333333</ele><time>2026-04-15T07:39:01.088Z</time></trkpt><trkpt lat="42.0816283" lon="12.16135"><ele>273.1666666666667</ele><time>2026-04-15T07:39:02.08Z</time></trkpt><trkpt lat="42.081655" lon="12.161255"><ele>273.0</ele><time>2026-04-15T07:39:03.084Z</time></trkpt><trkpt lat="42.08168" lon="12.161155"><ele>272.8</ele><time>2026-04-15T07:39:04.084Z</time></trkpt><trkpt lat="42.0817067" lon="12.16105"><ele>272.6</ele><time>2026-04-15T07:39:05.078Z</time></trkpt><trkpt lat="42.0817367" lon="12.16094"><ele>272.4</ele><time>2026-04-15T07:39:06.081Z</time></trkpt><trkpt lat="42.081765" lon="12.1608233"><ele>272.2</ele><time>2026-04-15T07:39:07.084Z</time></trkpt><trkpt lat="42.081795" lon="12.1607017"><ele>272.0</ele><time>2026-04-15T07:39:08.082Z</time></trkpt><trkpt lat="42.0818267" lon="12.16058"><ele>271.8</ele><time>2026-04-15T07:39:09.092Z</time></trkpt><trkpt lat="42.0818567" lon="12.1604533"><ele>271.6</ele><time>2026-04-15T07:39:10.083Z</time></trkpt><trkpt lat="42.08189" lon="12.1603283"><ele>271.40000000000003</ele><time>2026-04-15T07:39:11.081Z</time></trkpt><trkpt lat="42.0819217" lon="12.1602017"><ele>271.2</ele><time>2026-04-15T07:39:12.083Z</time></trkpt><trkpt lat="42.0819533" lon="12.16008"><ele>271.0</ele><time>2026-04-15T07:39:13.08Z</time></trkpt><trkpt lat="42.0819833" lon="12.15996"><ele>269.8</ele><time>2026-04-15T07:39:14.086Z</time></trkpt><trkpt lat="42.0820133" lon="12.1598383"><ele>268.6</ele><time>2026-04-15T07:39:15.084Z</time></trkpt><trkpt lat="42.0820417" lon="12.1597167"><ele>267.4</ele><time>2026-04-15T07:39:16.08Z</time></trkpt><trkpt lat="42.0820717" lon="12.1595933"><ele>266.2</ele><time>2026-04-15T07:39:17.08Z</time></trkpt><trkpt lat="42.0821017" lon="12.15947"><ele>265.0</ele><time>2026-04-15T07:39:18.083Z</time></trkpt><trkpt lat="42.0821317" lon="12.1593467"><ele>265.0</ele><time>2026-04-15T07:39:19.085Z</time></trkpt><trkpt lat="42.0821583" lon="12.1592233"><ele>265.0</ele><time>2026-04-15T07:39:20.083Z</time></trkpt><trkpt lat="42.0821883" lon="12.159105"><ele>265.0</ele><time>2026-04-15T07:39:21.083Z</time></trkpt><trkpt lat="42.082215" lon="12.15899"><ele>265.0</ele><time>2026-04-15T07:39:22.083Z</time></trkpt><trkpt lat="42.0822383" lon="12.1588783"><ele>265.0</ele><time>2026-04-15T07:39:23.081Z</time></trkpt><trkpt lat="42.082265" lon="12.1587683"><ele>264.5</ele><time>2026-04-15T07:39:24.082Z</time></trkpt><trkpt lat="42.0822883" lon="12.1586533"><ele>264.0</ele><time>2026-04-15T07:39:25.085Z</time></trkpt><trkpt lat="42.0823133" lon="12.1585433"><ele>263.5</ele><time>2026-04-15T07:39:26.083Z</time></trkpt><trkpt lat="42.0823417" lon="12.158445"><ele>263.0</ele><time>2026-04-15T07:39:27.089Z</time></trkpt><trkpt lat="42.0823633" lon="12.1583483"><ele>262.5</ele><time>2026-04-15T07:39:28.083Z</time></trkpt><trkpt lat="42.0823883" lon="12.158255"><ele>262.0</ele><time>2026-04-15T07:39:29.081Z</time></trkpt><trkpt lat="42.0824133" lon="12.1581583"><ele>262.14285714285717</ele><time>2026-04-15T07:39:30.083Z</time></trkpt><trkpt lat="42.0824367" lon="12.1580633"><ele>262.28571428571433</ele><time>2026-04-15T07:39:31.083Z</time></trkpt><trkpt lat="42.082455" lon="12.1579717"><ele>262.42857142857144</ele><time>2026-04-15T07:39:32.081Z</time></trkpt><trkpt lat="42.0824733" lon="12.1578833"><ele>262.57142857142856</ele><time>2026-04-15T07:39:33.085Z</time></trkpt><trkpt lat="42.0824967" lon="12.1577933"><ele>262.71428571428567</ele><time>2026-04-15T07:39:34.081Z</time></trkpt><trkpt lat="42.0825217" lon="12.1577"><ele>262.85714285714283</ele><time>2026-04-15T07:39:35.084Z</time></trkpt><trkpt lat="42.082545" lon="12.1576017"><ele>263.0</ele><time>2026-04-15T07:39:36.081Z</time></trkpt><trkpt lat="42.08257" lon="12.15751"><ele>263.0</ele><time>2026-04-15T07:39:37.08Z</time></trkpt><trkpt lat="42.0825933" lon="12.1574217"><ele>263.0</ele><time>2026-04-15T07:39:38.078Z</time></trkpt><trkpt lat="42.082615" lon="12.1573283"><ele>263.0</ele><time>2026-04-15T07:39:39.082Z</time></trkpt><trkpt lat="42.0826383" lon="12.1572417"><ele>263.0</ele><time>2026-04-15T07:39:40.082Z</time></trkpt><trkpt lat="42.0826633" lon="12.1571583"><ele>263.0</ele><time>2026-04-15T07:39:41.081Z</time></trkpt><trkpt lat="42.0826867" lon="12.1570783"><ele>263.0</ele><time>2026-04-15T07:39:42.08Z</time></trkpt><trkpt lat="42.0827267" lon="12.1569417"><ele>263.0</ele><time>2026-04-15T07:39:44.083Z</time></trkpt><trkpt lat="42.0827533" lon="12.1568233"><ele>263.0</ele><time>2026-04-15T07:39:46.082Z</time></trkpt><trkpt lat="42.08278" lon="12.1567067"><ele>263.0</ele><time>2026-04-15T07:39:48.081Z</time></trkpt><trkpt lat="42.08281" lon="12.156585"><ele>263.0</ele><time>2026-04-15T07:39:50.082Z</time></trkpt><trkpt lat="42.0828383" lon="12.15647"><ele>263.0</ele><time>2026-04-15T07:39:52.086Z</time></trkpt><trkpt lat="42.0828683" lon="12.1563533"><ele>263.0</ele><time>2026-04-15T07:39:54.091Z</time></trkpt><trkpt lat="42.082895" lon="12.15624"><ele>263.0</ele><time>2026-04-15T07:39:56.082Z</time></trkpt><trkpt lat="42.0829233" lon="12.15613"><ele>263.0</ele><time>2026-04-15T07:39:58.083Z</time></trkpt><trkpt lat="42.0829517" lon="12.15602"><ele>263.0</ele><time>2026-04-15T07:40:00.08Z</time></trkpt><trkpt lat="42.08298" lon="12.1558983"><ele>263.0</ele><time>2026-04-15T07:40:02.079Z</time></trkpt><trkpt lat="42.083015" lon="12.1557617"><ele>263.0</ele><time>2026-04-15T07:40:04.082Z</time></trkpt><trkpt lat="42.0830517" lon="12.1556083"><ele>263.0</ele><time>2026-04-15T07:40:06.081Z</time></trkpt><trkpt lat="42.08309" lon="12.155465"><ele>263.0</ele><time>2026-04-15T07:40:08.086Z</time></trkpt><trkpt lat="42.0831217" lon="12.155325"><ele>263.0</ele><time>2026-04-15T07:40:10.082Z</time></trkpt><trkpt lat="42.0831483" lon="12.15519"><ele>263.0</ele><time>2026-04-15T07:40:12.081Z</time></trkpt><trkpt lat="42.08318" lon="12.1550483"><ele>263.0</ele><time>2026-04-15T07:40:14.083Z</time></trkpt><trkpt lat="42.0832133" lon="12.15491"><ele>263.0</ele><time>2026-04-15T07:40:16.083Z</time></trkpt><trkpt lat="42.083245" lon="12.15477"><ele>263.0</ele><time>2026-04-15T07:40:18.082Z</time></trkpt><trkpt lat="42.0832817" lon="12.1546367"><ele>263.0</ele><time>2026-04-15T07:40:20.086Z</time></trkpt><trkpt lat="42.083315" lon="12.1545"><ele>263.0</ele><time>2026-04-15T07:40:22.085Z</time></trkpt><trkpt lat="42.0833467" lon="12.15437"><ele>263.6</ele><time>2026-04-15T07:40:24.083Z</time></trkpt><trkpt lat="42.0833817" lon="12.1542483"><ele>264.20000000000005</ele><time>2026-04-15T07:40:26.083Z</time></trkpt><trkpt lat="42.0834083" lon="12.15413"><ele>264.8</ele><time>2026-04-15T07:40:28.084Z</time></trkpt><trkpt lat="42.0834383" lon="12.1540133"><ele>265.40000000000003</ele><time>2026-04-15T07:40:30.082Z</time></trkpt><trkpt lat="42.08347" lon="12.1539017"><ele>266.0</ele><time>2026-04-15T07:40:32.081Z</time></trkpt><trkpt lat="42.083495" lon="12.1537883"><ele>266.6666666666667</ele><time>2026-04-15T07:40:34.086Z</time></trkpt><trkpt lat="42.0835217" lon="12.1536717"><ele>267.33333333333337</ele><time>2026-04-15T07:40:36.079Z</time></trkpt><trkpt lat="42.0835433" lon="12.15356"><ele>268.0</ele><time>2026-04-15T07:40:38.085Z</time></trkpt><trkpt lat="42.0835667" lon="12.15346"><ele>268.6666666666667</ele><time>2026-04-15T07:40:40.085Z</time></trkpt><trkpt lat="42.0835883" lon="12.1533767"><ele>269.3333333333333</ele><time>2026-04-15T07:40:42.085Z</time></trkpt><trkpt lat="42.0836133" lon="12.1532583"><ele>270.0</ele><time>2026-04-15T07:40:45.08Z</time></trkpt><trkpt lat="42.0836317" lon="12.1531733"><ele>271.0</ele><time>2026-04-15T07:40:47.085Z</time></trkpt><trkpt lat="42.0836583" lon="12.153055"><ele>272.0</ele><time>2026-04-15T07:40:50.081Z</time></trkpt><trkpt lat="42.0836933" lon="12.152955"><ele>273.0</ele><time>2026-04-15T07:40:53.082Z</time></trkpt><trkpt lat="42.0837233" lon="12.1528617"><ele>274.0</ele><time>2026-04-15T07:40:56.081Z</time></trkpt><trkpt lat="42.08375" lon="12.1527517"><ele>275.0</ele><time>2026-04-15T07:40:59.082Z</time></trkpt><trkpt lat="42.0837867" lon="12.152645"><ele>276.0</ele><time>2026-04-15T07:41:02.08Z</time></trkpt><trkpt lat="42.0838083" lon="12.1525383"><ele>276.0</ele><time>2026-04-15T07:41:05.083Z</time></trkpt><trkpt lat="42.0838417" lon="12.1524317"><ele>276.0</ele><time>2026-04-15T07:41:08.083Z</time></trkpt><trkpt lat="42.08387" lon="12.15232"><ele>276.0</ele><time>2026-04-15T07:41:11.087Z</time></trkpt><trkpt lat="42.0839" lon="12.1522167"><ele>276.0</ele><time>2026-04-15T07:41:14.082Z</time></trkpt><trkpt lat="42.0839283" lon="12.1521083"><ele>276.0</ele><time>2026-04-15T07:41:17.082Z</time></trkpt><trkpt lat="42.083955" lon="12.1519933"><ele>276.0</ele><time>2026-04-15T07:41:20.083Z</time></trkpt><trkpt lat="42.0839883" lon="12.1518817"><ele>276.40000000000003</ele><time>2026-04-15T07:41:23.091Z</time></trkpt><trkpt lat="42.0840167" lon="12.1517617"><ele>276.8</ele><time>2026-04-15T07:41:26.081Z</time></trkpt><trkpt lat="42.0840433" lon="12.1516417"><ele>277.20000000000005</ele><time>2026-04-15T07:41:29.082Z</time></trkpt><trkpt lat="42.08407" lon="12.1515267"><ele>277.6</ele><time>2026-04-15T07:41:32.086Z</time></trkpt><trkpt lat="42.0840983" lon="12.15141"><ele>278.0</ele><time>2026-04-15T07:41:35.082Z</time></trkpt><trkpt lat="42.0841283" lon="12.1513"><ele>278.0</ele><time>2026-04-15T07:41:38.083Z</time></trkpt><trkpt lat="42.0841567" lon="12.1511833"><ele>278.0</ele><time>2026-04-15T07:41:41.085Z</time></trkpt><trkpt lat="42.0841817" lon="12.1510717"><ele>278.0</ele><time>2026-04-15T07:41:44.082Z</time></trkpt><trkpt lat="42.08419" lon="12.1509867"><ele>278.0</ele><time>2026-04-15T07:41:47.082Z</time></trkpt><trkpt lat="42.0841517" lon="12.1508867"><ele>278.0</ele><time>2026-04-15T07:41:51.081Z</time></trkpt><trkpt lat="42.0841817" lon="12.150775"><ele>278.0</ele><time>2026-04-15T07:43:34.081Z</time></trkpt><trkpt lat="42.0842033" lon="12.1506717"><ele>278.33333333333337</ele><time>2026-04-15T07:43:37.081Z</time></trkpt><trkpt lat="42.084225" lon="12.1505617"><ele>278.6666666666667</ele><time>2026-04-15T07:43:40.083Z</time></trkpt><trkpt lat="42.0842617" lon="12.1504883"><ele>279.0</ele><time>2026-04-15T07:43:42.082Z</time></trkpt><trkpt lat="42.084285" lon="12.1503867"><ele>279.3333333333333</ele><time>2026-04-15T07:43:44.083Z</time></trkpt><trkpt lat="42.084315" lon="12.1502733"><ele>279.66666666666663</ele><time>2026-04-15T07:43:46.082Z</time></trkpt><trkpt lat="42.0843433" lon="12.1501567"><ele>280.0</ele><time>2026-04-15T07:43:48.081Z</time></trkpt><trkpt lat="42.0843617" lon="12.1500417"><ele>280.0</ele><time>2026-04-15T07:43:50.082Z</time></trkpt><trkpt lat="42.084375" lon="12.1499583"><ele>280.0</ele><time>2026-04-15T07:43:52.082Z</time></trkpt><trkpt lat="42.0844017" lon="12.1498633"><ele>280.0</ele><time>2026-04-15T07:43:55.081Z</time></trkpt><trkpt lat="42.084445" lon="12.1497833"><ele>280.0</ele><time>2026-04-15T07:43:59.081Z</time></trkpt><trkpt lat="42.084455" lon="12.149695"><ele>280.0</ele><time>2026-04-15T07:44:09.086Z</time></trkpt><trkpt lat="42.0844783" lon="12.1495833"><ele>280.0</ele><time>2026-04-15T07:44:13.081Z</time></trkpt><trkpt lat="42.0844917" lon="12.1495"><ele>280.0</ele><time>2026-04-15T07:44:15.083Z</time></trkpt><trkpt lat="42.0845133" lon="12.1494067"><ele>279.7142857142857</ele><time>2026-04-15T07:44:17.081Z</time></trkpt><trkpt lat="42.084535" lon="12.1493167"><ele>279.42857142857144</ele><time>2026-04-15T07:44:19.085Z</time></trkpt><trkpt lat="42.0845617" lon="12.149235"><ele>279.1428571428571</ele><time>2026-04-15T07:44:21.081Z</time></trkpt><trkpt lat="42.084585" lon="12.1491483"><ele>278.8571428571429</ele><time>2026-04-15T07:44:23.082Z</time></trkpt><trkpt lat="42.0846117" lon="12.1490583"><ele>278.57142857142856</ele><time>2026-04-15T07:44:25.082Z</time></trkpt><trkpt lat="42.0846367" lon="12.148965"><ele>278.2857142857143</ele><time>2026-04-15T07:44:27.082Z</time></trkpt><trkpt lat="42.0846533" lon="12.14886"><ele>278.0</ele><time>2026-04-15T07:44:29.081Z</time></trkpt><trkpt lat="42.0846717" lon="12.1487367"><ele>277.4</ele><time>2026-04-15T07:44:31.079Z</time></trkpt><trkpt lat="42.0847" lon="12.1486117"><ele>276.8</ele><time>2026-04-15T07:44:33.082Z</time></trkpt><trkpt lat="42.0847333" lon="12.1484917"><ele>276.2</ele><time>2026-04-15T07:44:35.081Z</time></trkpt><trkpt lat="42.0847567" lon="12.1483733"><ele>275.6</ele><time>2026-04-15T07:44:37.081Z</time></trkpt><trkpt lat="42.084785" lon="12.1482533"><ele>275.0</ele><time>2026-04-15T07:44:39.081Z</time></trkpt><trkpt lat="42.0848183" lon="12.1481183"><ele>274.2</ele><time>2026-04-15T07:44:41.081Z</time></trkpt><trkpt lat="42.0848367" lon="12.1479667"><ele>273.4</ele><time>2026-04-15T07:44:43.084Z</time></trkpt><trkpt lat="42.0848583" lon="12.1478017"><ele>272.6</ele><time>2026-04-15T07:44:45.087Z</time></trkpt><trkpt lat="42.084865" lon="12.1477167"><ele>271.8</ele><time>2026-04-15T07:44:46.081Z</time></trkpt><trkpt lat="42.0848817" lon="12.1475567"><ele>271.0</ele><time>2026-04-15T07:44:48.083Z</time></trkpt><trkpt lat="42.084895" lon="12.1474717"><ele>271.0</ele><time>2026-04-15T07:44:49.081Z</time></trkpt><trkpt lat="42.0849033" lon="12.147385"><ele>271.0</ele><time>2026-04-15T07:44:50.085Z</time></trkpt><trkpt lat="42.084915" lon="12.1473"><ele>271.0</ele><time>2026-04-15T07:44:51.082Z</time></trkpt><trkpt lat="42.08493" lon="12.1472117"><ele>271.0</ele><time>2026-04-15T07:44:52.082Z</time></trkpt><trkpt lat="42.084945" lon="12.1471283"><ele>271.0</ele><time>2026-04-15T07:44:53.082Z</time></trkpt><trkpt lat="42.084975" lon="12.1469867"><ele>271.0</ele><time>2026-04-15T07:44:55.082Z</time></trkpt><trkpt lat="42.08502" lon="12.146845"><ele>271.0</ele><time>2026-04-15T07:44:57.085Z</time></trkpt><trkpt lat="42.0850817" lon="12.14671"><ele>271.0</ele><time>2026-04-15T07:44:59.08Z</time></trkpt><trkpt lat="42.0851467" lon="12.1465717"><ele>271.0</ele><time>2026-04-15T07:45:01.084Z</time></trkpt><trkpt lat="42.0852017" lon="12.1464317"><ele>271.0</ele><time>2026-04-15T07:45:03.081Z</time></trkpt><trkpt lat="42.0852367" lon="12.1462833"><ele>270.40000000000003</ele><time>2026-04-15T07:45:05.081Z</time></trkpt><trkpt lat="42.0852667" lon="12.1461417"><ele>269.8</ele><time>2026-04-15T07:45:07.088Z</time></trkpt><trkpt lat="42.0852733" lon="12.1459917"><ele>269.20000000000005</ele><time>2026-04-15T07:45:09.081Z</time></trkpt><trkpt lat="42.0852783" lon="12.1458417"><ele>268.6</ele><time>2026-04-15T07:45:11.078Z</time></trkpt><trkpt lat="42.0852883" lon="12.1456967"><ele>268.0</ele><time>2026-04-15T07:45:13.082Z</time></trkpt><trkpt lat="42.0852967" lon="12.1455517"><ele>268.0</ele><time>2026-04-15T07:45:15.086Z</time></trkpt><trkpt lat="42.0853017" lon="12.1454117"><ele>268.0</ele><time>2026-04-15T07:45:17.084Z</time></trkpt><trkpt lat="42.085285" lon="12.1452717"><ele>268.0</ele><time>2026-04-15T07:45:19.083Z</time></trkpt><trkpt lat="42.0852433" lon="12.1451517"><ele>268.0</ele><time>2026-04-15T07:45:21.081Z</time></trkpt><trkpt lat="42.0851867" lon="12.1450367"><ele>268.0</ele><time>2026-04-15T07:45:23.081Z</time></trkpt><trkpt lat="42.0851217" lon="12.1449233"><ele>268.2</ele><time>2026-04-15T07:45:25.08Z</time></trkpt><trkpt lat="42.0850567" lon="12.144815"><ele>268.4</ele><time>2026-04-15T07:45:27.086Z</time></trkpt><trkpt lat="42.0849917" lon="12.1447017"><ele>268.59999999999997</ele><time>2026-04-15T07:45:29.083Z</time></trkpt><trkpt lat="42.0849233" lon="12.1445883"><ele>268.8</ele><time>2026-04-15T07:45:31.083Z</time></trkpt><trkpt lat="42.0848583" lon="12.1444667"><ele>269.0</ele><time>2026-04-15T07:45:33.083Z</time></trkpt><trkpt lat="42.084785" lon="12.14436"><ele>269.4</ele><time>2026-04-15T07:45:35.083Z</time></trkpt><trkpt lat="42.0847" lon="12.1442667"><ele>269.79999999999995</ele><time>2026-04-15T07:45:37.085Z</time></trkpt><trkpt lat="42.0846283" lon="12.144185"><ele>270.20000000000005</ele><time>2026-04-15T07:45:39.085Z</time></trkpt><trkpt lat="42.08456" lon="12.14409"><ele>270.6</ele><time>2026-04-15T07:45:41.083Z</time></trkpt><trkpt lat="42.08449" lon="12.143985"><ele>271.0</ele><time>2026-04-15T07:45:43.086Z</time></trkpt><trkpt lat="42.0844233" lon="12.143885"><ele>271.0</ele><time>2026-04-15T07:45:45.079Z</time></trkpt><trkpt lat="42.0843383" lon="12.1437867"><ele>271.0</ele><time>2026-04-15T07:45:47.082Z</time></trkpt><trkpt lat="42.0842783" lon="12.1437083"><ele>271.0</ele><time>2026-04-15T07:45:49.08Z</time></trkpt><trkpt lat="42.0842183" lon="12.1436333"><ele>271.0</ele><time>2026-04-15T07:45:51.081Z</time></trkpt><trkpt lat="42.0841583" lon="12.143565"><ele>271.0</ele><time>2026-04-15T07:45:53.083Z</time></trkpt><trkpt lat="42.0841017" lon="12.1435017"><ele>271.0</ele><time>2026-04-15T07:45:55.084Z</time></trkpt><trkpt lat="42.084025" lon="12.143435"><ele>272.1428571428571</ele><time>2026-04-15T07:45:58.082Z</time></trkpt><trkpt lat="42.083955" lon="12.1433717"><ele>273.2857142857143</ele><time>2026-04-15T07:46:01.084Z</time></trkpt><trkpt lat="42.0838867" lon="12.143295"><ele>274.42857142857144</ele><time>2026-04-15T07:46:04.083Z</time></trkpt><trkpt lat="42.083825" lon="12.1432483"><ele>275.57142857142856</ele><time>2026-04-15T07:46:07.083Z</time></trkpt><trkpt lat="42.0837617" lon="12.143225"><ele>276.7142857142857</ele><time>2026-04-15T07:46:10.082Z</time></trkpt><trkpt lat="42.0837017" lon="12.1431683"><ele>277.85714285714283</ele><time>2026-04-15T07:46:14.085Z</time></trkpt><trkpt lat="42.0836467" lon="12.1431183"><ele>279.0</ele><time>2026-04-15T07:46:17.078Z</time></trkpt><trkpt lat="42.0835767" lon="12.1430683"><ele>279.1428571428571</ele><time>2026-04-15T07:46:21.085Z</time></trkpt><trkpt lat="42.0835217" lon="12.14302"><ele>279.2857142857143</ele><time>2026-04-15T07:46:24.079Z</time></trkpt><trkpt lat="42.083455" lon="12.14296"><ele>279.42857142857144</ele><time>2026-04-15T07:46:28.083Z</time></trkpt><trkpt lat="42.0833967" lon="12.1429017"><ele>279.57142857142856</ele><time>2026-04-15T07:46:32.084Z</time></trkpt><trkpt lat="42.08333" lon="12.1428517"><ele>279.7142857142857</ele><time>2026-04-15T07:46:36.082Z</time></trkpt><trkpt lat="42.0832783" lon="12.1428017"><ele>279.85714285714283</ele><time>2026-04-15T07:46:39.083Z</time></trkpt><trkpt lat="42.0832233" lon="12.14273"><ele>280.0</ele><time>2026-04-15T07:46:44.085Z</time></trkpt><trkpt lat="42.0831567" lon="12.1426767"><ele>279.5</ele><time>2026-04-15T07:46:48.084Z</time></trkpt><trkpt lat="42.08311" lon="12.1426033"><ele>279.0</ele><time>2026-04-15T07:46:52.081Z</time></trkpt><trkpt lat="42.0830517" lon="12.1425433"><ele>278.5</ele><time>2026-04-15T07:46:56.081Z</time></trkpt><trkpt lat="42.0829883" lon="12.142495"><ele>278.0</ele><time>2026-04-15T07:47:00.083Z</time></trkpt><trkpt lat="42.0829333" lon="12.142415"><ele>277.5</ele><time>2026-04-15T07:47:03.086Z</time></trkpt><trkpt lat="42.082885" lon="12.1423317"><ele>277.0</ele><time>2026-04-15T07:47:05.081Z</time></trkpt><trkpt lat="42.08283" lon="12.1422333"><ele>277.0</ele><time>2026-04-15T07:47:07.082Z</time></trkpt><trkpt lat="42.0827583" lon="12.1421083"><ele>277.0</ele><time>2026-04-15T07:47:09.079Z</time></trkpt><trkpt lat="42.0827217" lon="12.1420383"><ele>277.0</ele><time>2026-04-15T07:47:10.084Z</time></trkpt><trkpt lat="42.0826633" lon="12.14191"><ele>277.0</ele><time>2026-04-15T07:47:12.084Z</time></trkpt><trkpt lat="42.0826233" lon="12.14177"><ele>277.0</ele><time>2026-04-15T07:47:14.082Z</time></trkpt><trkpt lat="42.0826083" lon="12.141635"><ele>277.16666666666663</ele><time>2026-04-15T07:47:16.082Z</time></trkpt><trkpt lat="42.08259" lon="12.1414983"><ele>277.3333333333333</ele><time>2026-04-15T07:47:18.086Z</time></trkpt><trkpt lat="42.0825717" lon="12.1413717"><ele>277.5</ele><time>2026-04-15T07:47:20.081Z</time></trkpt><trkpt lat="42.0825483" lon="12.1412617"><ele>277.6666666666667</ele><time>2026-04-15T07:47:22.08Z</time></trkpt><trkpt lat="42.08252" lon="12.1411617"><ele>277.83333333333337</ele><time>2026-04-15T07:47:24.081Z</time></trkpt><trkpt lat="42.0824833" lon="12.1410667"><ele>278.0</ele><time>2026-04-15T07:47:26.079Z</time></trkpt><trkpt lat="42.0824417" lon="12.140975"><ele>278.0</ele><time>2026-04-15T07:47:28.082Z</time></trkpt><trkpt lat="42.0823933" lon="12.1408883"><ele>278.0</ele><time>2026-04-15T07:47:30.08Z</time></trkpt><trkpt lat="42.082345" lon="12.1407917"><ele>278.0</ele><time>2026-04-15T07:47:32.087Z</time></trkpt><trkpt lat="42.08229" lon="12.140695"><ele>278.0</ele><time>2026-04-15T07:47:34.084Z</time></trkpt><trkpt lat="42.0822167" lon="12.140605"><ele>278.0</ele><time>2026-04-15T07:47:36.081Z</time></trkpt><trkpt lat="42.0821283" lon="12.1405283"><ele>278.5</ele><time>2026-04-15T07:47:38.084Z</time></trkpt><trkpt lat="42.082035" lon="12.140485"><ele>279.0</ele><time>2026-04-15T07:47:40.083Z</time></trkpt><trkpt lat="42.0819417" lon="12.14047"><ele>279.5</ele><time>2026-04-15T07:47:42.08Z</time></trkpt><trkpt lat="42.0818583" lon="12.1404567"><ele>280.0</ele><time>2026-04-15T07:47:44.081Z</time></trkpt><trkpt lat="42.0817783" lon="12.1404333"><ele>280.5</ele><time>2026-04-15T07:47:46.081Z</time></trkpt><trkpt lat="42.0817" lon="12.1404117"><ele>281.0</ele><time>2026-04-15T07:47:48.088Z</time></trkpt><trkpt lat="42.0816217" lon="12.140385"><ele>281.5</ele><time>2026-04-15T07:47:50.085Z</time></trkpt><trkpt lat="42.0815383" lon="12.140355"><ele>282.0</ele><time>2026-04-15T07:47:52.085Z</time></trkpt><trkpt lat="42.0814583" lon="12.1403333"><ele>282.5</ele><time>2026-04-15T07:47:54.08Z</time></trkpt><trkpt lat="42.08138" lon="12.14032"><ele>283.0</ele><time>2026-04-15T07:47:56.081Z</time></trkpt><trkpt lat="42.0813" lon="12.14031"><ele>283.5</ele><time>2026-04-15T07:47:58.088Z</time></trkpt><trkpt lat="42.08122" lon="12.1403067"><ele>284.0</ele><time>2026-04-15T07:48:00.079Z</time></trkpt><trkpt lat="42.08114" lon="12.1402933"><ele>284.0</ele><time>2026-04-15T07:48:02.081Z</time></trkpt><trkpt lat="42.081065" lon="12.1402867"><ele>284.0</ele><time>2026-04-15T07:48:04.084Z</time></trkpt><trkpt lat="42.0809933" lon="12.14028"><ele>284.0</ele><time>2026-04-15T07:48:06.082Z</time></trkpt><trkpt lat="42.080915" lon="12.14028"><ele>284.0</ele><time>2026-04-15T07:48:08.082Z</time></trkpt><trkpt lat="42.0808333" lon="12.1402683"><ele>284.0</ele><time>2026-04-15T07:48:10.083Z</time></trkpt><trkpt lat="42.0807567" lon="12.14025"><ele>284.0</ele><time>2026-04-15T07:48:12.086Z</time></trkpt><trkpt lat="42.08068" lon="12.1402317"><ele>283.85714285714283</ele><time>2026-04-15T07:48:14.08Z</time></trkpt><trkpt lat="42.080605" lon="12.1402083"><ele>283.71428571428567</ele><time>2026-04-15T07:48:16.078Z</time></trkpt><trkpt lat="42.0805317" lon="12.1401867"><ele>283.57142857142856</ele><time>2026-04-15T07:48:18.08Z</time></trkpt><trkpt lat="42.0804683" lon="12.14014"><ele>283.42857142857144</ele><time>2026-04-15T07:48:20.082Z</time></trkpt><trkpt lat="42.0804067" lon="12.1400867"><ele>283.28571428571433</ele><time>2026-04-15T07:48:22.08Z</time></trkpt><trkpt lat="42.0803467" lon="12.1400333"><ele>283.14285714285717</ele><time>2026-04-15T07:48:24.084Z</time></trkpt><trkpt lat="42.0802883" lon="12.1399883"><ele>283.0</ele><time>2026-04-15T07:48:26.079Z</time></trkpt><trkpt lat="42.0802283" lon="12.13995"><ele>283.0</ele><time>2026-04-15T07:48:28.082Z</time></trkpt><trkpt lat="42.0801633" lon="12.1399133"><ele>283.0</ele><time>2026-04-15T07:48:30.084Z</time></trkpt><trkpt lat="42.0801017" lon="12.1398867"><ele>283.0</ele><time>2026-04-15T07:48:32.082Z</time></trkpt><trkpt lat="42.0800183" lon="12.1398533"><ele>283.0</ele><time>2026-04-15T07:48:35.082Z</time></trkpt><trkpt lat="42.0799567" lon="12.1398133"><ele>283.0</ele><time>2026-04-15T07:48:37.083Z</time></trkpt><trkpt lat="42.0799017" lon="12.1397583"><ele>283.0</ele><time>2026-04-15T07:48:39.083Z</time></trkpt><trkpt lat="42.0798517" lon="12.139705"><ele>283.0</ele><time>2026-04-15T07:48:41.079Z</time></trkpt><trkpt lat="42.0797983" lon="12.1396533"><ele>283.42857142857144</ele><time>2026-04-15T07:48:43.087Z</time></trkpt><trkpt lat="42.0797417" lon="12.13961"><ele>283.8571428571429</ele><time>2026-04-15T07:48:45.085Z</time></trkpt><trkpt lat="42.07968" lon="12.13957"><ele>284.2857142857143</ele><time>2026-04-15T07:48:47.08Z</time></trkpt><trkpt lat="42.0796183" lon="12.1395217"><ele>284.7142857142857</ele><time>2026-04-15T07:48:49.083Z</time></trkpt><trkpt lat="42.0795583" lon="12.1394683"><ele>285.1428571428571</ele><time>2026-04-15T07:48:51.081Z</time></trkpt><trkpt lat="42.0795" lon="12.1394167"><ele>285.57142857142856</ele><time>2026-04-15T07:48:53.081Z</time></trkpt><trkpt lat="42.0794483" lon="12.1393517"><ele>286.0</ele><time>2026-04-15T07:48:55.089Z</time></trkpt><trkpt lat="42.0793967" lon="12.1392883"><ele>286.0</ele><time>2026-04-15T07:48:57.085Z</time></trkpt><trkpt lat="42.0793417" lon="12.1392333"><ele>286.0</ele><time>2026-04-15T07:48:59.083Z</time></trkpt><trkpt lat="42.0792883" lon="12.1391817"><ele>286.0</ele><time>2026-04-15T07:49:01.085Z</time></trkpt><trkpt lat="42.0792067" lon="12.1391167"><ele>286.0</ele><time>2026-04-15T07:49:04.085Z</time></trkpt><trkpt lat="42.079125" lon="12.1390483"><ele>286.0</ele><time>2026-04-15T07:49:07.085Z</time></trkpt><trkpt lat="42.0790567" lon="12.1389933"><ele>286.0</ele><time>2026-04-15T07:49:09.086Z</time></trkpt><trkpt lat="42.0789867" lon="12.138925"><ele>285.40000000000003</ele><time>2026-04-15T07:49:11.082Z</time></trkpt><trkpt lat="42.0789133" lon="12.1388517"><ele>284.8</ele><time>2026-04-15T07:49:13.08Z</time></trkpt><trkpt lat="42.0788367" lon="12.1387833"><ele>284.20000000000005</ele><time>2026-04-15T07:49:15.079Z</time></trkpt><trkpt lat="42.0787433" lon="12.138725"><ele>283.6</ele><time>2026-04-15T07:49:17.08Z</time></trkpt><trkpt lat="42.07864" lon="12.138645"><ele>283.0</ele><time>2026-04-15T07:49:19.082Z</time></trkpt><trkpt lat="42.078585" lon="12.1386033"><ele>283.0</ele><time>2026-04-15T07:49:20.083Z</time></trkpt><trkpt lat="42.0785267" lon="12.1385583"><ele>283.0</ele><time>2026-04-15T07:49:21.08Z</time></trkpt><trkpt lat="42.0784717" lon="12.1385133"><ele>283.0</ele><time>2026-04-15T07:49:22.08Z</time></trkpt><trkpt lat="42.0784167" lon="12.1384683"><ele>283.0</ele><time>2026-04-15T07:49:23.081Z</time></trkpt><trkpt lat="42.07831" lon="12.13838"><ele>283.0</ele><time>2026-04-15T07:49:25.081Z</time></trkpt><trkpt lat="42.078255" lon="12.138335"><ele>283.0</ele><time>2026-04-15T07:49:26.079Z</time></trkpt><trkpt lat="42.0781433" lon="12.1382533"><ele>282.66666666666663</ele><time>2026-04-15T07:49:28.082Z</time></trkpt><trkpt lat="42.078085" lon="12.138215"><ele>282.3333333333333</ele><time>2026-04-15T07:49:29.08Z</time></trkpt><trkpt lat="42.0780267" lon="12.138175"><ele>282.0</ele><time>2026-04-15T07:49:30.079Z</time></trkpt><trkpt lat="42.077965" lon="12.1381483"><ele>281.6666666666667</ele><time>2026-04-15T07:49:31.078Z</time></trkpt><trkpt lat="42.0779067" lon="12.1381133"><ele>281.33333333333337</ele><time>2026-04-15T07:49:32.082Z</time></trkpt><trkpt lat="42.0777967" lon="12.138035"><ele>281.0</ele><time>2026-04-15T07:49:34.081Z</time></trkpt><trkpt lat="42.0776917" lon="12.13796"><ele>281.0</ele><time>2026-04-15T07:49:36.084Z</time></trkpt><trkpt lat="42.0775867" lon="12.1378833"><ele>281.0</ele><time>2026-04-15T07:49:38.083Z</time></trkpt><trkpt lat="42.0774833" lon="12.137805"><ele>281.0</ele><time>2026-04-15T07:49:40.083Z</time></trkpt><trkpt lat="42.077385" lon="12.1377217"><ele>281.0</ele><time>2026-04-15T07:49:42.081Z</time></trkpt><trkpt lat="42.07729" lon="12.1376417"><ele>281.2</ele><time>2026-04-15T07:49:44.082Z</time></trkpt><trkpt lat="42.0772033" lon="12.1375467"><ele>281.40000000000003</ele><time>2026-04-15T07:49:46.085Z</time></trkpt><trkpt lat="42.077125" lon="12.1374567"><ele>281.6</ele><time>2026-04-15T07:49:48.082Z</time></trkpt><trkpt lat="42.077055" lon="12.137365"><ele>281.8</ele><time>2026-04-15T07:49:50.08Z</time></trkpt><trkpt lat="42.076985" lon="12.137275"><ele>282.0</ele><time>2026-04-15T07:49:52.08Z</time></trkpt><trkpt lat="42.0769067" lon="12.13719"><ele>282.0</ele><time>2026-04-15T07:49:54.08Z</time></trkpt><trkpt lat="42.07683" lon="12.1371083"><ele>282.0</ele><time>2026-04-15T07:49:56.081Z</time></trkpt><trkpt lat="42.07675" lon="12.1370183"><ele>282.0</ele><time>2026-04-15T07:49:58.08Z</time></trkpt><trkpt lat="42.0766833" lon="12.1369233"><ele>282.0</ele><time>2026-04-15T07:50:00.08Z</time></trkpt><trkpt lat="42.0766233" lon="12.1368083"><ele>282.0</ele><time>2026-04-15T07:50:02.08Z</time></trkpt><trkpt lat="42.0765783" lon="12.1366867"><ele>281.6</ele><time>2026-04-15T07:50:04.081Z</time></trkpt><trkpt lat="42.0765283" lon="12.1365583"><ele>281.2</ele><time>2026-04-15T07:50:06.085Z</time></trkpt><trkpt lat="42.0765" lon="12.1364333"><ele>280.8</ele><time>2026-04-15T07:50:08.082Z</time></trkpt><trkpt lat="42.0764533" lon="12.1363283"><ele>280.4</ele><time>2026-04-15T07:50:10.082Z</time></trkpt><trkpt lat="42.07639" lon="12.1362233"><ele>280.0</ele><time>2026-04-15T07:50:12.081Z</time></trkpt><trkpt lat="42.0763267" lon="12.136105"><ele>280.8</ele><time>2026-04-15T07:50:14.081Z</time></trkpt><trkpt lat="42.0762667" lon="12.1360067"><ele>281.6</ele><time>2026-04-15T07:50:16.082Z</time></trkpt><trkpt lat="42.0761783" lon="12.1359283"><ele>282.4</ele><time>2026-04-15T07:50:18.081Z</time></trkpt><trkpt lat="42.076085" lon="12.13587"><ele>283.2</ele><time>2026-04-15T07:50:20.082Z</time></trkpt><trkpt lat="42.0759817" lon="12.1358083"><ele>284.0</ele><time>2026-04-15T07:50:22.08Z</time></trkpt><trkpt lat="42.07588" lon="12.13575"><ele>284.2</ele><time>2026-04-15T07:50:24.084Z</time></trkpt><trkpt lat="42.0757817" lon="12.1356867"><ele>284.4</ele><time>2026-04-15T07:50:26.081Z</time></trkpt><trkpt lat="42.075685" lon="12.1356233"><ele>284.6</ele><time>2026-04-15T07:50:28.08Z</time></trkpt><trkpt lat="42.0755933" lon="12.1355517"><ele>284.8</ele><time>2026-04-15T07:50:30.082Z</time></trkpt><trkpt lat="42.07551" lon="12.1354617"><ele>285.0</ele><time>2026-04-15T07:50:32.079Z</time></trkpt><trkpt lat="42.0754367" lon="12.1353817"><ele>283.8333333333333</ele><time>2026-04-15T07:50:34.081Z</time></trkpt><trkpt lat="42.07538" lon="12.13532"><ele>282.6666666666667</ele><time>2026-04-15T07:50:37.083Z</time></trkpt><trkpt lat="42.075315" lon="12.1352733"><ele>281.5</ele><time>2026-04-15T07:50:42.082Z</time></trkpt><trkpt lat="42.0752517" lon="12.135225"><ele>280.33333333333337</ele><time>2026-04-15T07:50:45.081Z</time></trkpt><trkpt lat="42.0751767" lon="12.1351633"><ele>279.1666666666667</ele><time>2026-04-15T07:50:48.079Z</time></trkpt><trkpt lat="42.07511" lon="12.13513"><ele>278.0</ele><time>2026-04-15T07:50:50.083Z</time></trkpt><trkpt lat="42.0750467" lon="12.1350817"><ele>278.0</ele><time>2026-04-15T07:50:52.083Z</time></trkpt><trkpt lat="42.0749817" lon="12.1350167"><ele>278.0</ele><time>2026-04-15T07:50:54.085Z</time></trkpt><trkpt lat="42.07492" lon="12.134955"><ele>278.0</ele><time>2026-04-15T07:50:56.085Z</time></trkpt><trkpt lat="42.074855" lon="12.1349067"><ele>278.0</ele><time>2026-04-15T07:50:58.083Z</time></trkpt><trkpt lat="42.0747683" lon="12.13487"><ele>278.0</ele><time>2026-04-15T07:51:00.082Z</time></trkpt><trkpt lat="42.074675" lon="12.1348317"><ele>278.0</ele><time>2026-04-15T07:51:02.079Z</time></trkpt><trkpt lat="42.0745933" lon="12.13477"><ele>276.8</ele><time>2026-04-15T07:51:04.083Z</time></trkpt><trkpt lat="42.0745117" lon="12.1346983"><ele>275.6</ele><time>2026-04-15T07:51:06.085Z</time></trkpt><trkpt lat="42.0744283" lon="12.1346233"><ele>274.4</ele><time>2026-04-15T07:51:08.082Z</time></trkpt><trkpt lat="42.0743433" lon="12.1345533"><ele>273.2</ele><time>2026-04-15T07:51:10.083Z</time></trkpt><trkpt lat="42.074255" lon="12.1344883"><ele>272.0</ele><time>2026-04-15T07:51:12.082Z</time></trkpt><trkpt lat="42.0741683" lon="12.1344283"><ele>271.6</ele><time>2026-04-15T07:51:14.081Z</time></trkpt><trkpt lat="42.0740833" lon="12.134355"><ele>271.2</ele><time>2026-04-15T07:51:16.081Z</time></trkpt><trkpt lat="42.073995" lon="12.134285"><ele>270.8</ele><time>2026-04-15T07:51:18.082Z</time></trkpt><trkpt lat="42.0739067" lon="12.134215"><ele>270.4</ele><time>2026-04-15T07:51:20.081Z</time></trkpt><trkpt lat="42.0738217" lon="12.1341433"><ele>270.0</ele><time>2026-04-15T07:51:22.08Z</time></trkpt><trkpt lat="42.0737317" lon="12.1340717"><ele>269.8</ele><time>2026-04-15T07:51:24.088Z</time></trkpt><trkpt lat="42.07364" lon="12.1339967"><ele>269.6</ele><time>2026-04-15T07:51:26.081Z</time></trkpt><trkpt lat="42.07355" lon="12.133925"><ele>269.4</ele><time>2026-04-15T07:51:28.08Z</time></trkpt><trkpt lat="42.073465" lon="12.1338567"><ele>269.2</ele><time>2026-04-15T07:51:30.082Z</time></trkpt><trkpt lat="42.0733783" lon="12.1337917"><ele>269.0</ele><time>2026-04-15T07:51:32.087Z</time></trkpt><trkpt lat="42.073305" lon="12.133715"><ele>269.2</ele><time>2026-04-15T07:51:34.083Z</time></trkpt><trkpt lat="42.0732233" lon="12.1336417"><ele>269.4</ele><time>2026-04-15T07:51:36.08Z</time></trkpt><trkpt lat="42.0731317" lon="12.133575"><ele>269.6</ele><time>2026-04-15T07:51:38.085Z</time></trkpt><trkpt lat="42.0730417" lon="12.13352"><ele>269.8</ele><time>2026-04-15T07:51:40.081Z</time></trkpt><trkpt lat="42.07295" lon="12.1334867"><ele>270.0</ele><time>2026-04-15T07:51:42.085Z</time></trkpt><trkpt lat="42.07286" lon="12.1334483"><ele>270.0</ele><time>2026-04-15T07:51:44.08Z</time></trkpt><trkpt lat="42.0727717" lon="12.1334033"><ele>270.0</ele><time>2026-04-15T07:51:46.079Z</time></trkpt><trkpt lat="42.0726783" lon="12.13336"><ele>270.0</ele><time>2026-04-15T07:51:48.082Z</time></trkpt><trkpt lat="42.0725767" lon="12.1333117"><ele>270.0</ele><time>2026-04-15T07:51:50.082Z</time></trkpt><trkpt lat="42.0724683" lon="12.133275"><ele>270.0</ele><time>2026-04-15T07:51:52.087Z</time></trkpt><trkpt lat="42.0723617" lon="12.13325"><ele>269.75</ele><time>2026-04-15T07:51:54.084Z</time></trkpt><trkpt lat="42.072255" lon="12.1332117"><ele>269.5</ele><time>2026-04-15T07:51:56.082Z</time></trkpt><trkpt lat="42.07214" lon="12.1331683"><ele>269.25</ele><time>2026-04-15T07:51:58.081Z</time></trkpt><trkpt lat="42.07202" lon="12.1331217"><ele>269.0</ele><time>2026-04-15T07:52:00.081Z</time></trkpt><trkpt lat="42.071895" lon="12.1330867"><ele>269.0</ele><time>2026-04-15T07:52:02.085Z</time></trkpt><trkpt lat="42.0718317" lon="12.1330717"><ele>269.0</ele><time>2026-04-15T07:52:03.078Z</time></trkpt><trkpt lat="42.071765" lon="12.1330533"><ele>269.0</ele><time>2026-04-15T07:52:04.08Z</time></trkpt><trkpt lat="42.0717" lon="12.133035"><ele>269.0</ele><time>2026-04-15T07:52:05.08Z</time></trkpt><trkpt lat="42.0716333" lon="12.1330167"><ele>269.0</ele><time>2026-04-15T07:52:06.085Z</time></trkpt><trkpt lat="42.0715667" lon="12.1329933"><ele>269.0</ele><time>2026-04-15T07:52:07.083Z</time></trkpt><trkpt lat="42.0715" lon="12.132965"><ele>269.0</ele><time>2026-04-15T07:52:08.083Z</time></trkpt><trkpt lat="42.0714317" lon="12.1329367"><ele>268.6666666666667</ele><time>2026-04-15T07:52:09.084Z</time></trkpt><trkpt lat="42.071365" lon="12.1329083"><ele>268.33333333333337</ele><time>2026-04-15T07:52:10.081Z</time></trkpt><trkpt lat="42.0712933" lon="12.1328767"><ele>268.0</ele><time>2026-04-15T07:52:11.084Z</time></trkpt><trkpt lat="42.0712233" lon="12.132845"><ele>267.6666666666667</ele><time>2026-04-15T07:52:12.081Z</time></trkpt><trkpt lat="42.0711517" lon="12.132805"><ele>267.3333333333333</ele><time>2026-04-15T07:52:13.089Z</time></trkpt><trkpt lat="42.0710783" lon="12.13276"><ele>267.0</ele><time>2026-04-15T07:52:14.079Z</time></trkpt><trkpt lat="42.0710017" lon="12.1327183"><ele>267.0</ele><time>2026-04-15T07:52:15.083Z</time></trkpt><trkpt lat="42.0709233" lon="12.1326817"><ele>267.0</ele><time>2026-04-15T07:52:16.082Z</time></trkpt><trkpt lat="42.0708467" lon="12.1326383"><ele>267.0</ele><time>2026-04-15T07:52:17.083Z</time></trkpt><trkpt lat="42.0707717" lon="12.1325883"><ele>267.0</ele><time>2026-04-15T07:52:18.082Z</time></trkpt><trkpt lat="42.0706967" lon="12.13254"><ele>267.0</ele><time>2026-04-15T07:52:19.086Z</time></trkpt><trkpt lat="42.0706217" lon="12.1324983"><ele>267.0</ele><time>2026-04-15T07:52:20.083Z</time></trkpt><trkpt lat="42.07055" lon="12.1324517"><ele>266.5</ele><time>2026-04-15T07:52:21.084Z</time></trkpt><trkpt lat="42.07048" lon="12.1324033"><ele>266.0</ele><time>2026-04-15T07:52:22.084Z</time></trkpt><trkpt lat="42.07041" lon="12.1323533"><ele>265.5</ele><time>2026-04-15T07:52:23.082Z</time></trkpt><trkpt lat="42.07034" lon="12.1323033"><ele>265.0</ele><time>2026-04-15T07:52:24.081Z</time></trkpt><trkpt lat="42.0702717" lon="12.1322467"><ele>264.5</ele><time>2026-04-15T07:52:25.082Z</time></trkpt><trkpt lat="42.0702017" lon="12.1321817"><ele>264.0</ele><time>2026-04-15T07:52:26.082Z</time></trkpt><trkpt lat="42.0701283" lon="12.1321183"><ele>263.8</ele><time>2026-04-15T07:52:27.09Z</time></trkpt><trkpt lat="42.07005" lon="12.132055"><ele>263.59999999999997</ele><time>2026-04-15T07:52:28.082Z</time></trkpt><trkpt lat="42.0699683" lon="12.131995"><ele>263.4</ele><time>2026-04-15T07:52:29.084Z</time></trkpt><trkpt lat="42.0698867" lon="12.131935"><ele>263.2</ele><time>2026-04-15T07:52:30.083Z</time></trkpt><trkpt lat="42.0698033" lon="12.1318733"><ele>263.0</ele><time>2026-04-15T07:52:31.083Z</time></trkpt><trkpt lat="42.069725" lon="12.1318083"><ele>262.33333333333337</ele><time>2026-04-15T07:52:32.088Z</time></trkpt><trkpt lat="42.0696517" lon="12.1317483"><ele>261.6666666666667</ele><time>2026-04-15T07:52:33.081Z</time></trkpt><trkpt lat="42.0695783" lon="12.1316933"><ele>261.0</ele><time>2026-04-15T07:52:34.08Z</time></trkpt><trkpt lat="42.0695067" lon="12.131635"><ele>260.3333333333333</ele><time>2026-04-15T07:52:35.083Z</time></trkpt><trkpt lat="42.0694333" lon="12.131575"><ele>259.66666666666663</ele><time>2026-04-15T07:52:36.081Z</time></trkpt><trkpt lat="42.0693617" lon="12.131515"><ele>259.0</ele><time>2026-04-15T07:52:37.088Z</time></trkpt><trkpt lat="42.0692883" lon="12.1314567"><ele>258.8333333333333</ele><time>2026-04-15T07:52:38.082Z</time></trkpt><trkpt lat="42.0692133" lon="12.1313967"><ele>258.66666666666663</ele><time>2026-04-15T07:52:39.082Z</time></trkpt><trkpt lat="42.06914" lon="12.1313367"><ele>258.5</ele><time>2026-04-15T07:52:40.082Z</time></trkpt><trkpt lat="42.06907" lon="12.1312733"><ele>258.3333333333333</ele><time>2026-04-15T07:52:41.083Z</time></trkpt><trkpt lat="42.0689983" lon="12.13121"><ele>258.1666666666667</ele><time>2026-04-15T07:52:42.08Z</time></trkpt><trkpt lat="42.0689283" lon="12.1311467"><ele>258.0</ele><time>2026-04-15T07:52:43.083Z</time></trkpt><trkpt lat="42.0688617" lon="12.131085"><ele>257.8333333333333</ele><time>2026-04-15T07:52:44.081Z</time></trkpt><trkpt lat="42.0687967" lon="12.131025"><ele>257.6666666666667</ele><time>2026-04-15T07:52:45.084Z</time></trkpt><trkpt lat="42.0687317" lon="12.1309733"><ele>257.5</ele><time>2026-04-15T07:52:46.081Z</time></trkpt><trkpt lat="42.0686667" lon="12.13092"><ele>257.33333333333337</ele><time>2026-04-15T07:52:47.086Z</time></trkpt><trkpt lat="42.0686017" lon="12.1308667"><ele>257.1666666666667</ele><time>2026-04-15T07:52:48.082Z</time></trkpt><trkpt lat="42.0685333" lon="12.1308167"><ele>257.0</ele><time>2026-04-15T07:52:49.08Z</time></trkpt><trkpt lat="42.0684633" lon="12.1307733"><ele>257.0</ele><time>2026-04-15T07:52:50.082Z</time></trkpt><trkpt lat="42.0683933" lon="12.130735"><ele>257.0</ele><time>2026-04-15T07:52:51.083Z</time></trkpt><trkpt lat="42.0683183" lon="12.130705"><ele>257.0</ele><time>2026-04-15T07:52:52.083Z</time></trkpt><trkpt lat="42.0682433" lon="12.1306767"><ele>257.0</ele><time>2026-04-15T07:52:53.093Z</time></trkpt><trkpt lat="42.06817" lon="12.1306567"><ele>257.0</ele><time>2026-04-15T07:52:54.084Z</time></trkpt><trkpt lat="42.0680967" lon="12.130645"><ele>257.0</ele><time>2026-04-15T07:52:55.083Z</time></trkpt><trkpt lat="42.0680233" lon="12.1306467"><ele>256.83333333333337</ele><time>2026-04-15T07:52:56.083Z</time></trkpt><trkpt lat="42.0679517" lon="12.13066"><ele>256.6666666666667</ele><time>2026-04-15T07:52:57.084Z</time></trkpt><trkpt lat="42.0678783" lon="12.13068"><ele>256.5</ele><time>2026-04-15T07:52:58.087Z</time></trkpt><trkpt lat="42.067805" lon="12.1307067"><ele>256.3333333333333</ele><time>2026-04-15T07:52:59.084Z</time></trkpt><trkpt lat="42.0677317" lon="12.130735"><ele>256.16666666666663</ele><time>2026-04-15T07:53:00.085Z</time></trkpt><trkpt lat="42.0676583" lon="12.1307667"><ele>256.0</ele><time>2026-04-15T07:53:01.082Z</time></trkpt><trkpt lat="42.0675833" lon="12.1307983"><ele>255.99999999999997</ele><time>2026-04-15T07:53:02.085Z</time></trkpt><trkpt lat="42.0675083" lon="12.1308267"><ele>256.0</ele><time>2026-04-15T07:53:03.088Z</time></trkpt><trkpt lat="42.067435" lon="12.1308533"><ele>256.0</ele><time>2026-04-15T07:53:04.085Z</time></trkpt><trkpt lat="42.06736" lon="12.1308817"><ele>256.0</ele><time>2026-04-15T07:53:05.081Z</time></trkpt><trkpt lat="42.0672833" lon="12.13091"><ele>255.99999999999997</ele><time>2026-04-15T07:53:06.082Z</time></trkpt><trkpt lat="42.0672067" lon="12.1309367"><ele>256.0</ele><time>2026-04-15T07:53:07.085Z</time></trkpt><trkpt lat="42.0671283" lon="12.1309683"><ele>255.66666666666666</ele><time>2026-04-15T07:53:08.085Z</time></trkpt><trkpt lat="42.0670483" lon="12.131"><ele>255.33333333333331</ele><time>2026-04-15T07:53:09.084Z</time></trkpt><trkpt lat="42.0669717" lon="12.13103"><ele>255.0</ele><time>2026-04-15T07:53:10.083Z</time></trkpt><trkpt lat="42.066895" lon="12.1310567"><ele>254.66666666666669</ele><time>2026-04-15T07:53:11.083Z</time></trkpt><trkpt lat="42.06682" lon="12.1310833"><ele>254.33333333333334</ele><time>2026-04-15T07:53:12.083Z</time></trkpt><trkpt lat="42.0667467" lon="12.13111"><ele>254.0</ele><time>2026-04-15T07:53:13.084Z</time></trkpt><trkpt lat="42.0666733" lon="12.1311417"><ele>253.42857142857144</ele><time>2026-04-15T07:53:14.082Z</time></trkpt><trkpt lat="42.0666017" lon="12.131175"><ele>252.85714285714283</ele><time>2026-04-15T07:53:15.083Z</time></trkpt><trkpt lat="42.066535" lon="12.131205"><ele>252.28571428571428</ele><time>2026-04-15T07:53:16.083Z</time></trkpt><trkpt lat="42.06647" lon="12.1312367"><ele>251.71428571428572</ele><time>2026-04-15T07:53:17.083Z</time></trkpt><trkpt lat="42.0664033" lon="12.1312717"><ele>251.14285714285717</ele><time>2026-04-15T07:53:18.08Z</time></trkpt><trkpt lat="42.0663383" lon="12.13131"><ele>250.57142857142856</ele><time>2026-04-15T07:53:19.089Z</time></trkpt><trkpt lat="42.0662717" lon="12.1313517"><ele>250.0</ele><time>2026-04-15T07:53:20.081Z</time></trkpt><trkpt lat="42.0662083" lon="12.1313867"><ele>250.0</ele><time>2026-04-15T07:53:21.085Z</time></trkpt><trkpt lat="42.0661417" lon="12.1314217"><ele>250.0</ele><time>2026-04-15T07:53:22.085Z</time></trkpt><trkpt lat="42.0660783" lon="12.131455"><ele>250.0</ele><time>2026-04-15T07:53:23.082Z</time></trkpt><trkpt lat="42.06601" lon="12.13149"><ele>250.0</ele><time>2026-04-15T07:53:24.082Z</time></trkpt><trkpt lat="42.0659433" lon="12.1315283"><ele>250.0</ele><time>2026-04-15T07:53:25.086Z</time></trkpt><trkpt lat="42.0658733" lon="12.131565"><ele>250.0</ele><time>2026-04-15T07:53:26.083Z</time></trkpt><trkpt lat="42.0658067" lon="12.1316033"><ele>250.0</ele><time>2026-04-15T07:53:27.084Z</time></trkpt><trkpt lat="42.0657383" lon="12.1316433"><ele>250.57142857142856</ele><time>2026-04-15T07:53:28.083Z</time></trkpt><trkpt lat="42.0656733" lon="12.1316867"><ele>251.14285714285717</ele><time>2026-04-15T07:53:29.082Z</time></trkpt><trkpt lat="42.0656033" lon="12.131725"><ele>251.71428571428572</ele><time>2026-04-15T07:53:30.085Z</time></trkpt><trkpt lat="42.0655367" lon="12.131765"><ele>252.28571428571428</ele><time>2026-04-15T07:53:31.085Z</time></trkpt><trkpt lat="42.06547" lon="12.1318033"><ele>252.85714285714283</ele><time>2026-04-15T07:53:32.087Z</time></trkpt><trkpt lat="42.065405" lon="12.1318417"><ele>253.42857142857144</ele><time>2026-04-15T07:53:33.081Z</time></trkpt><trkpt lat="42.0653417" lon="12.1318833"><ele>254.0</ele><time>2026-04-15T07:53:34.083Z</time></trkpt><trkpt lat="42.0652767" lon="12.13193"><ele>254.00000000000003</ele><time>2026-04-15T07:53:35.084Z</time></trkpt><trkpt lat="42.0652117" lon="12.1319767"><ele>254.0</ele><time>2026-04-15T07:53:36.093Z</time></trkpt><trkpt lat="42.0651483" lon="12.1320267"><ele>254.0</ele><time>2026-04-15T07:53:37.081Z</time></trkpt><trkpt lat="42.0650817" lon="12.132085"><ele>254.0</ele><time>2026-04-15T07:53:38.081Z</time></trkpt><trkpt lat="42.0650167" lon="12.1321417"><ele>254.00000000000003</ele><time>2026-04-15T07:53:39.083Z</time></trkpt><trkpt lat="42.0649517" lon="12.132195"><ele>254.0</ele><time>2026-04-15T07:53:40.082Z</time></trkpt><trkpt lat="42.0648867" lon="12.1322483"><ele>253.83333333333334</ele><time>2026-04-15T07:53:41.08Z</time></trkpt><trkpt lat="42.06482" lon="12.1323017"><ele>253.66666666666669</ele><time>2026-04-15T07:53:42.081Z</time></trkpt><trkpt lat="42.0647567" lon="12.1323567"><ele>253.5</ele><time>2026-04-15T07:53:43.082Z</time></trkpt><trkpt lat="42.0646917" lon="12.1324133"><ele>253.33333333333331</ele><time>2026-04-15T07:53:44.083Z</time></trkpt><trkpt lat="42.06463" lon="12.13247"><ele>253.16666666666666</ele><time>2026-04-15T07:53:45.082Z</time></trkpt><trkpt lat="42.0645667" lon="12.1325267"><ele>253.0</ele><time>2026-04-15T07:53:46.085Z</time></trkpt><trkpt lat="42.064505" lon="12.1325817"><ele>253.00000000000003</ele><time>2026-04-15T07:53:47.08Z</time></trkpt><trkpt lat="42.0644467" lon="12.1326417"><ele>253.0</ele><time>2026-04-15T07:53:48.088Z</time></trkpt><trkpt lat="42.0643867" lon="12.1327033"><ele>253.00000000000003</ele><time>2026-04-15T07:53:49.083Z</time></trkpt><trkpt lat="42.0643267" lon="12.1327633"><ele>253.00000000000003</ele><time>2026-04-15T07:53:50.079Z</time></trkpt><trkpt lat="42.064265" lon="12.1328183"><ele>253.0</ele><time>2026-04-15T07:53:51.082Z</time></trkpt><trkpt lat="42.0642033" lon="12.13287"><ele>253.00000000000003</ele><time>2026-04-15T07:53:52.08Z</time></trkpt><trkpt lat="42.0641433" lon="12.1329267"><ele>253.00000000000003</ele><time>2026-04-15T07:53:53.09Z</time></trkpt><trkpt lat="42.0640883" lon="12.1329833"><ele>252.71428571428575</ele><time>2026-04-15T07:53:54.08Z</time></trkpt><trkpt lat="42.0640333" lon="12.1330367"><ele>252.42857142857144</ele><time>2026-04-15T07:53:55.081Z</time></trkpt><trkpt lat="42.0639783" lon="12.133095"><ele>252.14285714285714</ele><time>2026-04-15T07:53:56.085Z</time></trkpt><trkpt lat="42.0639217" lon="12.1331567"><ele>251.85714285714286</ele><time>2026-04-15T07:53:57.082Z</time></trkpt><trkpt lat="42.0638667" lon="12.1332167"><ele>251.57142857142856</ele><time>2026-04-15T07:53:58.085Z</time></trkpt><trkpt lat="42.063815" lon="12.1332767"><ele>251.28571428571425</ele><time>2026-04-15T07:53:59.083Z</time></trkpt><trkpt lat="42.0637633" lon="12.13334"><ele>250.99999999999997</ele><time>2026-04-15T07:54:00.083Z</time></trkpt><trkpt lat="42.06371" lon="12.1334033"><ele>251.00000000000003</ele><time>2026-04-15T07:54:01.08Z</time></trkpt><trkpt lat="42.0636517" lon="12.1334667"><ele>251.0</ele><time>2026-04-15T07:54:02.083Z</time></trkpt><trkpt lat="42.0635867" lon="12.1335267"><ele>251.0</ele><time>2026-04-15T07:54:03.081Z</time></trkpt><trkpt lat="42.0635167" lon="12.133585"><ele>251.0</ele><time>2026-04-15T07:54:04.081Z</time></trkpt><trkpt lat="42.063445" lon="12.1336417"><ele>251.00000000000003</ele><time>2026-04-15T07:54:05.08Z</time></trkpt><trkpt lat="42.0633733" lon="12.1337"><ele>251.0</ele><time>2026-04-15T07:54:06.086Z</time></trkpt><trkpt lat="42.0632983" lon="12.133755"><ele>250.16666666666669</ele><time>2026-04-15T07:54:07.083Z</time></trkpt><trkpt lat="42.0632233" lon="12.1338117"><ele>249.33333333333334</ele><time>2026-04-15T07:54:08.083Z</time></trkpt><trkpt lat="42.06315" lon="12.1338683"><ele>248.5</ele><time>2026-04-15T07:54:09.089Z</time></trkpt><trkpt lat="42.06308" lon="12.1339267"><ele>247.66666666666669</ele><time>2026-04-15T07:54:10.08Z</time></trkpt><trkpt lat="42.06301" lon="12.133985"><ele>246.83333333333334</ele><time>2026-04-15T07:54:11.081Z</time></trkpt><trkpt lat="42.0629383" lon="12.13404"><ele>246.0</ele><time>2026-04-15T07:54:12.082Z</time></trkpt><trkpt lat="42.0628683" lon="12.134095"><ele>246.00000000000003</ele><time>2026-04-15T07:54:13.083Z</time></trkpt><trkpt lat="42.0628017" lon="12.1341517"><ele>246.0</ele><time>2026-04-15T07:54:14.081Z</time></trkpt><trkpt lat="42.0627367" lon="12.1342083"><ele>246.00000000000003</ele><time>2026-04-15T07:54:15.08Z</time></trkpt><trkpt lat="42.0626733" lon="12.13426"><ele>246.00000000000003</ele><time>2026-04-15T07:54:16.084Z</time></trkpt><trkpt lat="42.0626117" lon="12.1343133"><ele>246.0</ele><time>2026-04-15T07:54:17.079Z</time></trkpt><trkpt lat="42.0625517" lon="12.1343667"><ele>246.00000000000003</ele><time>2026-04-15T07:54:18.082Z</time></trkpt><trkpt lat="42.0624933" lon="12.13442"><ele>246.00000000000003</ele><time>2026-04-15T07:54:19.084Z</time></trkpt><trkpt lat="42.062435" lon="12.134475"><ele>245.71428571428575</ele><time>2026-04-15T07:54:20.082Z</time></trkpt><trkpt lat="42.0623783" lon="12.1345283"><ele>245.42857142857144</ele><time>2026-04-15T07:54:21.081Z</time></trkpt><trkpt lat="42.06232" lon="12.13458"><ele>245.14285714285714</ele><time>2026-04-15T07:54:22.085Z</time></trkpt><trkpt lat="42.0622583" lon="12.1346317"><ele>244.85714285714286</ele><time>2026-04-15T07:54:23.081Z</time></trkpt><trkpt lat="42.0621967" lon="12.1346833"><ele>244.57142857142856</ele><time>2026-04-15T07:54:24.079Z</time></trkpt><trkpt lat="42.062135" lon="12.1347367"><ele>244.28571428571425</ele><time>2026-04-15T07:54:25.081Z</time></trkpt><trkpt lat="42.06207" lon="12.1347933"><ele>243.99999999999997</ele><time>2026-04-15T07:54:26.082Z</time></trkpt><trkpt lat="42.0620033" lon="12.1348467"><ele>243.99999999999997</ele><time>2026-04-15T07:54:27.086Z</time></trkpt><trkpt lat="42.0619333" lon="12.1348933"><ele>244.0</ele><time>2026-04-15T07:54:28.083Z</time></trkpt><trkpt lat="42.0618617" lon="12.1349333"><ele>244.0</ele><time>2026-04-15T07:54:29.079Z</time></trkpt><trkpt lat="42.061785" lon="12.1349617"><ele>244.0</ele><time>2026-04-15T07:54:30.083Z</time></trkpt><trkpt lat="42.0617033" lon="12.13497"><ele>243.99999999999997</ele><time>2026-04-15T07:54:31.082Z</time></trkpt><trkpt lat="42.06162" lon="12.1349683"><ele>244.0</ele><time>2026-04-15T07:54:32.083Z</time></trkpt><trkpt lat="42.06154" lon="12.13497"><ele>244.0</ele><time>2026-04-15T07:54:33.087Z</time></trkpt><trkpt lat="42.0614733" lon="12.1349717"><ele>243.99999999999997</ele><time>2026-04-15T07:54:34.084Z</time></trkpt><trkpt lat="42.0613783" lon="12.1349783"><ele>243.99999999999997</ele><time>2026-04-15T07:54:36.083Z</time></trkpt><trkpt lat="42.0612817" lon="12.1349483"><ele>244.0</ele><time>2026-04-15T07:54:38.086Z</time></trkpt><trkpt lat="42.0611833" lon="12.1348733"><ele>244.0</ele><time>2026-04-15T07:54:40.08Z</time></trkpt><trkpt lat="42.0610733" lon="12.134795"><ele>243.57142857142856</ele><time>2026-04-15T07:54:42.082Z</time></trkpt><trkpt lat="42.0610167" lon="12.134755"><ele>243.14285714285714</ele><time>2026-04-15T07:54:43.081Z</time></trkpt><trkpt lat="42.0609517" lon="12.1347167"><ele>242.71428571428572</ele><time>2026-04-15T07:54:44.083Z</time></trkpt><trkpt lat="42.0608867" lon="12.1346767"><ele>242.28571428571428</ele><time>2026-04-15T07:54:45.083Z</time></trkpt><trkpt lat="42.06082" lon="12.1346333"><ele>241.8571428571429</ele><time>2026-04-15T07:54:46.081Z</time></trkpt><trkpt lat="42.0607567" lon="12.1345867"><ele>241.42857142857144</ele><time>2026-04-15T07:54:47.085Z</time></trkpt><trkpt lat="42.0606917" lon="12.1345367"><ele>241.0</ele><time>2026-04-15T07:54:48.082Z</time></trkpt><trkpt lat="42.0606233" lon="12.1344883"><ele>240.83333333333331</ele><time>2026-04-15T07:54:49.081Z</time></trkpt><trkpt lat="42.060555" lon="12.13444"><ele>240.66666666666666</ele><time>2026-04-15T07:54:50.081Z</time></trkpt><trkpt lat="42.060485" lon="12.1343967"><ele>240.5</ele><time>2026-04-15T07:54:51.083Z</time></trkpt><trkpt lat="42.0604133" lon="12.1343533"><ele>240.33333333333331</ele><time>2026-04-15T07:54:52.085Z</time></trkpt><trkpt lat="42.0603417" lon="12.1343083"><ele>240.16666666666666</ele><time>2026-04-15T07:54:53.083Z</time></trkpt><trkpt lat="42.0602717" lon="12.1342633"><ele>240.0</ele><time>2026-04-15T07:54:54.079Z</time></trkpt><trkpt lat="42.0601983" lon="12.1342183"><ele>240.0</ele><time>2026-04-15T07:54:55.08Z</time></trkpt><trkpt lat="42.060125" lon="12.134175"><ele>240.0</ele><time>2026-04-15T07:54:56.081Z</time></trkpt><trkpt lat="42.0600533" lon="12.1341317"><ele>240.0</ele><time>2026-04-15T07:54:57.087Z</time></trkpt><trkpt lat="42.0599867" lon="12.134085"><ele>240.0</ele><time>2026-04-15T07:54:58.083Z</time></trkpt><trkpt lat="42.0599183" lon="12.1340367"><ele>240.0</ele><time>2026-04-15T07:54:59.08Z</time></trkpt><trkpt lat="42.05985" lon="12.1339883"><ele>240.0</ele><time>2026-04-15T07:55:00.082Z</time></trkpt><trkpt lat="42.059785" lon="12.13394"><ele>240.0</ele><time>2026-04-15T07:55:01.083Z</time></trkpt><trkpt lat="42.0597217" lon="12.1338883"><ele>240.0</ele><time>2026-04-15T07:55:02.079Z</time></trkpt><trkpt lat="42.059665" lon="12.1338333"><ele>240.0</ele><time>2026-04-15T07:55:03.083Z</time></trkpt><trkpt lat="42.0596117" lon="12.1337767"><ele>240.0</ele><time>2026-04-15T07:55:04.086Z</time></trkpt><trkpt lat="42.0595567" lon="12.13372"><ele>240.0</ele><time>2026-04-15T07:55:05.083Z</time></trkpt><trkpt lat="42.059505" lon="12.1336583"><ele>240.0</ele><time>2026-04-15T07:55:06.083Z</time></trkpt><trkpt lat="42.0594583" lon="12.1335917"><ele>240.0</ele><time>2026-04-15T07:55:07.086Z</time></trkpt><trkpt lat="42.0594117" lon="12.133525"><ele>240.0</ele><time>2026-04-15T07:55:08.083Z</time></trkpt><trkpt lat="42.0593667" lon="12.1334583"><ele>240.0</ele><time>2026-04-15T07:55:09.085Z</time></trkpt><trkpt lat="42.0593217" lon="12.1333883"><ele>240.0</ele><time>2026-04-15T07:55:10.081Z</time></trkpt><trkpt lat="42.05928" lon="12.13332"><ele>240.0</ele><time>2026-04-15T07:55:11.08Z</time></trkpt><trkpt lat="42.05924" lon="12.1332467"><ele>240.0</ele><time>2026-04-15T07:55:12.084Z</time></trkpt><trkpt lat="42.0592017" lon="12.133175"><ele>240.0</ele><time>2026-04-15T07:55:13.088Z</time></trkpt><trkpt lat="42.0591617" lon="12.1331033"><ele>240.0</ele><time>2026-04-15T07:55:14.081Z</time></trkpt><trkpt lat="42.0591217" lon="12.1330333"><ele>240.6</ele><time>2026-04-15T07:55:15.085Z</time></trkpt><trkpt lat="42.05908" lon="12.1329667"><ele>241.2</ele><time>2026-04-15T07:55:16.082Z</time></trkpt><trkpt lat="42.05904" lon="12.1328967"><ele>241.8</ele><time>2026-04-15T07:55:17.08Z</time></trkpt><trkpt lat="42.0589617" lon="12.132765"><ele>242.4</ele><time>2026-04-15T07:55:19.08Z</time></trkpt><trkpt lat="42.05889" lon="12.132635"><ele>243.0</ele><time>2026-04-15T07:55:21.086Z</time></trkpt><trkpt lat="42.0588233" lon="12.132505"><ele>242.5</ele><time>2026-04-15T07:55:23.083Z</time></trkpt><trkpt lat="42.058755" lon="12.13238"><ele>242.0</ele><time>2026-04-15T07:55:25.084Z</time></trkpt><trkpt lat="42.058685" lon="12.1322467"><ele>241.5</ele><time>2026-04-15T07:55:27.082Z</time></trkpt><trkpt lat="42.0586467" lon="12.1321783"><ele>241.0</ele><time>2026-04-15T07:55:28.081Z</time></trkpt><trkpt lat="42.0586083" lon="12.1321033"><ele>240.5</ele><time>2026-04-15T07:55:29.082Z</time></trkpt><trkpt lat="42.05857" lon="12.1320267"><ele>240.0</ele><time>2026-04-15T07:55:30.081Z</time></trkpt><trkpt lat="42.0585283" lon="12.1319467"><ele>240.0</ele><time>2026-04-15T07:55:31.08Z</time></trkpt><trkpt lat="42.05848" lon="12.1318633"><ele>240.0</ele><time>2026-04-15T07:55:32.082Z</time></trkpt><trkpt lat="42.058435" lon="12.1317717"><ele>240.0</ele><time>2026-04-15T07:55:33.086Z</time></trkpt><trkpt lat="42.0583833" lon="12.13168"><ele>240.0</ele><time>2026-04-15T07:55:34.08Z</time></trkpt><trkpt lat="42.0583283" lon="12.1315783"><ele>240.0</ele><time>2026-04-15T07:55:35.086Z</time></trkpt><trkpt lat="42.0582783" lon="12.13149"><ele>240.0</ele><time>2026-04-15T07:55:36.081Z</time></trkpt><trkpt lat="42.0582317" lon="12.1314083"><ele>239.5</ele><time>2026-04-15T07:55:37.083Z</time></trkpt><trkpt lat="42.0581817" lon="12.1313183"><ele>239.0</ele><time>2026-04-15T07:55:38.081Z</time></trkpt><trkpt lat="42.0581333" lon="12.1312267"><ele>238.5</ele><time>2026-04-15T07:55:39.083Z</time></trkpt><trkpt lat="42.0580883" lon="12.1311367"><ele>238.0</ele><time>2026-04-15T07:55:40.084Z</time></trkpt><trkpt lat="42.0580533" lon="12.1310433"><ele>237.5</ele><time>2026-04-15T07:55:41.081Z</time></trkpt><trkpt lat="42.0580167" lon="12.1309333"><ele>237.0</ele><time>2026-04-15T07:55:42.086Z</time></trkpt><trkpt lat="42.0579817" lon="12.130825"><ele>237.0</ele><time>2026-04-15T07:55:43.084Z</time></trkpt><trkpt lat="42.057955" lon="12.1307167"><ele>237.0</ele><time>2026-04-15T07:55:44.084Z</time></trkpt><trkpt lat="42.0579417" lon="12.13062"><ele>237.0</ele><time>2026-04-15T07:55:45.085Z</time></trkpt><trkpt lat="42.057935" lon="12.1305283"><ele>237.0</ele><time>2026-04-15T07:55:46.083Z</time></trkpt><trkpt lat="42.05793" lon="12.1304383"><ele>237.0</ele><time>2026-04-15T07:55:47.083Z</time></trkpt><trkpt lat="42.05793" lon="12.1303517"><ele>237.0</ele><time>2026-04-15T07:55:48.085Z</time></trkpt><trkpt lat="42.0579633" lon="12.130235"><ele>237.0</ele><time>2026-04-15T07:55:50.081Z</time></trkpt><trkpt lat="42.0579683" lon="12.1301433"><ele>237.0</ele><time>2026-04-15T07:55:51.085Z</time></trkpt><trkpt lat="42.0579667" lon="12.1300533"><ele>237.0</ele><time>2026-04-15T07:55:52.08Z</time></trkpt><trkpt lat="42.0579683" lon="12.12995"><ele>237.0</ele><time>2026-04-15T07:55:53.086Z</time></trkpt><trkpt lat="42.0579683" lon="12.129855"><ele>237.0</ele><time>2026-04-15T07:55:54.085Z</time></trkpt><trkpt lat="42.0579633" lon="12.129765"><ele>237.0</ele><time>2026-04-15T07:55:55.081Z</time></trkpt><trkpt lat="42.0579517" lon="12.1295967"><ele>237.39999999999998</ele><time>2026-04-15T07:55:57.089Z</time></trkpt><trkpt lat="42.0579467" lon="12.12951"><ele>237.79999999999998</ele><time>2026-04-15T07:55:58.079Z</time></trkpt><trkpt lat="42.057935" lon="12.12935"><ele>238.2</ele><time>2026-04-15T07:56:00.082Z</time></trkpt><trkpt lat="42.0579267" lon="12.1291867"><ele>238.6</ele><time>2026-04-15T07:56:02.089Z</time></trkpt><trkpt lat="42.0579133" lon="12.129025"><ele>239.0</ele><time>2026-04-15T07:56:04.085Z</time></trkpt><trkpt lat="42.0578967" lon="12.128865"><ele>239.00000000000003</ele><time>2026-04-15T07:56:06.08Z</time></trkpt><trkpt lat="42.0578783" lon="12.12871"><ele>239.0</ele><time>2026-04-15T07:56:08.081Z</time></trkpt><trkpt lat="42.0578333" lon="12.1285533"><ele>239.0</ele><time>2026-04-15T07:56:10.082Z</time></trkpt><trkpt lat="42.0578017" lon="12.1284783"><ele>239.0</ele><time>2026-04-15T07:56:11.084Z</time></trkpt><trkpt lat="42.0577633" lon="12.12841"><ele>239.00000000000003</ele><time>2026-04-15T07:56:12.085Z</time></trkpt><trkpt lat="42.0577217" lon="12.1283433"><ele>239.0</ele><time>2026-04-15T07:56:13.079Z</time></trkpt><trkpt lat="42.057675" lon="12.1282817"><ele>238.71428571428575</ele><time>2026-04-15T07:56:14.084Z</time></trkpt><trkpt lat="42.057625" lon="12.128225"><ele>238.42857142857144</ele><time>2026-04-15T07:56:15.081Z</time></trkpt><trkpt lat="42.05757" lon="12.1281767"><ele>238.14285714285714</ele><time>2026-04-15T07:56:16.079Z</time></trkpt><trkpt lat="42.05751" lon="12.1281383"><ele>237.85714285714286</ele><time>2026-04-15T07:56:17.081Z</time></trkpt><trkpt lat="42.05745" lon="12.1281033"><ele>237.57142857142856</ele><time>2026-04-15T07:56:18.081Z</time></trkpt><trkpt lat="42.05739" lon="12.1280717"><ele>237.28571428571425</ele><time>2026-04-15T07:56:19.081Z</time></trkpt><trkpt lat="42.05733" lon="12.12804"><ele>236.99999999999997</ele><time>2026-04-15T07:56:20.078Z</time></trkpt><trkpt lat="42.0572717" lon="12.1280067"><ele>236.71428571428567</ele><time>2026-04-15T07:56:21.083Z</time></trkpt><trkpt lat="42.0572133" lon="12.1279733"><ele>236.42857142857142</ele><time>2026-04-15T07:56:22.081Z</time></trkpt><trkpt lat="42.0571533" lon="12.1279417"><ele>236.1428571428571</ele><time>2026-04-15T07:56:23.082Z</time></trkpt><trkpt lat="42.0570883" lon="12.12791"><ele>235.85714285714283</ele><time>2026-04-15T07:56:24.085Z</time></trkpt><trkpt lat="42.0570267" lon="12.1278717"><ele>235.57142857142856</ele><time>2026-04-15T07:56:25.083Z</time></trkpt><trkpt lat="42.0569633" lon="12.1278317"><ele>235.28571428571428</ele><time>2026-04-15T07:56:26.085Z</time></trkpt><trkpt lat="42.0568967" lon="12.127795"><ele>235.0</ele><time>2026-04-15T07:56:27.081Z</time></trkpt><trkpt lat="42.05683" lon="12.1277567"><ele>234.99999999999997</ele><time>2026-04-15T07:56:28.081Z</time></trkpt><trkpt lat="42.05676" lon="12.1277217"><ele>235.0</ele><time>2026-04-15T07:56:29.084Z</time></trkpt><trkpt lat="42.05669" lon="12.127685"><ele>235.0</ele><time>2026-04-15T07:56:30.08Z</time></trkpt><trkpt lat="42.0566183" lon="12.1276483"><ele>235.0</ele><time>2026-04-15T07:56:31.092Z</time></trkpt><trkpt lat="42.0565467" lon="12.127605"><ele>234.99999999999997</ele><time>2026-04-15T07:56:32.083Z</time></trkpt><trkpt lat="42.05647" lon="12.1275617"><ele>235.0</ele><time>2026-04-15T07:56:33.082Z</time></trkpt><trkpt lat="42.0563933" lon="12.1275167"><ele>234.66666666666666</ele><time>2026-04-15T07:56:34.082Z</time></trkpt><trkpt lat="42.0563167" lon="12.1274717"><ele>234.33333333333331</ele><time>2026-04-15T07:56:35.081Z</time></trkpt><trkpt lat="42.0562367" lon="12.1274317"><ele>234.0</ele><time>2026-04-15T07:56:36.09Z</time></trkpt><trkpt lat="42.0561567" lon="12.1273917"><ele>233.66666666666669</ele><time>2026-04-15T07:56:37.086Z</time></trkpt><trkpt lat="42.0560783" lon="12.12735"><ele>233.33333333333334</ele><time>2026-04-15T07:56:38.085Z</time></trkpt><trkpt lat="42.0560017" lon="12.12731"><ele>233.0</ele><time>2026-04-15T07:56:39.085Z</time></trkpt><trkpt lat="42.055925" lon="12.12727"><ele>233.00000000000003</ele><time>2026-04-15T07:56:40.085Z</time></trkpt><trkpt lat="42.05585" lon="12.1272283"><ele>233.0</ele><time>2026-04-15T07:56:41.083Z</time></trkpt><trkpt lat="42.055775" lon="12.12719"><ele>233.0</ele><time>2026-04-15T07:56:42.085Z</time></trkpt><trkpt lat="42.0557" lon="12.1271567"><ele>233.0</ele><time>2026-04-15T07:56:43.088Z</time></trkpt><trkpt lat="42.0556283" lon="12.12712"><ele>233.00000000000003</ele><time>2026-04-15T07:56:44.082Z</time></trkpt><trkpt lat="42.0555567" lon="12.127085"><ele>233.0</ele><time>2026-04-15T07:56:45.083Z</time></trkpt><trkpt lat="42.0554867" lon="12.1270467"><ele>233.00000000000003</ele><time>2026-04-15T07:56:46.081Z</time></trkpt><trkpt lat="42.0554167" lon="12.1270067"><ele>233.0</ele><time>2026-04-15T07:56:47.086Z</time></trkpt><trkpt lat="42.0553467" lon="12.12696"><ele>233.0</ele><time>2026-04-15T07:56:48.081Z</time></trkpt><trkpt lat="42.0552733" lon="12.126915"><ele>233.0</ele><time>2026-04-15T07:56:49.082Z</time></trkpt><trkpt lat="42.0551983" lon="12.1268733"><ele>233.00000000000003</ele><time>2026-04-15T07:56:50.08Z</time></trkpt><trkpt lat="42.0551233" lon="12.1268333"><ele>233.0</ele><time>2026-04-15T07:56:51.081Z</time></trkpt><trkpt lat="42.0550467" lon="12.1267933"><ele>233.00000000000003</ele><time>2026-04-15T07:56:52.081Z</time></trkpt><trkpt lat="42.05497" lon="12.126755"><ele>233.0</ele><time>2026-04-15T07:56:53.08Z</time></trkpt><trkpt lat="42.054895" lon="12.126715"><ele>233.0</ele><time>2026-04-15T07:56:54.081Z</time></trkpt><trkpt lat="42.0548183" lon="12.126675"><ele>233.0</ele><time>2026-04-15T07:56:55.083Z</time></trkpt><trkpt lat="42.0547433" lon="12.1266367"><ele>233.00000000000003</ele><time>2026-04-15T07:56:56.082Z</time></trkpt><trkpt lat="42.0546683" lon="12.1266017"><ele>233.0</ele><time>2026-04-15T07:56:57.082Z</time></trkpt><trkpt lat="42.0545983" lon="12.126565"><ele>232.50000000000003</ele><time>2026-04-15T07:56:58.08Z</time></trkpt><trkpt lat="42.0545317" lon="12.126525"><ele>232.0</ele><time>2026-04-15T07:56:59.08Z</time></trkpt><trkpt lat="42.05446" lon="12.1264767"><ele>231.5</ele><time>2026-04-15T07:57:00.084Z</time></trkpt><trkpt lat="42.0543867" lon="12.1264333"><ele>231.0</ele><time>2026-04-15T07:57:01.081Z</time></trkpt><trkpt lat="42.0543167" lon="12.1263933"><ele>230.50000000000003</ele><time>2026-04-15T07:57:02.082Z</time></trkpt><trkpt lat="42.0542483" lon="12.1263533"><ele>230.0</ele><time>2026-04-15T07:57:03.081Z</time></trkpt><trkpt lat="42.0541817" lon="12.1263183"><ele>229.50000000000003</ele><time>2026-04-15T07:57:04.079Z</time></trkpt><trkpt lat="42.0541117" lon="12.1262817"><ele>229.0</ele><time>2026-04-15T07:57:05.083Z</time></trkpt><trkpt lat="42.0540433" lon="12.126245"><ele>228.5</ele><time>2026-04-15T07:57:06.08Z</time></trkpt><trkpt lat="42.0539783" lon="12.1262083"><ele>228.0</ele><time>2026-04-15T07:57:07.08Z</time></trkpt><trkpt lat="42.053915" lon="12.1261733"><ele>227.50000000000003</ele><time>2026-04-15T07:57:08.082Z</time></trkpt><trkpt lat="42.0538567" lon="12.1261383"><ele>227.0</ele><time>2026-04-15T07:57:09.081Z</time></trkpt><trkpt lat="42.0537367" lon="12.1260817"><ele>227.0</ele><time>2026-04-15T07:57:11.081Z</time></trkpt><trkpt lat="42.0536717" lon="12.1260517"><ele>227.00000000000003</ele><time>2026-04-15T07:57:12.081Z</time></trkpt><trkpt lat="42.0536067" lon="12.12602"><ele>227.0</ele><time>2026-04-15T07:57:13.086Z</time></trkpt><trkpt lat="42.0535383" lon="12.1259883"><ele>227.0</ele><time>2026-04-15T07:57:14.08Z</time></trkpt><trkpt lat="42.0534717" lon="12.125955"><ele>227.00000000000003</ele><time>2026-04-15T07:57:15.082Z</time></trkpt><trkpt lat="42.0534017" lon="12.1259133"><ele>227.0</ele><time>2026-04-15T07:57:16.081Z</time></trkpt><trkpt lat="42.0533267" lon="12.1258767"><ele>227.0</ele><time>2026-04-15T07:57:17.082Z</time></trkpt><trkpt lat="42.0532517" lon="12.1258417"><ele>227.16666666666669</ele><time>2026-04-15T07:57:18.09Z</time></trkpt><trkpt lat="42.053175" lon="12.1258183"><ele>227.33333333333334</ele><time>2026-04-15T07:57:19.083Z</time></trkpt><trkpt lat="42.0531033" lon="12.1258"><ele>227.5</ele><time>2026-04-15T07:57:20.082Z</time></trkpt><trkpt lat="42.053" lon="12.1258033"><ele>227.66666666666669</ele><time>2026-04-15T07:57:22.083Z</time></trkpt><trkpt lat="42.05292" lon="12.1258767"><ele>227.83333333333334</ele><time>2026-04-15T07:57:24.082Z</time></trkpt><trkpt lat="42.0528933" lon="12.1259967"><ele>228.0</ele><time>2026-04-15T07:57:26.082Z</time></trkpt><trkpt lat="42.0529383" lon="12.1260783"><ele>228.0</ele><time>2026-04-15T07:57:28.084Z</time></trkpt><trkpt lat="42.053035" lon="12.1260667"><ele>228.0</ele><time>2026-04-15T07:57:30.082Z</time></trkpt><trkpt lat="42.0531" lon="12.1260017"><ele>228.0</ele><time>2026-04-15T07:57:32.082Z</time></trkpt><trkpt lat="42.053135" lon="12.1259167"><ele>228.0</ele><time>2026-04-15T07:57:34.084Z</time></trkpt><trkpt lat="42.053215" lon="12.12592"><ele>228.0</ele><time>2026-04-15T07:57:37.082Z</time></trkpt><trkpt lat="42.0532783" lon="12.1259133"><ele>228.0</ele><time>2026-04-15T08:03:32.08Z</time></trkpt><trkpt lat="42.0533517" lon="12.1259267"><ele>227.85714285714283</ele><time>2026-04-15T08:03:35.082Z</time></trkpt><trkpt lat="42.0534283" lon="12.1259767"><ele>227.7142857142857</ele><time>2026-04-15T08:03:38.087Z</time></trkpt><trkpt lat="42.0534867" lon="12.1260183"><ele>227.57142857142856</ele><time>2026-04-15T08:03:40.08Z</time></trkpt><trkpt lat="42.053555" lon="12.12606"><ele>227.42857142857144</ele><time>2026-04-15T08:03:42.082Z</time></trkpt><trkpt lat="42.0536217" lon="12.1261"><ele>227.2857142857143</ele><time>2026-04-15T08:03:44.093Z</time></trkpt><trkpt lat="42.0536883" lon="12.12612"><ele>227.14285714285717</ele><time>2026-04-15T08:03:46.081Z</time></trkpt><trkpt lat="42.0537617" lon="12.1261483"><ele>227.0</ele><time>2026-04-15T08:03:48.082Z</time></trkpt><trkpt lat="42.0538367" lon="12.126185"><ele>227.00000000000003</ele><time>2026-04-15T08:03:50.085Z</time></trkpt><trkpt lat="42.0539033" lon="12.12622"><ele>227.0</ele><time>2026-04-15T08:03:52.083Z</time></trkpt><trkpt lat="42.0539867" lon="12.1262717"><ele>227.0</ele><time>2026-04-15T08:03:55.087Z</time></trkpt><trkpt lat="42.054045" lon="12.126305"><ele>227.0</ele><time>2026-04-15T08:03:57.081Z</time></trkpt><trkpt lat="42.0541267" lon="12.1263483"><ele>227.00000000000003</ele><time>2026-04-15T08:04:00.084Z</time></trkpt><trkpt lat="42.0542133" lon="12.1263917"><ele>227.0</ele><time>2026-04-15T08:04:03.082Z</time></trkpt><trkpt lat="42.0542767" lon="12.1264133"><ele>227.2</ele><time>2026-04-15T08:04:05.084Z</time></trkpt><trkpt lat="42.0543567" lon="12.12646"><ele>227.39999999999998</ele><time>2026-04-15T08:04:08.08Z</time></trkpt><trkpt lat="42.0544433" lon="12.126505"><ele>227.60000000000002</ele><time>2026-04-15T08:04:11.088Z</time></trkpt><trkpt lat="42.0545283" lon="12.1265483"><ele>227.8</ele><time>2026-04-15T08:04:14.082Z</time></trkpt><trkpt lat="42.0546117" lon="12.126595"><ele>228.0</ele><time>2026-04-15T08:04:17.091Z</time></trkpt><trkpt lat="42.054695" lon="12.126645"><ele>228.0</ele><time>2026-04-15T08:04:20.084Z</time></trkpt><trkpt lat="42.0547767" lon="12.1266833"><ele>228.0</ele><time>2026-04-15T08:04:23.081Z</time></trkpt><trkpt lat="42.0548583" lon="12.12673"><ele>228.0</ele><time>2026-04-15T08:04:26.082Z</time></trkpt><trkpt lat="42.0549333" lon="12.1267733"><ele>228.0</ele><time>2026-04-15T08:04:29.082Z</time></trkpt><trkpt lat="42.055005" lon="12.1268183"><ele>228.0</ele><time>2026-04-15T08:04:32.084Z</time></trkpt><trkpt lat="42.055065" lon="12.126845"><ele>228.0</ele><time>2026-04-15T08:04:34.082Z</time></trkpt><trkpt lat="42.0551567" lon="12.1268717"><ele>228.83333333333334</ele><time>2026-04-15T08:04:37.087Z</time></trkpt><trkpt lat="42.0552383" lon="12.12691"><ele>229.66666666666669</ele><time>2026-04-15T08:04:40.082Z</time></trkpt><trkpt lat="42.0553183" lon="12.1269633"><ele>230.5</ele><time>2026-04-15T08:04:43.08Z</time></trkpt><trkpt lat="42.0553967" lon="12.1270033"><ele>231.33333333333334</ele><time>2026-04-15T08:04:46.083Z</time></trkpt><trkpt lat="42.0554683" lon="12.1270533"><ele>232.16666666666669</ele><time>2026-04-15T08:04:49.083Z</time></trkpt><trkpt lat="42.05555" lon="12.1270933"><ele>233.0</ele><time>2026-04-15T08:04:52.082Z</time></trkpt><trkpt lat="42.0556267" lon="12.12714"><ele>233.00000000000003</ele><time>2026-04-15T08:04:55.081Z</time></trkpt><trkpt lat="42.0557083" lon="12.1271883"><ele>233.0</ele><time>2026-04-15T08:04:58.089Z</time></trkpt><trkpt lat="42.05577" lon="12.127225"><ele>233.0</ele><time>2026-04-15T08:05:00.081Z</time></trkpt><trkpt lat="42.0558333" lon="12.1272633"><ele>233.0</ele><time>2026-04-15T08:05:02.084Z</time></trkpt><trkpt lat="42.0559033" lon="12.1273"><ele>233.00000000000003</ele><time>2026-04-15T08:05:04.081Z</time></trkpt><trkpt lat="42.0559733" lon="12.1273383"><ele>233.0</ele><time>2026-04-15T08:05:06.083Z</time></trkpt><trkpt lat="42.0560433" lon="12.1273733"><ele>232.85714285714286</ele><time>2026-04-15T08:05:08.082Z</time></trkpt><trkpt lat="42.0561133" lon="12.1274117"><ele>232.71428571428572</ele><time>2026-04-15T08:05:10.081Z</time></trkpt><trkpt lat="42.0561833" lon="12.1274517"><ele>232.57142857142858</ele><time>2026-04-15T08:05:12.082Z</time></trkpt><trkpt lat="42.0562467" lon="12.1274867"><ele>232.42857142857144</ele><time>2026-04-15T08:05:14.078Z</time></trkpt><trkpt lat="42.056315" lon="12.1275233"><ele>232.28571428571428</ele><time>2026-04-15T08:05:16.081Z</time></trkpt><trkpt lat="42.05638" lon="12.1275683"><ele>232.14285714285717</ele><time>2026-04-15T08:05:18.08Z</time></trkpt><trkpt lat="42.0564517" lon="12.1276067"><ele>232.00000000000003</ele><time>2026-04-15T08:05:20.08Z</time></trkpt><trkpt lat="42.0565217" lon="12.1276417"><ele>231.99999999999997</ele><time>2026-04-15T08:05:22.083Z</time></trkpt><trkpt lat="42.056595" lon="12.127685"><ele>232.0</ele><time>2026-04-15T08:05:24.084Z</time></trkpt><trkpt lat="42.0566683" lon="12.1277233"><ele>232.0</ele><time>2026-04-15T08:05:26.081Z</time></trkpt><trkpt lat="42.05674" lon="12.12776"><ele>232.0</ele><time>2026-04-15T08:05:28.081Z</time></trkpt><trkpt lat="42.0568083" lon="12.1277967"><ele>231.99999999999997</ele><time>2026-04-15T08:05:30.084Z</time></trkpt><trkpt lat="42.0568833" lon="12.1278283"><ele>232.0</ele><time>2026-04-15T08:05:32.083Z</time></trkpt><trkpt lat="42.0569533" lon="12.127865"><ele>232.42857142857144</ele><time>2026-04-15T08:05:34.082Z</time></trkpt><trkpt lat="42.0570233" lon="12.1279"><ele>232.85714285714286</ele><time>2026-04-15T08:05:36.085Z</time></trkpt><trkpt lat="42.0570917" lon="12.1279333"><ele>233.28571428571428</ele><time>2026-04-15T08:05:38.079Z</time></trkpt><trkpt lat="42.0571633" lon="12.127965"><ele>233.71428571428572</ele><time>2026-04-15T08:05:40.084Z</time></trkpt><trkpt lat="42.0572333" lon="12.128"><ele>234.1428571428571</ele><time>2026-04-15T08:05:42.085Z</time></trkpt><trkpt lat="42.0572983" lon="12.12804"><ele>234.57142857142856</ele><time>2026-04-15T08:05:44.086Z</time></trkpt><trkpt lat="42.0573633" lon="12.1280817"><ele>235.0</ele><time>2026-04-15T08:05:46.079Z</time></trkpt><trkpt lat="42.057435" lon="12.12813"><ele>235.33333333333331</ele><time>2026-04-15T08:05:48.084Z</time></trkpt><trkpt lat="42.0575083" lon="12.128185"><ele>235.66666666666666</ele><time>2026-04-15T08:05:50.082Z</time></trkpt><trkpt lat="42.05758" lon="12.1282433"><ele>236.0</ele><time>2026-04-15T08:05:52.081Z</time></trkpt><trkpt lat="42.05765" lon="12.1283183"><ele>236.33333333333331</ele><time>2026-04-15T08:05:54.085Z</time></trkpt><trkpt lat="42.0577217" lon="12.1284033"><ele>236.66666666666666</ele><time>2026-04-15T08:05:56.086Z</time></trkpt><trkpt lat="42.0577867" lon="12.1284933"><ele>237.0</ele><time>2026-04-15T08:05:58.084Z</time></trkpt><trkpt lat="42.057835" lon="12.1285983"><ele>237.39999999999998</ele><time>2026-04-15T08:06:00.084Z</time></trkpt><trkpt lat="42.0578683" lon="12.128705"><ele>237.79999999999998</ele><time>2026-04-15T08:06:02.084Z</time></trkpt><trkpt lat="42.05789" lon="12.12882"><ele>238.2</ele><time>2026-04-15T08:06:04.084Z</time></trkpt><trkpt lat="42.057905" lon="12.1289383"><ele>238.6</ele><time>2026-04-15T08:06:06.083Z</time></trkpt><trkpt lat="42.0579133" lon="12.12907"><ele>239.0</ele><time>2026-04-15T08:06:08.085Z</time></trkpt><trkpt lat="42.057915" lon="12.1292117"><ele>239.0</ele><time>2026-04-15T08:06:10.086Z</time></trkpt><trkpt lat="42.0579167" lon="12.1293583"><ele>238.99999999999997</ele><time>2026-04-15T08:06:12.084Z</time></trkpt><trkpt lat="42.05792" lon="12.1295083"><ele>238.99999999999997</ele><time>2026-04-15T08:06:14.087Z</time></trkpt><trkpt lat="42.05792" lon="12.129655"><ele>239.0</ele><time>2026-04-15T08:06:16.083Z</time></trkpt><trkpt lat="42.0579267" lon="12.129805"><ele>239.0</ele><time>2026-04-15T08:06:18.081Z</time></trkpt><trkpt lat="42.057925" lon="12.1299567"><ele>238.5</ele><time>2026-04-15T08:06:20.079Z</time></trkpt><trkpt lat="42.0579167" lon="12.1301117"><ele>238.0</ele><time>2026-04-15T08:06:22.082Z</time></trkpt><trkpt lat="42.0579067" lon="12.1302667"><ele>237.5</ele><time>2026-04-15T08:06:24.086Z</time></trkpt><trkpt lat="42.0578933" lon="12.130415"><ele>237.0</ele><time>2026-04-15T08:06:26.08Z</time></trkpt><trkpt lat="42.0578933" lon="12.1305767"><ele>237.0</ele><time>2026-04-15T08:06:28.081Z</time></trkpt><trkpt lat="42.0578933" lon="12.1307233"><ele>237.0</ele><time>2026-04-15T08:06:30.083Z</time></trkpt><trkpt lat="42.05792" lon="12.1308583"><ele>237.0</ele><time>2026-04-15T08:06:32.083Z</time></trkpt><trkpt lat="42.0579667" lon="12.130985"><ele>237.0</ele><time>2026-04-15T08:06:34.081Z</time></trkpt><trkpt lat="42.058" lon="12.131085"><ele>237.0</ele><time>2026-04-15T08:06:36.082Z</time></trkpt><trkpt lat="42.05805" lon="12.1311833"><ele>237.0</ele><time>2026-04-15T08:06:38.085Z</time></trkpt><trkpt lat="42.0581133" lon="12.1312933"><ele>237.0</ele><time>2026-04-15T08:06:40.085Z</time></trkpt><trkpt lat="42.0581633" lon="12.1313967"><ele>237.0</ele><time>2026-04-15T08:06:42.082Z</time></trkpt><trkpt lat="42.0582167" lon="12.1314883"><ele>237.0</ele><time>2026-04-15T08:06:44.08Z</time></trkpt><trkpt lat="42.05826" lon="12.1315667"><ele>237.0</ele><time>2026-04-15T08:06:46.08Z</time></trkpt><trkpt lat="42.0583067" lon="12.1316417"><ele>237.0</ele><time>2026-04-15T08:06:48.078Z</time></trkpt><trkpt lat="42.05835" lon="12.13172"><ele>237.4285714285714</ele><time>2026-04-15T08:06:50.089Z</time></trkpt><trkpt lat="42.0583833" lon="12.1318017"><ele>237.85714285714283</ele><time>2026-04-15T08:06:52.084Z</time></trkpt><trkpt lat="42.0584333" lon="12.1318833"><ele>238.28571428571428</ele><time>2026-04-15T08:06:54.085Z</time></trkpt><trkpt lat="42.0584817" lon="12.1319617"><ele>238.7142857142857</ele><time>2026-04-15T08:06:56.081Z</time></trkpt><trkpt lat="42.058525" lon="12.1320317"><ele>239.1428571428571</ele><time>2026-04-15T08:06:58.08Z</time></trkpt><trkpt lat="42.0585717" lon="12.1321133"><ele>239.57142857142858</ele><time>2026-04-15T08:07:00.083Z</time></trkpt><trkpt lat="42.0586067" lon="12.1321917"><ele>240.0</ele><time>2026-04-15T08:07:02.082Z</time></trkpt><trkpt lat="42.05865" lon="12.13228"><ele>240.0</ele><time>2026-04-15T08:07:04.082Z</time></trkpt><trkpt lat="42.0587017" lon="12.1323583"><ele>240.0</ele><time>2026-04-15T08:07:06.078Z</time></trkpt><trkpt lat="42.05874" lon="12.1324417"><ele>240.0</ele><time>2026-04-15T08:07:08.084Z</time></trkpt><trkpt lat="42.0587867" lon="12.132525"><ele>240.0</ele><time>2026-04-15T08:07:10.084Z</time></trkpt><trkpt lat="42.05884" lon="12.1326067"><ele>240.0</ele><time>2026-04-15T08:07:12.082Z</time></trkpt><trkpt lat="42.0588867" lon="12.1327083"><ele>240.0</ele><time>2026-04-15T08:07:14.08Z</time></trkpt><trkpt lat="42.0589333" lon="12.1328017"><ele>240.0</ele><time>2026-04-15T08:07:16.08Z</time></trkpt><trkpt lat="42.058985" lon="12.1328933"><ele>240.0</ele><time>2026-04-15T08:07:18.082Z</time></trkpt><trkpt lat="42.05904" lon="12.13299"><ele>240.0</ele><time>2026-04-15T08:07:20.079Z</time></trkpt><trkpt lat="42.0590917" lon="12.1330817"><ele>240.0</ele><time>2026-04-15T08:07:22.079Z</time></trkpt><trkpt lat="42.0591467" lon="12.1331683"><ele>240.0</ele><time>2026-04-15T08:07:24.081Z</time></trkpt><trkpt lat="42.0591967" lon="12.1332583"><ele>240.0</ele><time>2026-04-15T08:07:26.088Z</time></trkpt><trkpt lat="42.0592433" lon="12.1333567"><ele>240.0</ele><time>2026-04-15T08:07:28.078Z</time></trkpt><trkpt lat="42.0592983" lon="12.1334533"><ele>240.0</ele><time>2026-04-15T08:07:30.084Z</time></trkpt><trkpt lat="42.059355" lon="12.1335383"><ele>240.0</ele><time>2026-04-15T08:07:32.081Z</time></trkpt><trkpt lat="42.05941" lon="12.13362"><ele>240.0</ele><time>2026-04-15T08:07:34.082Z</time></trkpt><trkpt lat="42.059475" lon="12.1336967"><ele>240.0</ele><time>2026-04-15T08:07:36.085Z</time></trkpt><trkpt lat="42.0595367" lon="12.1337733"><ele>240.0</ele><time>2026-04-15T08:07:38.081Z</time></trkpt><trkpt lat="42.0596067" lon="12.1338467"><ele>240.0</ele><time>2026-04-15T08:07:40.086Z</time></trkpt><trkpt lat="42.05968" lon="12.1339167"><ele>240.0</ele><time>2026-04-15T08:07:42.085Z</time></trkpt><trkpt lat="42.0597533" lon="12.1339833"><ele>240.0</ele><time>2026-04-15T08:07:44.084Z</time></trkpt><trkpt lat="42.0598233" lon="12.13404"><ele>240.0</ele><time>2026-04-15T08:07:46.083Z</time></trkpt><trkpt lat="42.0598983" lon="12.1340867"><ele>240.0</ele><time>2026-04-15T08:07:48.082Z</time></trkpt><trkpt lat="42.0599717" lon="12.134135"><ele>240.0</ele><time>2026-04-15T08:07:50.08Z</time></trkpt><trkpt lat="42.0600467" lon="12.134175"><ele>240.0</ele><time>2026-04-15T08:07:52.082Z</time></trkpt><trkpt lat="42.0601233" lon="12.1342133"><ele>240.0</ele><time>2026-04-15T08:07:54.084Z</time></trkpt><trkpt lat="42.0601967" lon="12.1342567"><ele>240.0</ele><time>2026-04-15T08:07:56.08Z</time></trkpt><trkpt lat="42.0602717" lon="12.1343033"><ele>240.0</ele><time>2026-04-15T08:07:58.082Z</time></trkpt><trkpt lat="42.060345" lon="12.1343533"><ele>240.0</ele><time>2026-04-15T08:08:00.082Z</time></trkpt><trkpt lat="42.06042" lon="12.134405"><ele>240.0</ele><time>2026-04-15T08:08:02.083Z</time></trkpt><trkpt lat="42.0604933" lon="12.1344567"><ele>240.0</ele><time>2026-04-15T08:08:04.082Z</time></trkpt><trkpt lat="42.0605667" lon="12.1345033"><ele>240.0</ele><time>2026-04-15T08:08:06.082Z</time></trkpt><trkpt lat="42.06064" lon="12.1345517"><ele>240.0</ele><time>2026-04-15T08:08:08.084Z</time></trkpt><trkpt lat="42.06071" lon="12.1345967"><ele>240.0</ele><time>2026-04-15T08:08:10.084Z</time></trkpt><trkpt lat="42.0607817" lon="12.1346467"><ele>240.0</ele><time>2026-04-15T08:08:12.081Z</time></trkpt><trkpt lat="42.0608483" lon="12.1346967"><ele>240.0</ele><time>2026-04-15T08:08:14.081Z</time></trkpt><trkpt lat="42.060915" lon="12.134745"><ele>240.14285714285717</ele><time>2026-04-15T08:08:16.083Z</time></trkpt><trkpt lat="42.0609783" lon="12.1347917"><ele>240.28571428571428</ele><time>2026-04-15T08:08:18.08Z</time></trkpt><trkpt lat="42.06105" lon="12.134835"><ele>240.42857142857144</ele><time>2026-04-15T08:08:20.083Z</time></trkpt><trkpt lat="42.061115" lon="12.1348767"><ele>240.57142857142858</ele><time>2026-04-15T08:08:22.082Z</time></trkpt><trkpt lat="42.0611767" lon="12.1349117"><ele>240.71428571428572</ele><time>2026-04-15T08:08:24.083Z</time></trkpt><trkpt lat="42.0612383" lon="12.1349533"><ele>240.85714285714286</ele><time>2026-04-15T08:08:26.082Z</time></trkpt><trkpt lat="42.061305" lon="12.1349917"><ele>241.0</ele><time>2026-04-15T08:08:28.083Z</time></trkpt><trkpt lat="42.0613817" lon="12.1349983"><ele>241.49999999999997</ele><time>2026-04-15T08:08:30.084Z</time></trkpt><trkpt lat="42.06146" lon="12.1349833"><ele>242.0</ele><time>2026-04-15T08:08:32.081Z</time></trkpt><trkpt lat="42.0615333" lon="12.1349783"><ele>242.5</ele><time>2026-04-15T08:08:34.084Z</time></trkpt><trkpt lat="42.061605" lon="12.134975"><ele>243.0</ele><time>2026-04-15T08:08:36.084Z</time></trkpt><trkpt lat="42.0616733" lon="12.1349833"><ele>243.49999999999997</ele><time>2026-04-15T08:08:38.082Z</time></trkpt><trkpt lat="42.0617383" lon="12.1349783"><ele>244.0</ele><time>2026-04-15T08:08:40.082Z</time></trkpt><trkpt lat="42.06183" lon="12.1349533"><ele>243.99999999999997</ele><time>2026-04-15T08:08:43.082Z</time></trkpt><trkpt lat="42.0618917" lon="12.1349283"><ele>244.0</ele><time>2026-04-15T08:08:45.084Z</time></trkpt><trkpt lat="42.0619467" lon="12.134885"><ele>243.99999999999997</ele><time>2026-04-15T08:08:47.081Z</time></trkpt><trkpt lat="42.0620017" lon="12.13484"><ele>243.99999999999997</ele><time>2026-04-15T08:08:49.082Z</time></trkpt><trkpt lat="42.0620567" lon="12.1347983"><ele>244.0</ele><time>2026-04-15T08:08:51.082Z</time></trkpt><trkpt lat="42.062115" lon="12.1347583"><ele>243.99999999999997</ele><time>2026-04-15T08:08:53.081Z</time></trkpt><trkpt lat="42.0621983" lon="12.1347"><ele>243.99999999999997</ele><time>2026-04-15T08:08:56.081Z</time></trkpt><trkpt lat="42.0622533" lon="12.1346567"><ele>243.99999999999997</ele><time>2026-04-15T08:08:58.081Z</time></trkpt><trkpt lat="42.062305" lon="12.1346083"><ele>244.0</ele><time>2026-04-15T08:09:00.082Z</time></trkpt><trkpt lat="42.0623583" lon="12.1345567"><ele>243.99999999999997</ele><time>2026-04-15T08:09:02.082Z</time></trkpt><trkpt lat="42.062415" lon="12.1345117"><ele>243.99999999999997</ele><time>2026-04-15T08:09:04.085Z</time></trkpt><trkpt lat="42.0624733" lon="12.13447"><ele>244.0</ele><time>2026-04-15T08:09:06.081Z</time></trkpt><trkpt lat="42.0625267" lon="12.1344167"><ele>243.99999999999997</ele><time>2026-04-15T08:09:08.082Z</time></trkpt><trkpt lat="42.06258" lon="12.1343667"><ele>243.99999999999997</ele><time>2026-04-15T08:09:10.08Z</time></trkpt><trkpt lat="42.0626317" lon="12.1343117"><ele>243.99999999999997</ele><time>2026-04-15T08:09:12.085Z</time></trkpt><trkpt lat="42.0626867" lon="12.13427"><ele>244.0</ele><time>2026-04-15T08:09:14.081Z</time></trkpt><trkpt lat="42.0627633" lon="12.13421"><ele>243.99999999999997</ele><time>2026-04-15T08:09:17.084Z</time></trkpt><trkpt lat="42.0628167" lon="12.1341567"><ele>243.99999999999997</ele><time>2026-04-15T08:09:19.088Z</time></trkpt><trkpt lat="42.0628767" lon="12.1341117"><ele>244.0</ele><time>2026-04-15T08:09:21.083Z</time></trkpt><trkpt lat="42.0629367" lon="12.1340683"><ele>243.99999999999997</ele><time>2026-04-15T08:09:23.081Z</time></trkpt><trkpt lat="42.0629917" lon="12.1340183"><ele>243.99999999999997</ele><time>2026-04-15T08:09:25.08Z</time></trkpt><trkpt lat="42.06307" lon="12.1339583"><ele>243.99999999999997</ele><time>2026-04-15T08:09:28.083Z</time></trkpt><trkpt lat="42.063125" lon="12.133915"><ele>244.0</ele><time>2026-04-15T08:09:30.08Z</time></trkpt><trkpt lat="42.06318" lon="12.1338717"><ele>243.99999999999997</ele><time>2026-04-15T08:09:32.081Z</time></trkpt><trkpt lat="42.0632333" lon="12.133825"><ele>243.99999999999997</ele><time>2026-04-15T08:09:34.082Z</time></trkpt><trkpt lat="42.06329" lon="12.1337867"><ele>244.0</ele><time>2026-04-15T08:09:36.084Z</time></trkpt><trkpt lat="42.0633433" lon="12.13374"><ele>243.99999999999997</ele><time>2026-04-15T08:09:38.081Z</time></trkpt><trkpt lat="42.063425" lon="12.1336817"><ele>243.99999999999997</ele><time>2026-04-15T08:09:41.083Z</time></trkpt><trkpt lat="42.06348" lon="12.1336283"><ele>245.16666666666666</ele><time>2026-04-15T08:09:43.085Z</time></trkpt><trkpt lat="42.063535" lon="12.1335767"><ele>246.33333333333331</ele><time>2026-04-15T08:09:45.089Z</time></trkpt><trkpt lat="42.0636117" lon="12.1335067"><ele>247.5</ele><time>2026-04-15T08:09:48.086Z</time></trkpt><trkpt lat="42.0636883" lon="12.1334467"><ele>248.66666666666669</ele><time>2026-04-15T08:09:51.085Z</time></trkpt><trkpt lat="42.06376" lon="12.1333783"><ele>249.83333333333334</ele><time>2026-04-15T08:09:54.082Z</time></trkpt><trkpt lat="42.0638317" lon="12.1333017"><ele>251.0</ele><time>2026-04-15T08:09:57.082Z</time></trkpt><trkpt lat="42.0639017" lon="12.1332233"><ele>250.66666666666669</ele><time>2026-04-15T08:10:00.079Z</time></trkpt><trkpt lat="42.063975" lon="12.1331433"><ele>250.33333333333334</ele><time>2026-04-15T08:10:03.082Z</time></trkpt><trkpt lat="42.0640283" lon="12.133075"><ele>250.0</ele><time>2026-04-15T08:10:05.081Z</time></trkpt><trkpt lat="42.0640917" lon="12.1330083"><ele>249.66666666666669</ele><time>2026-04-15T08:10:07.084Z</time></trkpt><trkpt lat="42.0641567" lon="12.1329483"><ele>249.33333333333334</ele><time>2026-04-15T08:10:09.083Z</time></trkpt><trkpt lat="42.0642217" lon="12.1328883"><ele>249.0</ele><time>2026-04-15T08:10:11.084Z</time></trkpt><trkpt lat="42.06429" lon="12.1328167"><ele>249.66666666666666</ele><time>2026-04-15T08:10:13.082Z</time></trkpt><trkpt lat="42.06436" lon="12.132735"><ele>250.33333333333331</ele><time>2026-04-15T08:10:15.084Z</time></trkpt><trkpt lat="42.06441" lon="12.1326633"><ele>251.0</ele><time>2026-04-15T08:10:17.081Z</time></trkpt><trkpt lat="42.06446" lon="12.1325933"><ele>251.66666666666666</ele><time>2026-04-15T08:10:19.084Z</time></trkpt><trkpt lat="42.064525" lon="12.1325367"><ele>252.33333333333331</ele><time>2026-04-15T08:10:21.083Z</time></trkpt><trkpt lat="42.0645967" lon="12.1324767"><ele>253.0</ele><time>2026-04-15T08:10:23.083Z</time></trkpt><trkpt lat="42.06466" lon="12.13242"><ele>253.16666666666666</ele><time>2026-04-15T08:10:25.079Z</time></trkpt><trkpt lat="42.06473" lon="12.1323583"><ele>253.33333333333331</ele><time>2026-04-15T08:10:27.085Z</time></trkpt><trkpt lat="42.064795" lon="12.1323033"><ele>253.5</ele><time>2026-04-15T08:10:29.086Z</time></trkpt><trkpt lat="42.0648617" lon="12.1322317"><ele>253.66666666666669</ele><time>2026-04-15T08:10:31.084Z</time></trkpt><trkpt lat="42.0649317" lon="12.132175"><ele>253.83333333333334</ele><time>2026-04-15T08:10:33.082Z</time></trkpt><trkpt lat="42.0650083" lon="12.1321233"><ele>254.0</ele><time>2026-04-15T08:10:35.082Z</time></trkpt><trkpt lat="42.0650817" lon="12.132075"><ele>254.00000000000003</ele><time>2026-04-15T08:10:37.081Z</time></trkpt><trkpt lat="42.0651533" lon="12.1320333"><ele>254.0</ele><time>2026-04-15T08:10:39.081Z</time></trkpt><trkpt lat="42.0652267" lon="12.1319883"><ele>254.0</ele><time>2026-04-15T08:10:41.085Z</time></trkpt><trkpt lat="42.0653017" lon="12.1319333"><ele>254.0</ele><time>2026-04-15T08:10:43.083Z</time></trkpt><trkpt lat="42.0653767" lon="12.1318817"><ele>254.00000000000003</ele><time>2026-04-15T08:10:45.083Z</time></trkpt><trkpt lat="42.0654533" lon="12.1318267"><ele>254.0</ele><time>2026-04-15T08:10:47.086Z</time></trkpt><trkpt lat="42.0655333" lon="12.1317683"><ele>254.00000000000003</ele><time>2026-04-15T08:10:49.084Z</time></trkpt><trkpt lat="42.065615" lon="12.1317267"><ele>254.0</ele><time>2026-04-15T08:10:51.081Z</time></trkpt><trkpt lat="42.0656933" lon="12.1316883"><ele>254.0</ele><time>2026-04-15T08:10:53.083Z</time></trkpt><trkpt lat="42.0657733" lon="12.1316483"><ele>254.0</ele><time>2026-04-15T08:10:55.083Z</time></trkpt><trkpt lat="42.06585" lon="12.1316067"><ele>254.00000000000003</ele><time>2026-04-15T08:10:57.086Z</time></trkpt><trkpt lat="42.0659283" lon="12.1315533"><ele>254.0</ele><time>2026-04-15T08:10:59.082Z</time></trkpt><trkpt lat="42.066005" lon="12.1315067"><ele>253.33333333333334</ele><time>2026-04-15T08:11:01.083Z</time></trkpt><trkpt lat="42.0660767" lon="12.13147"><ele>252.66666666666669</ele><time>2026-04-15T08:11:03.084Z</time></trkpt><trkpt lat="42.0661483" lon="12.1314217"><ele>252.0</ele><time>2026-04-15T08:11:05.084Z</time></trkpt><trkpt lat="42.0662267" lon="12.13137"><ele>251.33333333333331</ele><time>2026-04-15T08:11:07.082Z</time></trkpt><trkpt lat="42.0663033" lon="12.1313317"><ele>250.66666666666666</ele><time>2026-04-15T08:11:09.087Z</time></trkpt><trkpt lat="42.06638" lon="12.1312883"><ele>250.0</ele><time>2026-04-15T08:11:11.085Z</time></trkpt><trkpt lat="42.0664583" lon="12.13125"><ele>249.99999999999997</ele><time>2026-04-15T08:11:13.088Z</time></trkpt><trkpt lat="42.0665383" lon="12.1312183"><ele>250.0</ele><time>2026-04-15T08:11:15.087Z</time></trkpt><trkpt lat="42.0666167" lon="12.13119"><ele>250.0</ele><time>2026-04-15T08:11:17.081Z</time></trkpt><trkpt lat="42.0666917" lon="12.13116"><ele>250.0</ele><time>2026-04-15T08:11:19.085Z</time></trkpt><trkpt lat="42.06677" lon="12.13113"><ele>249.99999999999997</ele><time>2026-04-15T08:11:21.082Z</time></trkpt><trkpt lat="42.0668483" lon="12.131095"><ele>250.0</ele><time>2026-04-15T08:11:23.083Z</time></trkpt><trkpt lat="42.0669267" lon="12.13107"><ele>250.66666666666666</ele><time>2026-04-15T08:11:25.079Z</time></trkpt><trkpt lat="42.0670033" lon="12.1310433"><ele>251.33333333333331</ele><time>2026-04-15T08:11:27.084Z</time></trkpt><trkpt lat="42.0670833" lon="12.13102"><ele>252.0</ele><time>2026-04-15T08:11:29.084Z</time></trkpt><trkpt lat="42.067155" lon="12.130995"><ele>252.66666666666669</ele><time>2026-04-15T08:11:31.082Z</time></trkpt><trkpt lat="42.067235" lon="12.130975"><ele>253.33333333333334</ele><time>2026-04-15T08:11:33.081Z</time></trkpt><trkpt lat="42.067315" lon="12.13095"><ele>254.0</ele><time>2026-04-15T08:11:35.086Z</time></trkpt><trkpt lat="42.06739" lon="12.130915"><ele>254.00000000000003</ele><time>2026-04-15T08:11:37.082Z</time></trkpt><trkpt lat="42.0674667" lon="12.1308717"><ele>254.0</ele><time>2026-04-15T08:11:39.082Z</time></trkpt><trkpt lat="42.0675467" lon="12.1308333"><ele>254.0</ele><time>2026-04-15T08:11:41.082Z</time></trkpt><trkpt lat="42.0676267" lon="12.1307967"><ele>254.0</ele><time>2026-04-15T08:11:43.084Z</time></trkpt><trkpt lat="42.067705" lon="12.1307667"><ele>254.00000000000003</ele><time>2026-04-15T08:11:45.085Z</time></trkpt><trkpt lat="42.0677717" lon="12.1307433"><ele>254.0</ele><time>2026-04-15T08:11:47.081Z</time></trkpt><trkpt lat="42.06784" lon="12.1307183"><ele>254.0</ele><time>2026-04-15T08:11:49.079Z</time></trkpt><trkpt lat="42.06791" lon="12.1306917"><ele>254.0</ele><time>2026-04-15T08:11:51.086Z</time></trkpt><trkpt lat="42.0679817" lon="12.1306667"><ele>254.0</ele><time>2026-04-15T08:11:53.084Z</time></trkpt><trkpt lat="42.068055" lon="12.1306583"><ele>254.0</ele><time>2026-04-15T08:11:55.083Z</time></trkpt><trkpt lat="42.0681317" lon="12.1306633"><ele>254.0</ele><time>2026-04-15T08:11:57.083Z</time></trkpt><trkpt lat="42.0682033" lon="12.1306783"><ele>254.0</ele><time>2026-04-15T08:11:59.083Z</time></trkpt><trkpt lat="42.068275" lon="12.1307033"><ele>254.0</ele><time>2026-04-15T08:12:01.084Z</time></trkpt><trkpt lat="42.0683433" lon="12.1307417"><ele>254.50000000000003</ele><time>2026-04-15T08:12:03.083Z</time></trkpt><trkpt lat="42.0684133" lon="12.130785"><ele>255.0</ele><time>2026-04-15T08:12:05.092Z</time></trkpt><trkpt lat="42.068485" lon="12.1308267"><ele>255.5</ele><time>2026-04-15T08:12:07.087Z</time></trkpt><trkpt lat="42.0685617" lon="12.13087"><ele>256.0</ele><time>2026-04-15T08:12:09.088Z</time></trkpt><trkpt lat="42.0686333" lon="12.1309167"><ele>256.5</ele><time>2026-04-15T08:12:11.083Z</time></trkpt><trkpt lat="42.0687017" lon="12.1309717"><ele>257.0</ele><time>2026-04-15T08:12:13.083Z</time></trkpt><trkpt lat="42.06877" lon="12.1310183"><ele>257.0</ele><time>2026-04-15T08:12:15.085Z</time></trkpt><trkpt lat="42.0688333" lon="12.1310733"><ele>257.0</ele><time>2026-04-15T08:12:17.083Z</time></trkpt><trkpt lat="42.068895" lon="12.13114"><ele>257.0</ele><time>2026-04-15T08:12:19.081Z</time></trkpt><trkpt lat="42.0689583" lon="12.1311967"><ele>257.0</ele><time>2026-04-15T08:12:21.087Z</time></trkpt><trkpt lat="42.0690183" lon="12.1312483"><ele>257.0</ele><time>2026-04-15T08:12:23.082Z</time></trkpt><trkpt lat="42.0690833" lon="12.131305"><ele>257.0</ele><time>2026-04-15T08:12:25.087Z</time></trkpt><trkpt lat="42.0691483" lon="12.1313583"><ele>257.1428571428571</ele><time>2026-04-15T08:12:27.082Z</time></trkpt><trkpt lat="42.0692117" lon="12.1314033"><ele>257.2857142857143</ele><time>2026-04-15T08:12:29.082Z</time></trkpt><trkpt lat="42.069275" lon="12.1314533"><ele>257.42857142857144</ele><time>2026-04-15T08:12:31.086Z</time></trkpt><trkpt lat="42.06934" lon="12.1314983"><ele>257.57142857142856</ele><time>2026-04-15T08:12:33.081Z</time></trkpt><trkpt lat="42.0694017" lon="12.1315517"><ele>257.7142857142857</ele><time>2026-04-15T08:12:35.081Z</time></trkpt><trkpt lat="42.0694567" lon="12.1316117"><ele>257.85714285714283</ele><time>2026-04-15T08:12:37.082Z</time></trkpt><trkpt lat="42.069515" lon="12.131665"><ele>258.0</ele><time>2026-04-15T08:12:39.085Z</time></trkpt><trkpt lat="42.0695783" lon="12.1317067"><ele>258.1428571428571</ele><time>2026-04-15T08:12:41.082Z</time></trkpt><trkpt lat="42.0696383" lon="12.1317567"><ele>258.2857142857143</ele><time>2026-04-15T08:12:43.082Z</time></trkpt><trkpt lat="42.0696983" lon="12.1318033"><ele>258.42857142857144</ele><time>2026-04-15T08:12:45.085Z</time></trkpt><trkpt lat="42.0697517" lon="12.1318483"><ele>258.57142857142856</ele><time>2026-04-15T08:12:47.085Z</time></trkpt><trkpt lat="42.0698133" lon="12.1318967"><ele>258.7142857142857</ele><time>2026-04-15T08:12:49.083Z</time></trkpt><trkpt lat="42.0698767" lon="12.1319433"><ele>258.85714285714283</ele><time>2026-04-15T08:12:51.083Z</time></trkpt><trkpt lat="42.069935" lon="12.13199"><ele>259.0</ele><time>2026-04-15T08:12:53.083Z</time></trkpt><trkpt lat="42.0700133" lon="12.1320533"><ele>259.66666666666663</ele><time>2026-04-15T08:12:56.081Z</time></trkpt><trkpt lat="42.0700867" lon="12.13211"><ele>260.3333333333333</ele><time>2026-04-15T08:12:59.08Z</time></trkpt><trkpt lat="42.07016" lon="12.132165"><ele>261.0</ele><time>2026-04-15T08:13:02.089Z</time></trkpt><trkpt lat="42.070235" lon="12.132225"><ele>261.6666666666667</ele><time>2026-04-15T08:13:05.083Z</time></trkpt><trkpt lat="42.070315" lon="12.1322717"><ele>262.33333333333337</ele><time>2026-04-15T08:13:08.081Z</time></trkpt><trkpt lat="42.0703917" lon="12.1323217"><ele>263.0</ele><time>2026-04-15T08:13:11.083Z</time></trkpt><trkpt lat="42.070465" lon="12.1323683"><ele>263.1666666666667</ele><time>2026-04-15T08:13:14.083Z</time></trkpt><trkpt lat="42.0705333" lon="12.13243"><ele>263.33333333333337</ele><time>2026-04-15T08:13:17.082Z</time></trkpt><trkpt lat="42.0706067" lon="12.13249"><ele>263.5</ele><time>2026-04-15T08:13:20.091Z</time></trkpt><trkpt lat="42.07068" lon="12.1325483"><ele>263.6666666666667</ele><time>2026-04-15T08:13:23.082Z</time></trkpt><trkpt lat="42.070755" lon="12.1325983"><ele>263.8333333333333</ele><time>2026-04-15T08:13:26.083Z</time></trkpt><trkpt lat="42.070835" lon="12.1326467"><ele>264.0</ele><time>2026-04-15T08:13:29.081Z</time></trkpt><trkpt lat="42.0709217" lon="12.132695"><ele>264.42857142857144</ele><time>2026-04-15T08:13:32.083Z</time></trkpt><trkpt lat="42.0709833" lon="12.1327267"><ele>264.8571428571429</ele><time>2026-04-15T08:13:34.082Z</time></trkpt><trkpt lat="42.0710533" lon="12.1327783"><ele>265.28571428571433</ele><time>2026-04-15T08:13:37.083Z</time></trkpt><trkpt lat="42.0711267" lon="12.13282"><ele>265.7142857142857</ele><time>2026-04-15T08:13:40.082Z</time></trkpt><trkpt lat="42.0711867" lon="12.1328467"><ele>266.14285714285717</ele><time>2026-04-15T08:13:42.079Z</time></trkpt><trkpt lat="42.0712717" lon="12.132885"><ele>266.5714285714286</ele><time>2026-04-15T08:13:45.082Z</time></trkpt><trkpt lat="42.07134" lon="12.1329083"><ele>267.0</ele><time>2026-04-15T08:13:47.08Z</time></trkpt><trkpt lat="42.07142" lon="12.1329367"><ele>267.0</ele><time>2026-04-15T08:13:50.081Z</time></trkpt><trkpt lat="42.0715083" lon="12.1329683"><ele>267.0</ele><time>2026-04-15T08:13:53.081Z</time></trkpt><trkpt lat="42.0715833" lon="12.133005"><ele>267.0</ele><time>2026-04-15T08:13:56.086Z</time></trkpt><trkpt lat="42.07165" lon="12.1330333"><ele>267.0</ele><time>2026-04-15T08:13:59.083Z</time></trkpt><trkpt lat="42.0717217" lon="12.13306"><ele>267.0</ele><time>2026-04-15T08:14:02.082Z</time></trkpt><trkpt lat="42.0717983" lon="12.13309"><ele>267.0</ele><time>2026-04-15T08:14:05.084Z</time></trkpt><trkpt lat="42.0718617" lon="12.1331"><ele>267.3333333333333</ele><time>2026-04-15T08:14:07.083Z</time></trkpt><trkpt lat="42.071925" lon="12.1331167"><ele>267.6666666666667</ele><time>2026-04-15T08:14:09.091Z</time></trkpt><trkpt lat="42.0720117" lon="12.1331417"><ele>268.0</ele><time>2026-04-15T08:14:12.082Z</time></trkpt><trkpt lat="42.0720983" lon="12.133175"><ele>268.33333333333337</ele><time>2026-04-15T08:14:15.083Z</time></trkpt><trkpt lat="42.072185" lon="12.1332067"><ele>268.6666666666667</ele><time>2026-04-15T08:14:18.081Z</time></trkpt><trkpt lat="42.0722633" lon="12.13324"><ele>269.0</ele><time>2026-04-15T08:14:21.083Z</time></trkpt><trkpt lat="42.0723417" lon="12.13327"><ele>269.1666666666667</ele><time>2026-04-15T08:14:24.082Z</time></trkpt><trkpt lat="42.0724317" lon="12.133295"><ele>269.33333333333337</ele><time>2026-04-15T08:14:27.085Z</time></trkpt><trkpt lat="42.072495" lon="12.1333167"><ele>269.5</ele><time>2026-04-15T08:14:29.084Z</time></trkpt><trkpt lat="42.0725633" lon="12.133335"><ele>269.6666666666667</ele><time>2026-04-15T08:14:31.08Z</time></trkpt><trkpt lat="42.0726267" lon="12.1333683"><ele>269.8333333333333</ele><time>2026-04-15T08:14:33.085Z</time></trkpt><trkpt lat="42.07269" lon="12.1333983"><ele>270.0</ele><time>2026-04-15T08:14:35.085Z</time></trkpt><trkpt lat="42.07278" lon="12.13343"><ele>270.0</ele><time>2026-04-15T08:14:38.081Z</time></trkpt><trkpt lat="42.0728583" lon="12.1334667"><ele>270.0</ele><time>2026-04-15T08:14:41.08Z</time></trkpt><trkpt lat="42.07293" lon="12.1335083"><ele>270.0</ele><time>2026-04-15T08:14:44.084Z</time></trkpt><trkpt lat="42.0730083" lon="12.133545"><ele>270.0</ele><time>2026-04-15T08:14:47.081Z</time></trkpt><trkpt lat="42.07307" lon="12.1335817"><ele>270.0</ele><time>2026-04-15T08:14:49.079Z</time></trkpt><trkpt lat="42.0731317" lon="12.1336167"><ele>270.0</ele><time>2026-04-15T08:14:51.081Z</time></trkpt><trkpt lat="42.07322" lon="12.1336683"><ele>269.8333333333333</ele><time>2026-04-15T08:14:54.079Z</time></trkpt><trkpt lat="42.0732917" lon="12.1337233"><ele>269.6666666666667</ele><time>2026-04-15T08:14:57.083Z</time></trkpt><trkpt lat="42.0733633" lon="12.1337883"><ele>269.5</ele><time>2026-04-15T08:15:00.083Z</time></trkpt><trkpt lat="42.0734383" lon="12.1338517"><ele>269.33333333333337</ele><time>2026-04-15T08:15:03.083Z</time></trkpt><trkpt lat="42.0735167" lon="12.1339033"><ele>269.1666666666667</ele><time>2026-04-15T08:15:06.084Z</time></trkpt><trkpt lat="42.073595" lon="12.1339667"><ele>269.0</ele><time>2026-04-15T08:15:09.084Z</time></trkpt><trkpt lat="42.0736683" lon="12.1340383"><ele>269.1666666666667</ele><time>2026-04-15T08:15:12.081Z</time></trkpt><trkpt lat="42.073745" lon="12.134105"><ele>269.33333333333337</ele><time>2026-04-15T08:15:15.085Z</time></trkpt><trkpt lat="42.0738017" lon="12.134145"><ele>269.5</ele><time>2026-04-15T08:15:17.083Z</time></trkpt><trkpt lat="42.0738567" lon="12.1341867"><ele>269.6666666666667</ele><time>2026-04-15T08:15:19.086Z</time></trkpt><trkpt lat="42.0739117" lon="12.1342283"><ele>269.8333333333333</ele><time>2026-04-15T08:15:21.085Z</time></trkpt><trkpt lat="42.07399" lon="12.1342917"><ele>270.0</ele><time>2026-04-15T08:15:24.081Z</time></trkpt><trkpt lat="42.0740683" lon="12.1343533"><ele>270.3333333333333</ele><time>2026-04-15T08:15:27.08Z</time></trkpt><trkpt lat="42.0741433" lon="12.1344267"><ele>270.6666666666667</ele><time>2026-04-15T08:15:30.083Z</time></trkpt><trkpt lat="42.0742017" lon="12.134475"><ele>271.0</ele><time>2026-04-15T08:15:32.085Z</time></trkpt><trkpt lat="42.0742617" lon="12.1345133"><ele>271.33333333333337</ele><time>2026-04-15T08:15:34.081Z</time></trkpt><trkpt lat="42.07432" lon="12.1345533"><ele>271.6666666666667</ele><time>2026-04-15T08:15:36.082Z</time></trkpt><trkpt lat="42.0744033" lon="12.13462"><ele>272.0</ele><time>2026-04-15T08:15:39.087Z</time></trkpt><trkpt lat="42.0744567" lon="12.134665"><ele>271.99999999999994</ele><time>2026-04-15T08:15:41.083Z</time></trkpt><trkpt lat="42.0745117" lon="12.1347167"><ele>272.0</ele><time>2026-04-15T08:15:43.083Z</time></trkpt><trkpt lat="42.07457" lon="12.1347617"><ele>272.0</ele><time>2026-04-15T08:15:45.082Z</time></trkpt><trkpt lat="42.0746283" lon="12.1348067"><ele>272.0</ele><time>2026-04-15T08:15:47.08Z</time></trkpt><trkpt lat="42.0746867" lon="12.13485"><ele>272.0</ele><time>2026-04-15T08:15:49.083Z</time></trkpt><trkpt lat="42.07475" lon="12.1348833"><ele>271.99999999999994</ele><time>2026-04-15T08:15:51.083Z</time></trkpt><trkpt lat="42.07483" lon="12.1349367"><ele>272.0</ele><time>2026-04-15T08:15:54.087Z</time></trkpt><trkpt lat="42.0748867" lon="12.1349783"><ele>272.85714285714283</ele><time>2026-04-15T08:15:56.08Z</time></trkpt><trkpt lat="42.0749617" lon="12.1350283"><ele>273.7142857142857</ele><time>2026-04-15T08:15:59.085Z</time></trkpt><trkpt lat="42.0750183" lon="12.1350717"><ele>274.57142857142856</ele><time>2026-04-15T08:16:01.081Z</time></trkpt><trkpt lat="42.0750783" lon="12.1351183"><ele>275.42857142857144</ele><time>2026-04-15T08:16:03.084Z</time></trkpt><trkpt lat="42.07515" lon="12.135155"><ele>276.2857142857143</ele><time>2026-04-15T08:16:05.082Z</time></trkpt><trkpt lat="42.07521" lon="12.1351933"><ele>277.1428571428571</ele><time>2026-04-15T08:16:07.079Z</time></trkpt><trkpt lat="42.0752717" lon="12.1352317"><ele>278.0</ele><time>2026-04-15T08:16:09.08Z</time></trkpt><trkpt lat="42.0753283" lon="12.1352733"><ele>278.0</ele><time>2026-04-15T08:16:11.09Z</time></trkpt><trkpt lat="42.0753867" lon="12.1353117"><ele>278.0</ele><time>2026-04-15T08:16:13.084Z</time></trkpt><trkpt lat="42.075445" lon="12.1353567"><ele>278.0</ele><time>2026-04-15T08:16:15.081Z</time></trkpt><trkpt lat="42.0754933" lon="12.13542"><ele>278.0</ele><time>2026-04-15T08:16:17.081Z</time></trkpt><trkpt lat="42.0755567" lon="12.13551"><ele>278.0</ele><time>2026-04-15T08:16:20.083Z</time></trkpt><trkpt lat="42.0756117" lon="12.1355617"><ele>278.0</ele><time>2026-04-15T08:16:22.085Z</time></trkpt><trkpt lat="42.0756717" lon="12.13561"><ele>278.0</ele><time>2026-04-15T08:16:24.084Z</time></trkpt><trkpt lat="42.07573" lon="12.1356533"><ele>278.85714285714283</ele><time>2026-04-15T08:16:26.082Z</time></trkpt><trkpt lat="42.0757867" lon="12.1356917"><ele>279.7142857142857</ele><time>2026-04-15T08:16:28.085Z</time></trkpt><trkpt lat="42.075875" lon="12.1357417"><ele>280.57142857142856</ele><time>2026-04-15T08:16:31.078Z</time></trkpt><trkpt lat="42.075935" lon="12.1357733"><ele>281.42857142857144</ele><time>2026-04-15T08:16:33.083Z</time></trkpt><trkpt lat="42.075995" lon="12.135805"><ele>282.2857142857143</ele><time>2026-04-15T08:16:35.082Z</time></trkpt><trkpt lat="42.0760817" lon="12.1358567"><ele>283.1428571428571</ele><time>2026-04-15T08:16:38.081Z</time></trkpt><trkpt lat="42.0761383" lon="12.1358967"><ele>284.0</ele><time>2026-04-15T08:16:40.081Z</time></trkpt><trkpt lat="42.0761967" lon="12.1359317"><ele>284.0</ele><time>2026-04-15T08:16:42.083Z</time></trkpt><trkpt lat="42.0762517" lon="12.1359767"><ele>284.0</ele><time>2026-04-15T08:16:44.08Z</time></trkpt><trkpt lat="42.0763067" lon="12.136035"><ele>284.0</ele><time>2026-04-15T08:16:46.081Z</time></trkpt><trkpt lat="42.0763517" lon="12.136105"><ele>284.0</ele><time>2026-04-15T08:16:48.083Z</time></trkpt><trkpt lat="42.0763933" lon="12.1362"><ele>284.0</ele><time>2026-04-15T08:16:51.083Z</time></trkpt><trkpt lat="42.0764267" lon="12.13631"><ele>284.0</ele><time>2026-04-15T08:16:54.081Z</time></trkpt><trkpt lat="42.0764583" lon="12.1363917"><ele>284.0</ele><time>2026-04-15T08:16:56.083Z</time></trkpt><trkpt lat="42.07651" lon="12.13649"><ele>283.6666666666667</ele><time>2026-04-15T08:16:59.083Z</time></trkpt><trkpt lat="42.0765433" lon="12.1366017"><ele>283.33333333333337</ele><time>2026-04-15T08:17:02.082Z</time></trkpt><trkpt lat="42.0765633" lon="12.1366833"><ele>283.0</ele><time>2026-04-15T08:17:04.086Z</time></trkpt><trkpt lat="42.0765967" lon="12.1367967"><ele>282.6666666666667</ele><time>2026-04-15T08:17:07.083Z</time></trkpt><trkpt lat="42.0766433" lon="12.1369033"><ele>282.3333333333333</ele><time>2026-04-15T08:17:10.084Z</time></trkpt><trkpt lat="42.0766983" lon="12.1369867"><ele>282.0</ele><time>2026-04-15T08:17:13.082Z</time></trkpt><trkpt lat="42.0767567" lon="12.1370483"><ele>282.0</ele><time>2026-04-15T08:17:16.081Z</time></trkpt><trkpt lat="42.076825" lon="12.1371217"><ele>282.0</ele><time>2026-04-15T08:17:19.08Z</time></trkpt><trkpt lat="42.0768917" lon="12.1372033"><ele>282.0</ele><time>2026-04-15T08:17:22.082Z</time></trkpt><trkpt lat="42.0769367" lon="12.1372667"><ele>282.0</ele><time>2026-04-15T08:17:24.084Z</time></trkpt><trkpt lat="42.0769933" lon="12.1373583"><ele>282.0</ele><time>2026-04-15T08:17:27.083Z</time></trkpt><trkpt lat="42.0770567" lon="12.1374433"><ele>282.0</ele><time>2026-04-15T08:17:30.085Z</time></trkpt><trkpt lat="42.0771117" lon="12.1375033"><ele>281.8571428571429</ele><time>2026-04-15T08:17:32.082Z</time></trkpt><trkpt lat="42.07716" lon="12.1375633"><ele>281.7142857142857</ele><time>2026-04-15T08:17:34.081Z</time></trkpt><trkpt lat="42.077215" lon="12.1376133"><ele>281.57142857142856</ele><time>2026-04-15T08:17:36.079Z</time></trkpt><trkpt lat="42.0772783" lon="12.1376467"><ele>281.42857142857144</ele><time>2026-04-15T08:17:38.08Z</time></trkpt><trkpt lat="42.077335" lon="12.1376917"><ele>281.2857142857143</ele><time>2026-04-15T08:17:40.083Z</time></trkpt><trkpt lat="42.07739" lon="12.1377417"><ele>281.14285714285717</ele><time>2026-04-15T08:17:42.079Z</time></trkpt><trkpt lat="42.07745" lon="12.1377867"><ele>281.0</ele><time>2026-04-15T08:17:44.08Z</time></trkpt><trkpt lat="42.07751" lon="12.1378267"><ele>281.00000000000006</ele><time>2026-04-15T08:17:46.081Z</time></trkpt><trkpt lat="42.077565" lon="12.1378683"><ele>281.0</ele><time>2026-04-15T08:17:48.082Z</time></trkpt><trkpt lat="42.0776233" lon="12.1379117"><ele>281.0</ele><time>2026-04-15T08:17:50.082Z</time></trkpt><trkpt lat="42.077685" lon="12.1379567"><ele>281.0</ele><time>2026-04-15T08:17:52.082Z</time></trkpt><trkpt lat="42.07774" lon="12.1379983"><ele>281.0</ele><time>2026-04-15T08:17:54.08Z</time></trkpt><trkpt lat="42.0777983" lon="12.1380483"><ele>281.00000000000006</ele><time>2026-04-15T08:17:56.078Z</time></trkpt><trkpt lat="42.0778633" lon="12.1381033"><ele>281.0</ele><time>2026-04-15T08:17:58.083Z</time></trkpt><trkpt lat="42.0779217" lon="12.1381617"><ele>281.00000000000006</ele><time>2026-04-15T08:18:00.08Z</time></trkpt><trkpt lat="42.07798" lon="12.1382017"><ele>281.0</ele><time>2026-04-15T08:18:02.08Z</time></trkpt><trkpt lat="42.078035" lon="12.13825"><ele>281.0</ele><time>2026-04-15T08:18:04.081Z</time></trkpt><trkpt lat="42.0780917" lon="12.138295"><ele>281.0</ele><time>2026-04-15T08:18:06.085Z</time></trkpt><trkpt lat="42.07815" lon="12.1383367"><ele>281.0</ele><time>2026-04-15T08:18:08.081Z</time></trkpt><trkpt lat="42.07821" lon="12.138385"><ele>281.00000000000006</ele><time>2026-04-15T08:18:10.083Z</time></trkpt><trkpt lat="42.078265" lon="12.13843"><ele>281.0</ele><time>2026-04-15T08:18:12.082Z</time></trkpt><trkpt lat="42.0783183" lon="12.1384783"><ele>281.33333333333337</ele><time>2026-04-15T08:18:14.083Z</time></trkpt><trkpt lat="42.0783783" lon="12.13852"><ele>281.6666666666667</ele><time>2026-04-15T08:18:16.081Z</time></trkpt><trkpt lat="42.07844" lon="12.13856"><ele>282.0</ele><time>2026-04-15T08:18:18.084Z</time></trkpt><trkpt lat="42.078515" lon="12.1386217"><ele>282.3333333333333</ele><time>2026-04-15T08:18:21.083Z</time></trkpt><trkpt lat="42.0785867" lon="12.13868"><ele>282.66666666666663</ele><time>2026-04-15T08:18:24.089Z</time></trkpt><trkpt lat="42.0786667" lon="12.1387367"><ele>283.0</ele><time>2026-04-15T08:18:27.086Z</time></trkpt><trkpt lat="42.078745" lon="12.1387933"><ele>283.0</ele><time>2026-04-15T08:18:30.081Z</time></trkpt><trkpt lat="42.078815" lon="12.1388567"><ele>283.0</ele><time>2026-04-15T08:18:33.083Z</time></trkpt><trkpt lat="42.07888" lon="12.13891"><ele>283.0</ele><time>2026-04-15T08:18:36.08Z</time></trkpt><trkpt lat="42.0789633" lon="12.1389667"><ele>283.0</ele><time>2026-04-15T08:18:39.084Z</time></trkpt><trkpt lat="42.0790383" lon="12.1390333"><ele>283.0</ele><time>2026-04-15T08:18:42.082Z</time></trkpt><trkpt lat="42.07911" lon="12.1390917"><ele>283.0</ele><time>2026-04-15T08:18:45.086Z</time></trkpt><trkpt lat="42.0791783" lon="12.1391417"><ele>283.5</ele><time>2026-04-15T08:18:48.08Z</time></trkpt><trkpt lat="42.07924" lon="12.13918"><ele>284.0</ele><time>2026-04-15T08:18:51.081Z</time></trkpt><trkpt lat="42.0793033" lon="12.1392317"><ele>284.5</ele><time>2026-04-15T08:18:53.081Z</time></trkpt><trkpt lat="42.0793767" lon="12.1393"><ele>285.0</ele><time>2026-04-15T08:18:55.082Z</time></trkpt><trkpt lat="42.0794517" lon="12.1393767"><ele>285.5</ele><time>2026-04-15T08:18:57.084Z</time></trkpt><trkpt lat="42.0795333" lon="12.1394583"><ele>286.0</ele><time>2026-04-15T08:18:59.084Z</time></trkpt><trkpt lat="42.07962" lon="12.13954"><ele>286.0</ele><time>2026-04-15T08:19:01.081Z</time></trkpt><trkpt lat="42.0797067" lon="12.1396067"><ele>286.0</ele><time>2026-04-15T08:19:03.083Z</time></trkpt><trkpt lat="42.079795" lon="12.139665"><ele>286.0</ele><time>2026-04-15T08:19:05.08Z</time></trkpt><trkpt lat="42.0798717" lon="12.139735"><ele>286.0</ele><time>2026-04-15T08:19:07.085Z</time></trkpt><trkpt lat="42.0799317" lon="12.1398017"><ele>286.0</ele><time>2026-04-15T08:19:09.079Z</time></trkpt><trkpt lat="42.080005" lon="12.139855"><ele>285.5</ele><time>2026-04-15T08:19:11.082Z</time></trkpt><trkpt lat="42.080085" lon="12.13989"><ele>285.0</ele><time>2026-04-15T08:19:13.081Z</time></trkpt><trkpt lat="42.0801567" lon="12.1399467"><ele>284.5</ele><time>2026-04-15T08:19:15.082Z</time></trkpt><trkpt lat="42.0802417" lon="12.1400067"><ele>284.0</ele><time>2026-04-15T08:19:17.088Z</time></trkpt><trkpt lat="42.0803217" lon="12.140065"><ele>283.5</ele><time>2026-04-15T08:19:19.08Z</time></trkpt><trkpt lat="42.0803983" lon="12.140125"><ele>283.0</ele><time>2026-04-15T08:19:21.085Z</time></trkpt><trkpt lat="42.080495" lon="12.140185"><ele>283.0</ele><time>2026-04-15T08:19:23.082Z</time></trkpt><trkpt lat="42.0806133" lon="12.14023"><ele>283.0</ele><time>2026-04-15T08:19:25.08Z</time></trkpt><trkpt lat="42.080735" lon="12.1402533"><ele>283.0</ele><time>2026-04-15T08:19:27.085Z</time></trkpt><trkpt lat="42.080845" lon="12.1402733"><ele>283.0</ele><time>2026-04-15T08:19:29.084Z</time></trkpt><trkpt lat="42.0809533" lon="12.1402883"><ele>283.2</ele><time>2026-04-15T08:19:31.087Z</time></trkpt><trkpt lat="42.0810567" lon="12.1402967"><ele>283.4</ele><time>2026-04-15T08:19:33.079Z</time></trkpt><trkpt lat="42.0811467" lon="12.1403117"><ele>283.59999999999997</ele><time>2026-04-15T08:19:35.08Z</time></trkpt><trkpt lat="42.081235" lon="12.1403167"><ele>283.8</ele><time>2026-04-15T08:19:37.08Z</time></trkpt><trkpt lat="42.0813233" lon="12.1403233"><ele>284.0</ele><time>2026-04-15T08:19:39.086Z</time></trkpt><trkpt lat="42.08142" lon="12.1403483"><ele>284.0</ele><time>2026-04-15T08:19:41.085Z</time></trkpt><trkpt lat="42.0815183" lon="12.1403783"><ele>284.0</ele><time>2026-04-15T08:19:43.078Z</time></trkpt><trkpt lat="42.0816167" lon="12.140405"><ele>284.0</ele><time>2026-04-15T08:19:45.08Z</time></trkpt><trkpt lat="42.0817083" lon="12.1404367"><ele>284.0</ele><time>2026-04-15T08:19:47.081Z</time></trkpt><trkpt lat="42.081805" lon="12.1404633"><ele>284.0</ele><time>2026-04-15T08:19:49.08Z</time></trkpt><trkpt lat="42.0818983" lon="12.1404867"><ele>283.4</ele><time>2026-04-15T08:19:51.083Z</time></trkpt><trkpt lat="42.081995" lon="12.1405083"><ele>282.79999999999995</ele><time>2026-04-15T08:19:53.079Z</time></trkpt><trkpt lat="42.0821033" lon="12.1405533"><ele>282.20000000000005</ele><time>2026-04-15T08:19:55.08Z</time></trkpt><trkpt lat="42.0821883" lon="12.1406417"><ele>281.6</ele><time>2026-04-15T08:19:57.081Z</time></trkpt><trkpt lat="42.0822617" lon="12.1407383"><ele>281.0</ele><time>2026-04-15T08:19:59.082Z</time></trkpt><trkpt lat="42.0823283" lon="12.140845"><ele>280.40000000000003</ele><time>2026-04-15T08:20:01.084Z</time></trkpt><trkpt lat="42.0823917" lon="12.140945"><ele>279.8</ele><time>2026-04-15T08:20:03.081Z</time></trkpt><trkpt lat="42.0824483" lon="12.1410617"><ele>279.20000000000005</ele><time>2026-04-15T08:20:05.081Z</time></trkpt><trkpt lat="42.082505" lon="12.14118"><ele>278.6</ele><time>2026-04-15T08:20:07.084Z</time></trkpt><trkpt lat="42.0825417" lon="12.1413117"><ele>278.0</ele><time>2026-04-15T08:20:09.085Z</time></trkpt><trkpt lat="42.0825667" lon="12.1414517"><ele>277.8</ele><time>2026-04-15T08:20:11.084Z</time></trkpt><trkpt lat="42.08259" lon="12.1415883"><ele>277.6</ele><time>2026-04-15T08:20:13.081Z</time></trkpt><trkpt lat="42.0826" lon="12.1417317"><ele>277.4</ele><time>2026-04-15T08:20:15.082Z</time></trkpt><trkpt lat="42.0826217" lon="12.141885"><ele>277.2</ele><time>2026-04-15T08:20:17.078Z</time></trkpt><trkpt lat="42.08268" lon="12.1420083"><ele>277.0</ele><time>2026-04-15T08:20:19.08Z</time></trkpt><trkpt lat="42.08275" lon="12.14212"><ele>277.0</ele><time>2026-04-15T08:20:21.081Z</time></trkpt><trkpt lat="42.0828083" lon="12.14222"><ele>277.0</ele><time>2026-04-15T08:20:23.08Z</time></trkpt><trkpt lat="42.0828583" lon="12.1423083"><ele>277.0</ele><time>2026-04-15T08:20:25.082Z</time></trkpt><trkpt lat="42.082915" lon="12.1424"><ele>277.0</ele><time>2026-04-15T08:20:27.084Z</time></trkpt><trkpt lat="42.0829617" lon="12.14248"><ele>277.0</ele><time>2026-04-15T08:20:29.082Z</time></trkpt><trkpt lat="42.0830067" lon="12.14254"><ele>277.0</ele><time>2026-04-15T08:20:31.083Z</time></trkpt><trkpt lat="42.083095" lon="12.1426233"><ele>276.5</ele><time>2026-04-15T08:20:34.084Z</time></trkpt><trkpt lat="42.0831767" lon="12.1427067"><ele>276.0</ele><time>2026-04-15T08:20:36.086Z</time></trkpt><trkpt lat="42.0832483" lon="12.1427933"><ele>275.5</ele><time>2026-04-15T08:20:38.082Z</time></trkpt><trkpt lat="42.0833117" lon="12.142865"><ele>275.0</ele><time>2026-04-15T08:20:40.081Z</time></trkpt><trkpt lat="42.0833717" lon="12.1429083"><ele>274.5</ele><time>2026-04-15T08:20:42.08Z</time></trkpt><trkpt lat="42.083445" lon="12.1429783"><ele>274.0</ele><time>2026-04-15T08:20:44.086Z</time></trkpt><trkpt lat="42.083525" lon="12.14304"><ele>274.8333333333333</ele><time>2026-04-15T08:20:46.079Z</time></trkpt><trkpt lat="42.0836233" lon="12.1431317"><ele>275.66666666666663</ele><time>2026-04-15T08:20:48.08Z</time></trkpt><trkpt lat="42.0836817" lon="12.1431817"><ele>276.5</ele><time>2026-04-15T08:20:49.081Z</time></trkpt><trkpt lat="42.0837417" lon="12.143225"><ele>277.3333333333333</ele><time>2026-04-15T08:20:50.079Z</time></trkpt><trkpt lat="42.0837967" lon="12.1432667"><ele>278.1666666666667</ele><time>2026-04-15T08:20:51.084Z</time></trkpt><trkpt lat="42.083905" lon="12.143325"><ele>279.0</ele><time>2026-04-15T08:20:53.081Z</time></trkpt><trkpt lat="42.0839633" lon="12.1433683"><ele>279.0</ele><time>2026-04-15T08:20:54.08Z</time></trkpt><trkpt lat="42.08402" lon="12.1434183"><ele>279.0</ele><time>2026-04-15T08:20:55.088Z</time></trkpt><trkpt lat="42.0840783" lon="12.1434783"><ele>279.0</ele><time>2026-04-15T08:20:56.082Z</time></trkpt><trkpt lat="42.0841383" lon="12.1435433"><ele>279.0</ele><time>2026-04-15T08:20:57.081Z</time></trkpt><trkpt lat="42.0842" lon="12.1436133"><ele>279.0</ele><time>2026-04-15T08:20:58.081Z</time></trkpt><trkpt lat="42.0842583" lon="12.143685"><ele>279.0</ele><time>2026-04-15T08:20:59.081Z</time></trkpt><trkpt lat="42.0843167" lon="12.1437583"><ele>277.6666666666667</ele><time>2026-04-15T08:21:00.083Z</time></trkpt><trkpt lat="42.08437" lon="12.1438267"><ele>276.3333333333333</ele><time>2026-04-15T08:21:01.083Z</time></trkpt><trkpt lat="42.0844233" lon="12.143895"><ele>275.0</ele><time>2026-04-15T08:21:02.079Z</time></trkpt><trkpt lat="42.0844717" lon="12.1439617"><ele>273.66666666666663</ele><time>2026-04-15T08:21:03.084Z</time></trkpt><trkpt lat="42.08452" lon="12.1440283"><ele>272.3333333333333</ele><time>2026-04-15T08:21:04.082Z</time></trkpt><trkpt lat="42.0846" lon="12.1441483"><ele>271.0</ele><time>2026-04-15T08:21:06.083Z</time></trkpt><trkpt lat="42.0846783" lon="12.14428"><ele>271.0</ele><time>2026-04-15T08:21:08.084Z</time></trkpt><trkpt lat="42.084755" lon="12.1443917"><ele>271.0</ele><time>2026-04-15T08:21:10.081Z</time></trkpt><trkpt lat="42.0848283" lon="12.1445133"><ele>271.0</ele><time>2026-04-15T08:21:12.083Z</time></trkpt><trkpt lat="42.0848933" lon="12.1446183"><ele>271.0</ele><time>2026-04-15T08:21:14.08Z</time></trkpt><trkpt lat="42.0849733" lon="12.1447317"><ele>271.0</ele><time>2026-04-15T08:21:16.082Z</time></trkpt><trkpt lat="42.0850417" lon="12.1448433"><ele>270.5</ele><time>2026-04-15T08:21:18.08Z</time></trkpt><trkpt lat="42.08511" lon="12.1449533"><ele>270.0</ele><time>2026-04-15T08:21:20.084Z</time></trkpt><trkpt lat="42.0851717" lon="12.1450483"><ele>269.5</ele><time>2026-04-15T08:21:22.083Z</time></trkpt><trkpt lat="42.085225" lon="12.1451433"><ele>269.0</ele><time>2026-04-15T08:21:24.081Z</time></trkpt><trkpt lat="42.0852633" lon="12.1452283"><ele>268.5</ele><time>2026-04-15T08:21:26.081Z</time></trkpt><trkpt lat="42.0852817" lon="12.145335"><ele>268.0</ele><time>2026-04-15T08:21:28.081Z</time></trkpt><trkpt lat="42.0852817" lon="12.145445"><ele>268.0</ele><time>2026-04-15T08:21:30.085Z</time></trkpt><trkpt lat="42.085275" lon="12.1455617"><ele>268.0</ele><time>2026-04-15T08:21:32.082Z</time></trkpt><trkpt lat="42.0852633" lon="12.1456733"><ele>268.0</ele><time>2026-04-15T08:21:34.08Z</time></trkpt><trkpt lat="42.0852583" lon="12.14579"><ele>268.0</ele><time>2026-04-15T08:21:36.08Z</time></trkpt><trkpt lat="42.0852717" lon="12.1459"><ele>268.0</ele><time>2026-04-15T08:21:38.082Z</time></trkpt><trkpt lat="42.085275" lon="12.1460067"><ele>268.0</ele><time>2026-04-15T08:21:40.08Z</time></trkpt><trkpt lat="42.08527" lon="12.1461017"><ele>268.0</ele><time>2026-04-15T08:21:42.08Z</time></trkpt><trkpt lat="42.085265" lon="12.1462017"><ele>268.0</ele><time>2026-04-15T08:21:44.081Z</time></trkpt><trkpt lat="42.08525" lon="12.1462883"><ele>268.0</ele><time>2026-04-15T08:21:46.079Z</time></trkpt><trkpt lat="42.085215" lon="12.1463633"><ele>268.0</ele><time>2026-04-15T08:21:48.08Z</time></trkpt><trkpt lat="42.085175" lon="12.146485"><ele>268.0</ele><time>2026-04-15T08:21:51.084Z</time></trkpt><trkpt lat="42.08515" lon="12.14657"><ele>268.0</ele><time>2026-04-15T08:21:53.081Z</time></trkpt><trkpt lat="42.0851183" lon="12.1466483"><ele>268.0</ele><time>2026-04-15T08:21:55.082Z</time></trkpt><trkpt lat="42.0850783" lon="12.1467233"><ele>268.5</ele><time>2026-04-15T08:21:57.082Z</time></trkpt><trkpt lat="42.0850333" lon="12.1468317"><ele>269.0</ele><time>2026-04-15T08:22:00.081Z</time></trkpt><trkpt lat="42.0849933" lon="12.14694"><ele>269.5</ele><time>2026-04-15T08:22:03.08Z</time></trkpt><trkpt lat="42.084965" lon="12.1470583"><ele>270.0</ele><time>2026-04-15T08:22:06.081Z</time></trkpt><trkpt lat="42.0849483" lon="12.14718"><ele>270.5</ele><time>2026-04-15T08:22:09.084Z</time></trkpt><trkpt lat="42.0849333" lon="12.1472867"><ele>271.0</ele><time>2026-04-15T08:22:12.084Z</time></trkpt><trkpt lat="42.0849083" lon="12.14738"><ele>271.0</ele><time>2026-04-15T08:22:15.084Z</time></trkpt><trkpt lat="42.0848833" lon="12.14747"><ele>271.0</ele><time>2026-04-15T08:22:18.081Z</time></trkpt><trkpt lat="42.0848667" lon="12.14756"><ele>271.0</ele><time>2026-04-15T08:22:21.084Z</time></trkpt><trkpt lat="42.0848567" lon="12.1476517"><ele>271.0</ele><time>2026-04-15T08:22:24.083Z</time></trkpt><trkpt lat="42.0848583" lon="12.1477467"><ele>271.0</ele><time>2026-04-15T08:22:27.08Z</time></trkpt><trkpt lat="42.08485" lon="12.14786"><ele>271.0</ele><time>2026-04-15T08:22:30.082Z</time></trkpt><trkpt lat="42.08484" lon="12.147965"><ele>271.0</ele><time>2026-04-15T08:22:33.084Z</time></trkpt><trkpt lat="42.084825" lon="12.1480683"><ele>271.0</ele><time>2026-04-15T08:22:36.081Z</time></trkpt><trkpt lat="42.0848017" lon="12.1481783"><ele>271.0</ele><time>2026-04-15T08:22:39.085Z</time></trkpt><trkpt lat="42.0847817" lon="12.1482833"><ele>271.0</ele><time>2026-04-15T08:22:42.085Z</time></trkpt><trkpt lat="42.084755" lon="12.1483867"><ele>271.0</ele><time>2026-04-15T08:22:45.084Z</time></trkpt><trkpt lat="42.0847317" lon="12.1484817"><ele>271.0</ele><time>2026-04-15T08:22:48.086Z</time></trkpt><trkpt lat="42.0847033" lon="12.1485883"><ele>271.0</ele><time>2026-04-15T08:22:51.084Z</time></trkpt><trkpt lat="42.0846817" lon="12.1486967"><ele>271.57142857142856</ele><time>2026-04-15T08:22:54.083Z</time></trkpt><trkpt lat="42.0846567" lon="12.1487783"><ele>272.14285714285717</ele><time>2026-04-15T08:22:56.082Z</time></trkpt><trkpt lat="42.0846267" lon="12.1488883"><ele>272.7142857142857</ele><time>2026-04-15T08:22:59.079Z</time></trkpt><trkpt lat="42.0846067" lon="12.14899"><ele>273.2857142857143</ele><time>2026-04-15T08:23:02.083Z</time></trkpt><trkpt lat="42.08458" lon="12.14908"><ele>273.85714285714283</ele><time>2026-04-15T08:23:05.08Z</time></trkpt><trkpt lat="42.0845583" lon="12.1491733"><ele>274.42857142857144</ele><time>2026-04-15T08:23:08.081Z</time></trkpt><trkpt lat="42.08454" lon="12.1492583"><ele>275.0</ele><time>2026-04-15T08:23:11.082Z</time></trkpt><trkpt lat="42.0845167" lon="12.1493567"><ele>275.42857142857144</ele><time>2026-04-15T08:23:14.08Z</time></trkpt><trkpt lat="42.084505" lon="12.14945"><ele>275.85714285714283</ele><time>2026-04-15T08:23:17.084Z</time></trkpt><trkpt lat="42.0844767" lon="12.14954"><ele>276.2857142857143</ele><time>2026-04-15T08:23:20.082Z</time></trkpt><trkpt lat="42.0844667" lon="12.1496317"><ele>276.7142857142857</ele><time>2026-04-15T08:23:23.083Z</time></trkpt><trkpt lat="42.0844433" lon="12.1497233"><ele>277.14285714285717</ele><time>2026-04-15T08:23:26.081Z</time></trkpt><trkpt lat="42.0844183" lon="12.1498033"><ele>277.57142857142856</ele><time>2026-04-15T08:23:29.081Z</time></trkpt><trkpt lat="42.0843817" lon="12.1499033"><ele>278.0</ele><time>2026-04-15T08:23:33.084Z</time></trkpt><trkpt lat="42.0843583" lon="12.1500033"><ele>278.33333333333337</ele><time>2026-04-15T08:23:36.082Z</time></trkpt><trkpt lat="42.084325" lon="12.1501133"><ele>278.6666666666667</ele><time>2026-04-15T08:23:39.083Z</time></trkpt><trkpt lat="42.0842917" lon="12.1502217"><ele>279.0</ele><time>2026-04-15T08:23:42.084Z</time></trkpt><trkpt lat="42.084265" lon="12.15033"><ele>279.3333333333333</ele><time>2026-04-15T08:23:45.079Z</time></trkpt><trkpt lat="42.0842417" lon="12.15044"><ele>279.66666666666663</ele><time>2026-04-15T08:23:48.082Z</time></trkpt><trkpt lat="42.0842067" lon="12.150555"><ele>280.0</ele><time>2026-04-15T08:23:51.082Z</time></trkpt><trkpt lat="42.0841783" lon="12.1506617"><ele>279.66666666666663</ele><time>2026-04-15T08:23:54.087Z</time></trkpt><trkpt lat="42.0841517" lon="12.1507617"><ele>279.3333333333333</ele><time>2026-04-15T08:23:57.081Z</time></trkpt><trkpt lat="42.0841333" lon="12.15085"><ele>279.0</ele><time>2026-04-15T08:26:45.079Z</time></trkpt><trkpt lat="42.0841633" lon="12.1509467"><ele>278.6666666666667</ele><time>2026-04-15T08:26:48.08Z</time></trkpt><trkpt lat="42.0841533" lon="12.1510333"><ele>278.33333333333337</ele><time>2026-04-15T08:26:50.081Z</time></trkpt><trkpt lat="42.08413" lon="12.1511383"><ele>278.0</ele><time>2026-04-15T08:26:53.079Z</time></trkpt><trkpt lat="42.0841117" lon="12.1512433"><ele>278.0</ele><time>2026-04-15T08:26:56.08Z</time></trkpt><trkpt lat="42.0840833" lon="12.1513367"><ele>278.0</ele><time>2026-04-15T08:26:58.079Z</time></trkpt><trkpt lat="42.0840533" lon="12.1514533"><ele>278.0</ele><time>2026-04-15T08:27:00.083Z</time></trkpt><trkpt lat="42.0840317" lon="12.151575"><ele>278.0</ele><time>2026-04-15T08:27:02.08Z</time></trkpt><trkpt lat="42.0839917" lon="12.1517133"><ele>278.0</ele><time>2026-04-15T08:27:04.081Z</time></trkpt><trkpt lat="42.0839567" lon="12.151865"><ele>278.0</ele><time>2026-04-15T08:27:06.08Z</time></trkpt><trkpt lat="42.0839367" lon="12.1519467"><ele>278.0</ele><time>2026-04-15T08:27:07.082Z</time></trkpt><trkpt lat="42.0839167" lon="12.15203"><ele>278.0</ele><time>2026-04-15T08:27:08.081Z</time></trkpt><trkpt lat="42.083895" lon="12.1521167"><ele>278.0</ele><time>2026-04-15T08:27:09.082Z</time></trkpt><trkpt lat="42.0838733" lon="12.1522117"><ele>278.0</ele><time>2026-04-15T08:27:10.081Z</time></trkpt><trkpt lat="42.083855" lon="12.1523083"><ele>278.0</ele><time>2026-04-15T08:27:11.081Z</time></trkpt><trkpt lat="42.0838333" lon="12.1524067"><ele>278.0</ele><time>2026-04-15T08:27:12.081Z</time></trkpt><trkpt lat="42.08381" lon="12.1525067"><ele>277.6666666666667</ele><time>2026-04-15T08:27:13.079Z</time></trkpt><trkpt lat="42.0837883" lon="12.1526117"><ele>277.33333333333337</ele><time>2026-04-15T08:27:14.085Z</time></trkpt><trkpt lat="42.0837633" lon="12.1527233"><ele>277.0</ele><time>2026-04-15T08:27:15.08Z</time></trkpt><trkpt lat="42.0837367" lon="12.152835"><ele>276.6666666666667</ele><time>2026-04-15T08:27:16.078Z</time></trkpt><trkpt lat="42.0837117" lon="12.1529467"><ele>276.3333333333333</ele><time>2026-04-15T08:27:17.082Z</time></trkpt><trkpt lat="42.0836833" lon="12.1530633"><ele>276.0</ele><time>2026-04-15T08:27:18.079Z</time></trkpt><trkpt lat="42.0836517" lon="12.1531867"><ele>274.8</ele><time>2026-04-15T08:27:19.082Z</time></trkpt><trkpt lat="42.0836217" lon="12.1533183"><ele>273.6</ele><time>2026-04-15T08:27:20.082Z</time></trkpt><trkpt lat="42.0835933" lon="12.1534467"><ele>272.4</ele><time>2026-04-15T08:27:21.082Z</time></trkpt><trkpt lat="42.0835617" lon="12.1535733"><ele>271.2</ele><time>2026-04-15T08:27:22.082Z</time></trkpt><trkpt lat="42.0835317" lon="12.1536967"><ele>270.0</ele><time>2026-04-15T08:27:23.084Z</time></trkpt><trkpt lat="42.0835" lon="12.15382"><ele>270.0</ele><time>2026-04-15T08:27:24.086Z</time></trkpt><trkpt lat="42.08347" lon="12.15394"><ele>270.0</ele><time>2026-04-15T08:27:25.08Z</time></trkpt><trkpt lat="42.0834383" lon="12.1540567"><ele>270.0</ele><time>2026-04-15T08:27:26.08Z</time></trkpt><trkpt lat="42.0834083" lon="12.1541733"><ele>270.0</ele><time>2026-04-15T08:27:27.082Z</time></trkpt><trkpt lat="42.0833783" lon="12.1542867"><ele>270.0</ele><time>2026-04-15T08:27:28.08Z</time></trkpt><trkpt lat="42.0833517" lon="12.1543933"><ele>269.6666666666667</ele><time>2026-04-15T08:27:29.08Z</time></trkpt><trkpt lat="42.0833233" lon="12.1545017"><ele>269.3333333333333</ele><time>2026-04-15T08:27:30.08Z</time></trkpt><trkpt lat="42.0833" lon="12.1546017"><ele>269.0</ele><time>2026-04-15T08:27:31.081Z</time></trkpt><trkpt lat="42.0832733" lon="12.1547017"><ele>268.66666666666663</ele><time>2026-04-15T08:27:32.089Z</time></trkpt><trkpt lat="42.0832467" lon="12.1548017"><ele>268.3333333333333</ele><time>2026-04-15T08:27:33.081Z</time></trkpt><trkpt lat="42.0832217" lon="12.1549033"><ele>268.0</ele><time>2026-04-15T08:27:34.081Z</time></trkpt><trkpt lat="42.0831983" lon="12.1549983"><ele>267.2857142857143</ele><time>2026-04-15T08:27:35.08Z</time></trkpt><trkpt lat="42.083175" lon="12.15509"><ele>266.57142857142856</ele><time>2026-04-15T08:27:36.078Z</time></trkpt><trkpt lat="42.0831533" lon="12.1551783"><ele>265.85714285714283</ele><time>2026-04-15T08:27:37.08Z</time></trkpt><trkpt lat="42.0831333" lon="12.1552683"><ele>265.1428571428571</ele><time>2026-04-15T08:27:38.078Z</time></trkpt><trkpt lat="42.0831117" lon="12.1553567"><ele>264.4285714285714</ele><time>2026-04-15T08:27:39.083Z</time></trkpt><trkpt lat="42.0830867" lon="12.1554467"><ele>263.7142857142857</ele><time>2026-04-15T08:27:40.082Z</time></trkpt><trkpt lat="42.0830633" lon="12.1555383"><ele>263.0</ele><time>2026-04-15T08:27:41.081Z</time></trkpt><trkpt lat="42.08304" lon="12.1556267"><ele>263.0</ele><time>2026-04-15T08:27:42.079Z</time></trkpt><trkpt lat="42.08302" lon="12.1557133"><ele>263.0</ele><time>2026-04-15T08:27:43.079Z</time></trkpt><trkpt lat="42.0829983" lon="12.1557967"><ele>263.0</ele><time>2026-04-15T08:27:44.079Z</time></trkpt><trkpt lat="42.0829567" lon="12.1559517"><ele>263.0</ele><time>2026-04-15T08:27:46.082Z</time></trkpt><trkpt lat="42.0829233" lon="12.15609"><ele>263.0</ele><time>2026-04-15T08:27:48.081Z</time></trkpt><trkpt lat="42.0828883" lon="12.1562333"><ele>263.0</ele><time>2026-04-15T08:27:50.082Z</time></trkpt><trkpt lat="42.082855" lon="12.156385"><ele>263.0</ele><time>2026-04-15T08:27:52.082Z</time></trkpt><trkpt lat="42.082835" lon="12.1564667"><ele>263.0</ele><time>2026-04-15T08:27:53.078Z</time></trkpt><trkpt lat="42.0827917" lon="12.1566233"><ele>263.0</ele><time>2026-04-15T08:27:55.081Z</time></trkpt><trkpt lat="42.0827733" lon="12.15671"><ele>263.0</ele><time>2026-04-15T08:27:56.082Z</time></trkpt><trkpt lat="42.0827533" lon="12.1567983"><ele>263.0</ele><time>2026-04-15T08:27:57.082Z</time></trkpt><trkpt lat="42.0827333" lon="12.15689"><ele>263.0</ele><time>2026-04-15T08:27:58.084Z</time></trkpt><trkpt lat="42.08271" lon="12.1569833"><ele>263.0</ele><time>2026-04-15T08:27:59.079Z</time></trkpt><trkpt lat="42.0826833" lon="12.1570783"><ele>263.0</ele><time>2026-04-15T08:28:00.08Z</time></trkpt><trkpt lat="42.082655" lon="12.1571783"><ele>263.0</ele><time>2026-04-15T08:28:01.083Z</time></trkpt><trkpt lat="42.082625" lon="12.15728"><ele>263.0</ele><time>2026-04-15T08:28:02.083Z</time></trkpt><trkpt lat="42.082595" lon="12.15738"><ele>263.0</ele><time>2026-04-15T08:28:03.088Z</time></trkpt><trkpt lat="42.0825683" lon="12.157475"><ele>263.0</ele><time>2026-04-15T08:28:04.079Z</time></trkpt><trkpt lat="42.082545" lon="12.15757"><ele>263.0</ele><time>2026-04-15T08:28:05.081Z</time></trkpt><trkpt lat="42.0825217" lon="12.1576633"><ele>263.0</ele><time>2026-04-15T08:28:06.089Z</time></trkpt><trkpt lat="42.082485" lon="12.1578267"><ele>263.0</ele><time>2026-04-15T08:28:08.08Z</time></trkpt><trkpt lat="42.082465" lon="12.1579117"><ele>263.0</ele><time>2026-04-15T08:28:09.082Z</time></trkpt><trkpt lat="42.082445" lon="12.158"><ele>263.0</ele><time>2026-04-15T08:28:10.08Z</time></trkpt><trkpt lat="42.0824267" lon="12.1580867"><ele>262.8</ele><time>2026-04-15T08:28:11.083Z</time></trkpt><trkpt lat="42.0824033" lon="12.1581767"><ele>262.6</ele><time>2026-04-15T08:28:12.083Z</time></trkpt><trkpt lat="42.0823833" lon="12.1582617"><ele>262.4</ele><time>2026-04-15T08:28:13.081Z</time></trkpt><trkpt lat="42.082345" lon="12.158415"><ele>262.2</ele><time>2026-04-15T08:28:15.08Z</time></trkpt><trkpt lat="42.082315" lon="12.1585533"><ele>262.0</ele><time>2026-04-15T08:28:17.08Z</time></trkpt><trkpt lat="42.0822833" lon="12.1586833"><ele>262.0</ele><time>2026-04-15T08:28:19.081Z</time></trkpt><trkpt lat="42.0822517" lon="12.1588067"><ele>262.0</ele><time>2026-04-15T08:28:21.082Z</time></trkpt><trkpt lat="42.0822117" lon="12.1589333"><ele>262.0</ele><time>2026-04-15T08:28:23.084Z</time></trkpt><trkpt lat="42.0821783" lon="12.1590617"><ele>262.0</ele><time>2026-04-15T08:28:25.088Z</time></trkpt><trkpt lat="42.08215" lon="12.1591633"><ele>262.0</ele><time>2026-04-15T08:28:27.08Z</time></trkpt><trkpt lat="42.08213" lon="12.15926"><ele>262.5</ele><time>2026-04-15T08:28:29.081Z</time></trkpt><trkpt lat="42.0821133" lon="12.1593617"><ele>263.0</ele><time>2026-04-15T08:28:31.08Z</time></trkpt><trkpt lat="42.0821" lon="12.1594667"><ele>263.5</ele><time>2026-04-15T08:28:33.083Z</time></trkpt><trkpt lat="42.0820817" lon="12.1595717"><ele>264.0</ele><time>2026-04-15T08:28:35.079Z</time></trkpt><trkpt lat="42.0820517" lon="12.15968"><ele>264.5</ele><time>2026-04-15T08:28:37.086Z</time></trkpt><trkpt lat="42.0820267" lon="12.1597667"><ele>265.0</ele><time>2026-04-15T08:28:39.083Z</time></trkpt><trkpt lat="42.082005" lon="12.159855"><ele>266.0</ele><time>2026-04-15T08:28:41.08Z</time></trkpt><trkpt lat="42.08197" lon="12.1599733"><ele>267.0</ele><time>2026-04-15T08:28:44.08Z</time></trkpt><trkpt lat="42.081945" lon="12.1600717"><ele>268.0</ele><time>2026-04-15T08:28:46.08Z</time></trkpt><trkpt lat="42.08192" lon="12.1601667"><ele>269.0</ele><time>2026-04-15T08:28:48.083Z</time></trkpt><trkpt lat="42.0818933" lon="12.160265"><ele>270.0</ele><time>2026-04-15T08:28:50.086Z</time></trkpt><trkpt lat="42.0818667" lon="12.1603517"><ele>271.0</ele><time>2026-04-15T08:28:52.082Z</time></trkpt><trkpt lat="42.0818467" lon="12.16045"><ele>271.0</ele><time>2026-04-15T08:28:54.081Z</time></trkpt><trkpt lat="42.0818283" lon="12.1605383"><ele>271.0</ele><time>2026-04-15T08:28:56.081Z</time></trkpt><trkpt lat="42.08181" lon="12.1606217"><ele>271.0</ele><time>2026-04-15T08:28:58.081Z</time></trkpt><trkpt lat="42.08178" lon="12.1607233"><ele>271.0</ele><time>2026-04-15T08:29:01.083Z</time></trkpt><trkpt lat="42.0817567" lon="12.1608267"><ele>271.0</ele><time>2026-04-15T08:29:04.082Z</time></trkpt><trkpt lat="42.0817483" lon="12.1609233"><ele>271.0</ele><time>2026-04-15T08:29:07.08Z</time></trkpt><trkpt lat="42.0817283" lon="12.161025"><ele>271.0</ele><time>2026-04-15T08:29:11.082Z</time></trkpt><trkpt lat="42.0817017" lon="12.1611033"><ele>271.1428571428571</ele><time>2026-04-15T08:29:14.084Z</time></trkpt><trkpt lat="42.08168" lon="12.16119"><ele>271.2857142857143</ele><time>2026-04-15T08:29:17.082Z</time></trkpt><trkpt lat="42.0816583" lon="12.16129"><ele>271.42857142857144</ele><time>2026-04-15T08:29:21.087Z</time></trkpt><trkpt lat="42.081635" lon="12.1613817"><ele>271.57142857142856</ele><time>2026-04-15T08:29:25.08Z</time></trkpt><trkpt lat="42.0816167" lon="12.1614733"><ele>271.7142857142857</ele><time>2026-04-15T08:29:29.078Z</time></trkpt><trkpt lat="42.0815933" lon="12.1615633"><ele>271.85714285714283</ele><time>2026-04-15T08:29:33.082Z</time></trkpt><trkpt lat="42.0815617" lon="12.1616517"><ele>272.0</ele><time>2026-04-15T08:29:37.08Z</time></trkpt><trkpt lat="42.0815533" lon="12.1617383"><ele>272.1428571428571</ele><time>2026-04-15T08:29:42.082Z</time></trkpt><trkpt lat="42.0815267" lon="12.1618167"><ele>272.2857142857143</ele><time>2026-04-15T08:34:46.078Z</time></trkpt><trkpt lat="42.08151" lon="12.16191"><ele>272.42857142857144</ele><time>2026-04-15T08:34:50.082Z</time></trkpt><trkpt lat="42.0814883" lon="12.1619933"><ele>272.57142857142856</ele><time>2026-04-15T08:34:54.082Z</time></trkpt><trkpt lat="42.081465" lon="12.1620933"><ele>272.7142857142857</ele><time>2026-04-15T08:34:57.08Z</time></trkpt><trkpt lat="42.0814467" lon="12.1621867"><ele>272.85714285714283</ele><time>2026-04-15T08:35:00.08Z</time></trkpt><trkpt lat="42.0814217" lon="12.1623133"><ele>273.0</ele><time>2026-04-15T08:35:03.079Z</time></trkpt><trkpt lat="42.0814033" lon="12.1624183"><ele>272.4</ele><time>2026-04-15T08:35:05.081Z</time></trkpt><trkpt lat="42.08138" lon="12.1625317"><ele>271.8</ele><time>2026-04-15T08:35:07.082Z</time></trkpt><trkpt lat="42.0813467" lon="12.1626867"><ele>271.2</ele><time>2026-04-15T08:35:09.085Z</time></trkpt><trkpt lat="42.0813217" lon="12.1627867"><ele>270.6</ele><time>2026-04-15T08:35:10.079Z</time></trkpt><trkpt lat="42.0812983" lon="12.1628967"><ele>270.0</ele><time>2026-04-15T08:35:11.079Z</time></trkpt><trkpt lat="42.081275" lon="12.163015"><ele>270.0</ele><time>2026-04-15T08:35:12.083Z</time></trkpt><trkpt lat="42.0812517" lon="12.1631333"><ele>270.0</ele><time>2026-04-15T08:35:13.08Z</time></trkpt><trkpt lat="42.0812267" lon="12.16325"><ele>270.0</ele><time>2026-04-15T08:35:14.082Z</time></trkpt><trkpt lat="42.0812083" lon="12.1633567"><ele>270.0</ele><time>2026-04-15T08:35:15.08Z</time></trkpt><trkpt lat="42.0811883" lon="12.1634667"><ele>270.0</ele><time>2026-04-15T08:35:16.079Z</time></trkpt><trkpt lat="42.081165" lon="12.1635883"><ele>270.0</ele><time>2026-04-15T08:35:17.08Z</time></trkpt><trkpt lat="42.0811433" lon="12.1637033"><ele>269.8333333333333</ele><time>2026-04-15T08:35:18.08Z</time></trkpt><trkpt lat="42.08112" lon="12.163815"><ele>269.6666666666667</ele><time>2026-04-15T08:35:19.08Z</time></trkpt><trkpt lat="42.0810983" lon="12.1639233"><ele>269.5</ele><time>2026-04-15T08:35:20.083Z</time></trkpt><trkpt lat="42.0810767" lon="12.16403"><ele>269.33333333333337</ele><time>2026-04-15T08:35:21.083Z</time></trkpt><trkpt lat="42.0810533" lon="12.1641383"><ele>269.1666666666667</ele><time>2026-04-15T08:35:22.084Z</time></trkpt><trkpt lat="42.0810333" lon="12.16424"><ele>269.0</ele><time>2026-04-15T08:35:23.082Z</time></trkpt><trkpt lat="42.0810033" lon="12.1643983"><ele>269.0</ele><time>2026-04-15T08:35:25.084Z</time></trkpt><trkpt lat="42.0809633" lon="12.1645583"><ele>269.0</ele><time>2026-04-15T08:35:27.079Z</time></trkpt><trkpt lat="42.0809267" lon="12.1647283"><ele>269.0</ele><time>2026-04-15T08:35:29.081Z</time></trkpt><trkpt lat="42.080915" lon="12.1648117"><ele>269.0</ele><time>2026-04-15T08:35:30.083Z</time></trkpt><trkpt lat="42.0808883" lon="12.1649667"><ele>269.0</ele><time>2026-04-15T08:35:32.082Z</time></trkpt><trkpt lat="42.08087" lon="12.1650567"><ele>269.0</ele><time>2026-04-15T08:35:33.086Z</time></trkpt><trkpt lat="42.08085" lon="12.165145"><ele>269.0</ele><time>2026-04-15T08:35:34.082Z</time></trkpt><trkpt lat="42.0808283" lon="12.16523"><ele>269.0</ele><time>2026-04-15T08:35:35.081Z</time></trkpt><trkpt lat="42.080815" lon="12.1653167"><ele>269.0</ele><time>2026-04-15T08:35:36.08Z</time></trkpt><trkpt lat="42.080795" lon="12.165405"><ele>269.0</ele><time>2026-04-15T08:35:37.082Z</time></trkpt><trkpt lat="42.0807717" lon="12.1655017"><ele>269.0</ele><time>2026-04-15T08:35:38.083Z</time></trkpt><trkpt lat="42.08075" lon="12.1655967"><ele>269.0</ele><time>2026-04-15T08:35:39.08Z</time></trkpt><trkpt lat="42.0807333" lon="12.1656833"><ele>269.14285714285717</ele><time>2026-04-15T08:35:40.081Z</time></trkpt><trkpt lat="42.0807133" lon="12.1657733"><ele>269.28571428571433</ele><time>2026-04-15T08:35:41.081Z</time></trkpt><trkpt lat="42.0806933" lon="12.1658683"><ele>269.42857142857144</ele><time>2026-04-15T08:35:42.079Z</time></trkpt><trkpt lat="42.0806733" lon="12.16596"><ele>269.57142857142856</ele><time>2026-04-15T08:35:43.079Z</time></trkpt><trkpt lat="42.0806533" lon="12.16605"><ele>269.71428571428567</ele><time>2026-04-15T08:35:44.082Z</time></trkpt><trkpt lat="42.080635" lon="12.1661433"><ele>269.85714285714283</ele><time>2026-04-15T08:35:45.084Z</time></trkpt><trkpt lat="42.08062" lon="12.1662267"><ele>270.0</ele><time>2026-04-15T08:35:46.082Z</time></trkpt><trkpt lat="42.0805817" lon="12.1663933"><ele>269.6</ele><time>2026-04-15T08:35:48.08Z</time></trkpt><trkpt lat="42.0805517" lon="12.166545"><ele>269.2</ele><time>2026-04-15T08:35:50.079Z</time></trkpt><trkpt lat="42.0805233" lon="12.1666983"><ele>268.8</ele><time>2026-04-15T08:35:52.082Z</time></trkpt><trkpt lat="42.0805083" lon="12.1667833"><ele>268.4</ele><time>2026-04-15T08:35:53.082Z</time></trkpt><trkpt lat="42.080465" lon="12.16693"><ele>268.0</ele><time>2026-04-15T08:35:55.08Z</time></trkpt><trkpt lat="42.080435" lon="12.1670667"><ele>268.0</ele><time>2026-04-15T08:35:57.082Z</time></trkpt><trkpt lat="42.080415" lon="12.16719"><ele>268.0</ele><time>2026-04-15T08:35:59.08Z</time></trkpt><trkpt lat="42.0803917" lon="12.1673033"><ele>268.0</ele><time>2026-04-15T08:36:01.081Z</time></trkpt><trkpt lat="42.08036" lon="12.1674217"><ele>268.0</ele><time>2026-04-15T08:36:03.09Z</time></trkpt><trkpt lat="42.0803367" lon="12.16755"><ele>268.0</ele><time>2026-04-15T08:36:05.079Z</time></trkpt><trkpt lat="42.0803067" lon="12.1676783"><ele>267.8</ele><time>2026-04-15T08:36:07.08Z</time></trkpt><trkpt lat="42.0802783" lon="12.1678133"><ele>267.6</ele><time>2026-04-15T08:36:09.082Z</time></trkpt><trkpt lat="42.08026" lon="12.1679267"><ele>267.4</ele><time>2026-04-15T08:36:11.087Z</time></trkpt><trkpt lat="42.0802367" lon="12.168055"><ele>267.2</ele><time>2026-04-15T08:36:13.081Z</time></trkpt><trkpt lat="42.0802083" lon="12.1681933"><ele>267.0</ele><time>2026-04-15T08:36:15.082Z</time></trkpt><trkpt lat="42.08018" lon="12.168325"><ele>267.0</ele><time>2026-04-15T08:36:17.08Z</time></trkpt><trkpt lat="42.0801517" lon="12.1684517"><ele>267.0</ele><time>2026-04-15T08:36:19.081Z</time></trkpt><trkpt lat="42.0801267" lon="12.1685733"><ele>267.0</ele><time>2026-04-15T08:36:21.081Z</time></trkpt><trkpt lat="42.0801017" lon="12.1687017"><ele>267.0</ele><time>2026-04-15T08:36:23.078Z</time></trkpt><trkpt lat="42.0800733" lon="12.1688233"><ele>267.0</ele><time>2026-04-15T08:36:25.081Z</time></trkpt><trkpt lat="42.0800533" lon="12.1689383"><ele>267.5</ele><time>2026-04-15T08:36:27.081Z</time></trkpt><trkpt lat="42.0800283" lon="12.1690517"><ele>268.0</ele><time>2026-04-15T08:36:29.084Z</time></trkpt><trkpt lat="42.080005" lon="12.16916"><ele>268.5</ele><time>2026-04-15T08:36:31.081Z</time></trkpt><trkpt lat="42.0800033" lon="12.169275"><ele>269.0</ele><time>2026-04-15T08:36:33.085Z</time></trkpt><trkpt lat="42.08" lon="12.1693883"><ele>269.5</ele><time>2026-04-15T08:36:35.082Z</time></trkpt><trkpt lat="42.0800017" lon="12.1694917"><ele>270.0</ele><time>2026-04-15T08:36:37.081Z</time></trkpt><trkpt lat="42.0800033" lon="12.1695967"><ele>270.0</ele><time>2026-04-15T08:36:39.081Z</time></trkpt><trkpt lat="42.0800133" lon="12.1697033"><ele>270.0</ele><time>2026-04-15T08:36:41.08Z</time></trkpt><trkpt lat="42.080015" lon="12.1698033"><ele>270.0</ele><time>2026-04-15T08:36:43.081Z</time></trkpt><trkpt lat="42.0800133" lon="12.1698933"><ele>270.0</ele><time>2026-04-15T08:36:45.085Z</time></trkpt><trkpt lat="42.0800033" lon="12.17001"><ele>270.0</ele><time>2026-04-15T08:36:48.081Z</time></trkpt><trkpt lat="42.080005" lon="12.1701017"><ele>270.0</ele><time>2026-04-15T08:36:51.082Z</time></trkpt><trkpt lat="42.0800783" lon="12.17015"><ele>270.42857142857144</ele><time>2026-04-15T08:36:54.08Z</time></trkpt><trkpt lat="42.0801467" lon="12.1701433"><ele>270.85714285714283</ele><time>2026-04-15T08:36:56.08Z</time></trkpt><trkpt lat="42.08022" lon="12.17013"><ele>271.2857142857143</ele><time>2026-04-15T08:36:58.082Z</time></trkpt><trkpt lat="42.08029" lon="12.17012"><ele>271.7142857142857</ele><time>2026-04-15T08:37:00.08Z</time></trkpt><trkpt lat="42.0803583" lon="12.1701083"><ele>272.1428571428571</ele><time>2026-04-15T08:37:02.086Z</time></trkpt><trkpt lat="42.0804317" lon="12.1700917"><ele>272.57142857142856</ele><time>2026-04-15T08:37:04.084Z</time></trkpt><trkpt lat="42.0805017" lon="12.1700817"><ele>273.0</ele><time>2026-04-15T08:37:06.082Z</time></trkpt><trkpt lat="42.080575" lon="12.1700633"><ele>273.0</ele><time>2026-04-15T08:37:08.083Z</time></trkpt><trkpt lat="42.08065" lon="12.170045"><ele>273.0</ele><time>2026-04-15T08:37:10.081Z</time></trkpt><trkpt lat="42.0807233" lon="12.1700267"><ele>273.0</ele><time>2026-04-15T08:37:12.09Z</time></trkpt><trkpt lat="42.0807983" lon="12.1700067"><ele>273.0</ele><time>2026-04-15T08:37:14.081Z</time></trkpt><trkpt lat="42.0808717" lon="12.1699933"><ele>273.0</ele><time>2026-04-15T08:37:16.081Z</time></trkpt><trkpt lat="42.08094" lon="12.1699817"><ele>273.0</ele><time>2026-04-15T08:37:18.08Z</time></trkpt><trkpt lat="42.0810117" lon="12.1699633"><ele>273.0</ele><time>2026-04-15T08:37:20.085Z</time></trkpt><trkpt lat="42.0810833" lon="12.1699433"><ele>273.14285714285717</ele><time>2026-04-15T08:37:22.082Z</time></trkpt><trkpt lat="42.0811533" lon="12.1699317"><ele>273.2857142857143</ele><time>2026-04-15T08:37:24.084Z</time></trkpt><trkpt lat="42.0812233" lon="12.1699183"><ele>273.42857142857144</ele><time>2026-04-15T08:37:26.083Z</time></trkpt><trkpt lat="42.0812967" lon="12.1699033"><ele>273.57142857142856</ele><time>2026-04-15T08:37:28.084Z</time></trkpt><trkpt lat="42.0813717" lon="12.1698867"><ele>273.7142857142857</ele><time>2026-04-15T08:37:30.082Z</time></trkpt><trkpt lat="42.0814483" lon="12.1698633"><ele>273.8571428571429</ele><time>2026-04-15T08:37:32.079Z</time></trkpt><trkpt lat="42.0815233" lon="12.1698533"><ele>274.0</ele><time>2026-04-15T08:37:34.08Z</time></trkpt><trkpt lat="42.081595" lon="12.1698483"><ele>274.5</ele><time>2026-04-15T08:37:36.08Z</time></trkpt><trkpt lat="42.081665" lon="12.169835"><ele>275.0</ele><time>2026-04-15T08:37:38.082Z</time></trkpt><trkpt lat="42.0817533" lon="12.169815"><ele>275.5</ele><time>2026-04-15T08:37:41.083Z</time></trkpt><trkpt lat="42.0818283" lon="12.169805"><ele>276.0</ele><time>2026-04-15T08:37:44.082Z</time></trkpt><trkpt lat="42.0819133" lon="12.1697867"><ele>276.5</ele><time>2026-04-15T08:37:47.081Z</time></trkpt><trkpt lat="42.0819983" lon="12.169765"><ele>277.0</ele><time>2026-04-15T08:37:50.087Z</time></trkpt><trkpt lat="42.0820767" lon="12.1697533"><ele>277.0</ele><time>2026-04-15T08:37:53.086Z</time></trkpt><trkpt lat="42.0821633" lon="12.1697367"><ele>277.0</ele><time>2026-04-15T08:37:56.082Z</time></trkpt><trkpt lat="42.0822367" lon="12.1697183"><ele>277.0</ele><time>2026-04-15T08:37:59.08Z</time></trkpt><trkpt lat="42.0823117" lon="12.1696983"><ele>277.0</ele><time>2026-04-15T08:38:02.085Z</time></trkpt><trkpt lat="42.0823867" lon="12.1696817"><ele>277.0</ele><time>2026-04-15T08:38:06.082Z</time></trkpt><trkpt lat="42.0824567" lon="12.169665"><ele>277.0</ele><time>2026-04-15T08:38:10.083Z</time></trkpt><trkpt lat="42.0825317" lon="12.169635"><ele>277.57142857142856</ele><time>2026-04-15T08:38:14.079Z</time></trkpt><trkpt lat="42.0826033" lon="12.16962"><ele>278.1428571428571</ele><time>2026-04-15T08:38:17.085Z</time></trkpt><trkpt lat="42.0826683" lon="12.1696017"><ele>278.7142857142857</ele><time>2026-04-15T08:38:20.083Z</time></trkpt><trkpt lat="42.08275" lon="12.169605"><ele>279.2857142857143</ele><time>2026-04-15T08:38:24.081Z</time></trkpt><trkpt lat="42.0828267" lon="12.1695833"><ele>279.8571428571429</ele><time>2026-04-15T08:38:28.081Z</time></trkpt><trkpt lat="42.0828983" lon="12.1695583"><ele>280.42857142857144</ele><time>2026-04-15T08:38:32.083Z</time></trkpt><trkpt lat="42.0829733" lon="12.1695533"><ele>281.0</ele><time>2026-04-15T08:38:36.08Z</time></trkpt><trkpt lat="42.083045" lon="12.1695383"><ele>281.0</ele><time>2026-04-15T08:38:40.08Z</time></trkpt><trkpt lat="42.0831217" lon="12.169535"><ele>281.0</ele><time>2026-04-15T08:38:44.086Z</time></trkpt><trkpt lat="42.0831967" lon="12.16952"><ele>281.0</ele><time>2026-04-15T08:38:48.08Z</time></trkpt><trkpt lat="42.0832783" lon="12.1694917"><ele>281.0</ele><time>2026-04-15T08:38:52.085Z</time></trkpt><trkpt lat="42.0833533" lon="12.169485"><ele>281.0</ele><time>2026-04-15T08:38:56.082Z</time></trkpt><trkpt lat="42.0834267" lon="12.1694783"><ele>281.0</ele><time>2026-04-15T08:39:00.081Z</time></trkpt><trkpt lat="42.0835" lon="12.1694733"><ele>281.7142857142857</ele><time>2026-04-15T08:39:04.081Z</time></trkpt><trkpt lat="42.083575" lon="12.1694533"><ele>282.42857142857144</ele><time>2026-04-15T08:39:08.083Z</time></trkpt><trkpt lat="42.083645" lon="12.1694267"><ele>283.1428571428571</ele><time>2026-04-15T08:39:12.08Z</time></trkpt><trkpt lat="42.083715" lon="12.1694133"><ele>283.8571428571429</ele><time>2026-04-15T08:39:16.08Z</time></trkpt><trkpt lat="42.083795" lon="12.1694017"><ele>284.57142857142856</ele><time>2026-04-15T08:39:20.084Z</time></trkpt><trkpt lat="42.0838633" lon="12.1693767"><ele>285.2857142857143</ele><time>2026-04-15T08:39:24.083Z</time></trkpt><trkpt lat="42.083925" lon="12.1693583"><ele>286.0</ele><time>2026-04-15T08:39:28.087Z</time></trkpt><trkpt lat="42.0839867" lon="12.16939"><ele>285.99999999999994</ele><time>2026-04-15T08:39:32.083Z</time></trkpt><trkpt lat="42.0840133" lon="12.1695"><ele>286.0</ele><time>2026-04-15T08:39:36.083Z</time></trkpt><trkpt lat="42.0840283" lon="12.1695883"><ele>286.0</ele><time>2026-04-15T08:39:39.082Z</time></trkpt><trkpt lat="42.0840467" lon="12.169695"><ele>286.0</ele><time>2026-04-15T08:39:43.082Z</time></trkpt><trkpt lat="42.0840517" lon="12.1697833"><ele>286.0</ele><time>2026-04-15T08:39:46.082Z</time></trkpt><trkpt lat="42.084055" lon="12.1698733"><ele>285.99999999999994</ele><time>2026-04-15T08:39:49.083Z</time></trkpt><trkpt lat="42.0840567" lon="12.1699767"><ele>286.0</ele><time>2026-04-15T08:39:52.082Z</time></trkpt><trkpt lat="42.08407" lon="12.1700717"><ele>286.3333333333333</ele><time>2026-04-15T08:39:55.087Z</time></trkpt><trkpt lat="42.0840883" lon="12.1701617"><ele>286.66666666666663</ele><time>2026-04-15T08:39:58.08Z</time></trkpt><trkpt lat="42.08409" lon="12.1702633"><ele>287.0</ele><time>2026-04-15T08:40:01.079Z</time></trkpt><trkpt lat="42.08409" lon="12.170365"><ele>287.3333333333333</ele><time>2026-04-15T08:40:04.084Z</time></trkpt><trkpt lat="42.0840933" lon="12.1704667"><ele>287.6666666666667</ele><time>2026-04-15T08:40:07.08Z</time></trkpt><trkpt lat="42.0840783" lon="12.1705883"><ele>288.0</ele><time>2026-04-15T08:40:10.082Z</time></trkpt><trkpt lat="42.0840817" lon="12.1707"><ele>288.5</ele><time>2026-04-15T08:40:13.084Z</time></trkpt><trkpt lat="42.0840883" lon="12.1708083"><ele>289.0</ele><time>2026-04-15T08:40:16.082Z</time></trkpt><trkpt lat="42.0840967" lon="12.17092"><ele>289.5</ele><time>2026-04-15T08:40:19.083Z</time></trkpt><trkpt lat="42.0841183" lon="12.1710317"><ele>290.0</ele><time>2026-04-15T08:40:22.082Z</time></trkpt><trkpt lat="42.0841133" lon="12.1711417"><ele>290.5</ele><time>2026-04-15T08:40:25.084Z</time></trkpt><trkpt lat="42.084115" lon="12.1712433"><ele>291.0</ele><time>2026-04-15T08:40:28.082Z</time></trkpt><trkpt lat="42.0841217" lon="12.17135"><ele>290.85714285714283</ele><time>2026-04-15T08:40:31.081Z</time></trkpt><trkpt lat="42.0841167" lon="12.171475"><ele>290.71428571428567</ele><time>2026-04-15T08:40:34.081Z</time></trkpt><trkpt lat="42.0841183" lon="12.1715667"><ele>290.57142857142856</ele><time>2026-04-15T08:40:36.082Z</time></trkpt><trkpt lat="42.0841117" lon="12.1716583"><ele>290.42857142857144</ele><time>2026-04-15T08:40:38.081Z</time></trkpt><trkpt lat="42.084105" lon="12.1717467"><ele>290.28571428571433</ele><time>2026-04-15T08:40:40.081Z</time></trkpt><trkpt lat="42.0840983" lon="12.1718517"><ele>290.14285714285717</ele><time>2026-04-15T08:40:43.086Z</time></trkpt><trkpt lat="42.0840967" lon="12.17194"><ele>290.0</ele><time>2026-04-15T08:40:45.082Z</time></trkpt><trkpt lat="42.0840917" lon="12.1720367"><ele>290.8</ele><time>2026-04-15T08:40:47.081Z</time></trkpt><trkpt lat="42.0840967" lon="12.1721383"><ele>291.6</ele><time>2026-04-15T08:40:49.083Z</time></trkpt><trkpt lat="42.0841" lon="12.17223"><ele>292.4</ele><time>2026-04-15T08:40:51.082Z</time></trkpt><trkpt lat="42.0841167" lon="12.17237"><ele>293.2</ele><time>2026-04-15T08:40:53.08Z</time></trkpt><trkpt lat="42.0841083" lon="12.1725667"><ele>294.0</ele><time>2026-04-15T08:40:55.085Z</time></trkpt><trkpt lat="42.0841033" lon="12.1726867"><ele>293.2</ele><time>2026-04-15T08:40:56.083Z</time></trkpt><trkpt lat="42.084095" lon="12.1728283"><ele>292.4</ele><time>2026-04-15T08:40:57.085Z</time></trkpt><trkpt lat="42.08409" lon="12.1729617"><ele>291.6</ele><time>2026-04-15T08:40:58.08Z</time></trkpt><trkpt lat="42.0840867" lon="12.1730933"><ele>290.8</ele><time>2026-04-15T08:40:59.082Z</time></trkpt><trkpt lat="42.0840933" lon="12.1732267"><ele>290.0</ele><time>2026-04-15T08:41:00.082Z</time></trkpt><trkpt lat="42.0840983" lon="12.17335"><ele>290.0</ele><time>2026-04-15T08:41:01.077Z</time></trkpt><trkpt lat="42.0841033" lon="12.1734767"><ele>290.0</ele><time>2026-04-15T08:41:02.083Z</time></trkpt><trkpt lat="42.0841067" lon="12.1736017"><ele>290.0</ele><time>2026-04-15T08:41:03.08Z</time></trkpt><trkpt lat="42.0841117" lon="12.173725"><ele>290.0</ele><time>2026-04-15T08:41:04.08Z</time></trkpt><trkpt lat="42.084115" lon="12.17385"><ele>290.0</ele><time>2026-04-15T08:41:05.082Z</time></trkpt><trkpt lat="42.08412" lon="12.1739733"><ele>289.4</ele><time>2026-04-15T08:41:06.081Z</time></trkpt><trkpt lat="42.084125" lon="12.1740983"><ele>288.8</ele><time>2026-04-15T08:41:07.084Z</time></trkpt><trkpt lat="42.08413" lon="12.1742167"><ele>288.2</ele><time>2026-04-15T08:41:08.08Z</time></trkpt><trkpt lat="42.084135" lon="12.1743383"><ele>287.6</ele><time>2026-04-15T08:41:09.086Z</time></trkpt><trkpt lat="42.08414" lon="12.17446"><ele>287.0</ele><time>2026-04-15T08:41:10.08Z</time></trkpt><trkpt lat="42.0841433" lon="12.17458"><ele>287.0</ele><time>2026-04-15T08:41:11.081Z</time></trkpt><trkpt lat="42.0841483" lon="12.174695"><ele>287.0</ele><time>2026-04-15T08:41:12.082Z</time></trkpt><trkpt lat="42.084155" lon="12.174805"><ele>287.0</ele><time>2026-04-15T08:41:13.079Z</time></trkpt><trkpt lat="42.084165" lon="12.174915"><ele>287.0</ele><time>2026-04-15T08:41:14.083Z</time></trkpt><trkpt lat="42.0841717" lon="12.1750217"><ele>287.0</ele><time>2026-04-15T08:41:15.081Z</time></trkpt><trkpt lat="42.0841833" lon="12.1751317"><ele>287.0</ele><time>2026-04-15T08:41:16.08Z</time></trkpt><trkpt lat="42.0841917" lon="12.1752333"><ele>286.5</ele><time>2026-04-15T08:41:17.085Z</time></trkpt><trkpt lat="42.0841983" lon="12.1753283"><ele>286.0</ele><time>2026-04-15T08:41:18.079Z</time></trkpt><trkpt lat="42.0842017" lon="12.1754267"><ele>285.5</ele><time>2026-04-15T08:41:19.083Z</time></trkpt><trkpt lat="42.0842033" lon="12.1755333"><ele>285.0</ele><time>2026-04-15T08:41:20.081Z</time></trkpt><trkpt lat="42.0842033" lon="12.1756433"><ele>284.5</ele><time>2026-04-15T08:41:21.082Z</time></trkpt><trkpt lat="42.0841983" lon="12.1757667"><ele>284.0</ele><time>2026-04-15T08:41:22.082Z</time></trkpt><trkpt lat="42.0842" lon="12.175885"><ele>283.6666666666667</ele><time>2026-04-15T08:41:23.08Z</time></trkpt><trkpt lat="42.0842017" lon="12.1759983"><ele>283.33333333333337</ele><time>2026-04-15T08:41:24.086Z</time></trkpt><trkpt lat="42.0842017" lon="12.176115"><ele>283.0</ele><time>2026-04-15T08:41:25.085Z</time></trkpt><trkpt lat="42.0842" lon="12.1762317"><ele>282.6666666666667</ele><time>2026-04-15T08:41:26.079Z</time></trkpt><trkpt lat="42.0842017" lon="12.176335"><ele>282.3333333333333</ele><time>2026-04-15T08:41:27.08Z</time></trkpt><trkpt lat="42.0842" lon="12.1764317"><ele>282.0</ele><time>2026-04-15T08:41:28.081Z</time></trkpt><trkpt lat="42.0842" lon="12.17653"><ele>281.8333333333333</ele><time>2026-04-15T08:41:29.08Z</time></trkpt><trkpt lat="42.0841983" lon="12.1766283"><ele>281.6666666666667</ele><time>2026-04-15T08:41:30.082Z</time></trkpt><trkpt lat="42.0842033" lon="12.1767233"><ele>281.5</ele><time>2026-04-15T08:41:31.082Z</time></trkpt><trkpt lat="42.0842083" lon="12.1768167"><ele>281.33333333333337</ele><time>2026-04-15T08:41:32.081Z</time></trkpt><trkpt lat="42.0842117" lon="12.176905"><ele>281.1666666666667</ele><time>2026-04-15T08:41:33.082Z</time></trkpt><trkpt lat="42.084215" lon="12.17699"><ele>281.0</ele><time>2026-04-15T08:41:34.081Z</time></trkpt><trkpt lat="42.0842217" lon="12.17716"><ele>281.0</ele><time>2026-04-15T08:41:36.081Z</time></trkpt><trkpt lat="42.0842283" lon="12.177245"><ele>281.0</ele><time>2026-04-15T08:41:37.079Z</time></trkpt><trkpt lat="42.0842383" lon="12.1774067"><ele>281.0</ele><time>2026-04-15T08:41:39.085Z</time></trkpt><trkpt lat="42.0842317" lon="12.1775383"><ele>281.0</ele><time>2026-04-15T08:41:41.08Z</time></trkpt><trkpt lat="42.08424" lon="12.1776367"><ele>281.0</ele><time>2026-04-15T08:41:43.081Z</time></trkpt><trkpt lat="42.0842783" lon="12.17773"><ele>281.0</ele><time>2026-04-15T08:41:45.083Z</time></trkpt><trkpt lat="42.08435" lon="12.177825"><ele>280.5</ele><time>2026-04-15T08:41:47.081Z</time></trkpt><trkpt lat="42.0844367" lon="12.17793"><ele>280.0</ele><time>2026-04-15T08:41:49.081Z</time></trkpt><trkpt lat="42.0844883" lon="12.1779817"><ele>279.5</ele><time>2026-04-15T08:41:50.083Z</time></trkpt><trkpt lat="42.0845417" lon="12.1780367"><ele>279.0</ele><time>2026-04-15T08:41:51.084Z</time></trkpt><trkpt lat="42.0845883" lon="12.1781017"><ele>278.5</ele><time>2026-04-15T08:41:52.082Z</time></trkpt><trkpt lat="42.084635" lon="12.17817"><ele>278.0</ele><time>2026-04-15T08:41:53.087Z</time></trkpt><trkpt lat="42.08469" lon="12.178235"><ele>277.6666666666667</ele><time>2026-04-15T08:41:54.079Z</time></trkpt><trkpt lat="42.0847467" lon="12.1783067"><ele>277.33333333333337</ele><time>2026-04-15T08:41:55.081Z</time></trkpt><trkpt lat="42.0848" lon="12.17838"><ele>277.0</ele><time>2026-04-15T08:41:56.082Z</time></trkpt><trkpt lat="42.0848517" lon="12.1784483"><ele>276.6666666666667</ele><time>2026-04-15T08:41:57.082Z</time></trkpt><trkpt lat="42.0849283" lon="12.1785517"><ele>276.3333333333333</ele><time>2026-04-15T08:41:59.087Z</time></trkpt><trkpt lat="42.0849967" lon="12.1786583"><ele>276.0</ele><time>2026-04-15T08:48:07.083Z</time></trkpt><trkpt lat="42.0850933" lon="12.1786467"><ele>275.0</ele><time>2026-04-15T08:48:10.079Z</time></trkpt><trkpt lat="42.08518" lon="12.1786567"><ele>274.0</ele><time>2026-04-15T08:48:12.079Z</time></trkpt><trkpt lat="42.0852717" lon="12.1787117"><ele>273.0</ele><time>2026-04-15T08:48:14.079Z</time></trkpt><trkpt lat="42.0853367" lon="12.178835"><ele>272.0</ele><time>2026-04-15T08:48:16.08Z</time></trkpt><trkpt lat="42.085335" lon="12.1789217"><ele>271.0</ele><time>2026-04-15T08:48:17.081Z</time></trkpt><trkpt lat="42.085295" lon="12.1790767"><ele>270.0</ele><time>2026-04-15T08:48:19.078Z</time></trkpt><trkpt lat="42.0852517" lon="12.1791483"><ele>269.0</ele><time>2026-04-15T08:48:20.083Z</time></trkpt><trkpt lat="42.0852" lon="12.1792333"><ele>268.0</ele><time>2026-04-15T08:48:21.08Z</time></trkpt><trkpt lat="42.0851417" lon="12.179315"><ele>267.0</ele><time>2026-04-15T08:48:22.08Z</time></trkpt><trkpt lat="42.08508" lon="12.1793883"><ele>266.0</ele><time>2026-04-15T08:48:23.079Z</time></trkpt><trkpt lat="42.0850283" lon="12.1794733"><ele>265.0</ele><time>2026-04-15T08:48:24.083Z</time></trkpt><trkpt lat="42.084975" lon="12.17955"><ele>265.66666666666663</ele><time>2026-04-15T08:48:25.084Z</time></trkpt><trkpt lat="42.0849133" lon="12.1796067"><ele>266.3333333333333</ele><time>2026-04-15T08:48:26.078Z</time></trkpt><trkpt lat="42.084845" lon="12.1796417"><ele>267.0</ele><time>2026-04-15T08:48:27.082Z</time></trkpt><trkpt lat="42.0847767" lon="12.1796567"><ele>267.6666666666667</ele><time>2026-04-15T08:48:28.08Z</time></trkpt><trkpt lat="42.08467" lon="12.1796433"><ele>268.33333333333337</ele><time>2026-04-15T08:48:30.079Z</time></trkpt><trkpt lat="42.0845883" lon="12.1796583"><ele>269.0</ele><time>2026-04-15T08:48:32.083Z</time></trkpt><trkpt lat="42.0845017" lon="12.1796617"><ele>269.0</ele><time>2026-04-15T08:48:34.081Z</time></trkpt><trkpt lat="42.084435" lon="12.179675"><ele>269.0</ele><time>2026-04-15T08:48:36.079Z</time></trkpt></trkseg></trk></gpx>